<?xml version="1.0" encoding="UTF-8" standalone="no" ?>
<gpx xmlns="http://www.topografix.com/GPX/1/1" xmlns:xsi="http://www.w3.org/2001/XMLSchema-instance" xsi:schemaLocation="http://www.topografix.com/GPX/1/1 http://www.topografix.com/GPX/1/1/gpx.xsd" version="1.1" creator="VisuGPX - https://www.visugpx.com">
  <metadata>
    <name>VTT XC/AM Euromédecine</name>
    <desc><![CDATA[Sortie typée xc / AM depuis Euromédecine en passant par le nord du golf de Juvignac, la source de l'Avy; contour de Montalet, puis stade de foot et retour par route. ]]></desc>
  </metadata>
  <trk>
    <name><![CDATA[VTT XC/AM Euromédecine_1]]></name>
    <trkseg>
      <trkpt lat="43.63768" lon="3.82855">
        <ele>126</ele>
        <time>2017-09-07T10:10:42Z</time>
      </trkpt>
      <trkpt lat="43.63768" lon="3.82855">
        <ele>126</ele>
        <time>2017-09-07T10:10:37Z</time>
      </trkpt>
      <trkpt lat="43.63771" lon="3.8286">
        <ele>124.6</ele>
        <time>2017-09-07T10:12:03Z</time>
      </trkpt>
      <trkpt lat="43.63765" lon="3.82861">
        <ele>123.2</ele>
        <time>2017-09-07T10:12:39Z</time>
      </trkpt>
      <trkpt lat="43.63764" lon="3.82863">
        <ele>122.2</ele>
        <time>2017-09-07T10:12:53Z</time>
      </trkpt>
      <trkpt lat="43.63765" lon="3.82866">
        <ele>122.2</ele>
        <time>2017-09-07T10:13:00Z</time>
      </trkpt>
      <trkpt lat="43.63764" lon="3.82866">
        <ele>122.3</ele>
        <time>2017-09-07T10:13:28Z</time>
      </trkpt>
      <trkpt lat="43.63764" lon="3.82868">
        <ele>122.3</ele>
        <time>2017-09-07T10:13:35Z</time>
      </trkpt>
      <trkpt lat="43.63768" lon="3.82867">
        <ele>122.4</ele>
        <time>2017-09-07T10:13:42Z</time>
      </trkpt>
      <trkpt lat="43.63765" lon="3.82863">
        <ele>123</ele>
        <time>2017-09-07T10:13:49Z</time>
      </trkpt>
      <trkpt lat="43.63763" lon="3.82858">
        <ele>123.9</ele>
        <time>2017-09-07T10:13:56Z</time>
      </trkpt>
      <trkpt lat="43.63767" lon="3.82855">
        <ele>124.4</ele>
        <time>2017-09-07T10:14:22Z</time>
      </trkpt>
      <trkpt lat="43.6377" lon="3.82855">
        <ele>124.7</ele>
        <time>2017-09-07T10:14:29Z</time>
      </trkpt>
      <trkpt lat="43.63778" lon="3.82851">
        <ele>125.1</ele>
        <time>2017-09-07T10:14:33Z</time>
      </trkpt>
      <trkpt lat="43.63775" lon="3.82839">
        <ele>125.2</ele>
        <time>2017-09-07T10:14:36Z</time>
      </trkpt>
      <trkpt lat="43.6377" lon="3.82829">
        <ele>125.3</ele>
        <time>2017-09-07T10:14:38Z</time>
      </trkpt>
      <trkpt lat="43.63773" lon="3.8282">
        <ele>125.4</ele>
        <time>2017-09-07T10:14:40Z</time>
      </trkpt>
      <trkpt lat="43.63781" lon="3.82812">
        <ele>125.5</ele>
        <time>2017-09-07T10:14:43Z</time>
      </trkpt>
      <trkpt lat="43.6379" lon="3.8281">
        <ele>125.4</ele>
        <time>2017-09-07T10:14:47Z</time>
      </trkpt>
      <trkpt lat="43.638" lon="3.82807">
        <ele>125.4</ele>
        <time>2017-09-07T10:14:50Z</time>
      </trkpt>
      <trkpt lat="43.63808" lon="3.82809">
        <ele>125.4</ele>
        <time>2017-09-07T10:14:52Z</time>
      </trkpt>
      <trkpt lat="43.63819" lon="3.82806">
        <ele>125.4</ele>
        <time>2017-09-07T10:14:55Z</time>
      </trkpt>
      <trkpt lat="43.63827" lon="3.82806">
        <ele>125.3</ele>
        <time>2017-09-07T10:14:57Z</time>
      </trkpt>
      <trkpt lat="43.63835" lon="3.82803">
        <ele>125.3</ele>
        <time>2017-09-07T10:14:59Z</time>
      </trkpt>
      <trkpt lat="43.63845" lon="3.82804">
        <ele>125.1</ele>
        <time>2017-09-07T10:15:03Z</time>
      </trkpt>
      <trkpt lat="43.63853" lon="3.828">
        <ele>125</ele>
        <time>2017-09-07T10:15:06Z</time>
      </trkpt>
      <trkpt lat="43.63863" lon="3.82792">
        <ele>124.8</ele>
        <time>2017-09-07T10:15:09Z</time>
      </trkpt>
      <trkpt lat="43.63872" lon="3.82785">
        <ele>124.7</ele>
        <time>2017-09-07T10:15:12Z</time>
      </trkpt>
      <trkpt lat="43.63878" lon="3.82778">
        <ele>124.7</ele>
        <time>2017-09-07T10:15:14Z</time>
      </trkpt>
      <trkpt lat="43.63886" lon="3.8278">
        <ele>124.9</ele>
        <time>2017-09-07T10:15:21Z</time>
      </trkpt>
      <trkpt lat="43.63894" lon="3.82785">
        <ele>125</ele>
        <time>2017-09-07T10:15:25Z</time>
      </trkpt>
      <trkpt lat="43.63903" lon="3.82791">
        <ele>125.2</ele>
        <time>2017-09-07T10:15:28Z</time>
      </trkpt>
      <trkpt lat="43.6391" lon="3.82797">
        <ele>125.3</ele>
        <time>2017-09-07T10:15:31Z</time>
      </trkpt>
      <trkpt lat="43.63915" lon="3.82806">
        <ele>125.3</ele>
        <time>2017-09-07T10:15:33Z</time>
      </trkpt>
      <trkpt lat="43.6392" lon="3.82816">
        <ele>125.2</ele>
        <time>2017-09-07T10:15:37Z</time>
      </trkpt>
      <trkpt lat="43.63922" lon="3.82819">
        <ele>125.3</ele>
        <time>2017-09-07T10:15:44Z</time>
      </trkpt>
      <trkpt lat="43.63933" lon="3.82821">
        <ele>125.4</ele>
        <time>2017-09-07T10:15:48Z</time>
      </trkpt>
      <trkpt lat="43.63942" lon="3.82819">
        <ele>125.6</ele>
        <time>2017-09-07T10:15:52Z</time>
      </trkpt>
      <trkpt lat="43.6395" lon="3.82814">
        <ele>125.8</ele>
        <time>2017-09-07T10:15:56Z</time>
      </trkpt>
      <trkpt lat="43.63959" lon="3.8281">
        <ele>126</ele>
        <time>2017-09-07T10:15:59Z</time>
      </trkpt>
      <trkpt lat="43.63966" lon="3.82806">
        <ele>126.2</ele>
        <time>2017-09-07T10:16:01Z</time>
      </trkpt>
      <trkpt lat="43.63976" lon="3.82803">
        <ele>126.4</ele>
        <time>2017-09-07T10:16:04Z</time>
      </trkpt>
      <trkpt lat="43.63986" lon="3.82801">
        <ele>126.5</ele>
        <time>2017-09-07T10:16:06Z</time>
      </trkpt>
      <trkpt lat="43.63996" lon="3.828">
        <ele>126.8</ele>
        <time>2017-09-07T10:16:09Z</time>
      </trkpt>
      <trkpt lat="43.64007" lon="3.82796">
        <ele>127.1</ele>
        <time>2017-09-07T10:16:12Z</time>
      </trkpt>
      <trkpt lat="43.64012" lon="3.82788">
        <ele>127.4</ele>
        <time>2017-09-07T10:16:14Z</time>
      </trkpt>
      <trkpt lat="43.64015" lon="3.82779">
        <ele>127.6</ele>
        <time>2017-09-07T10:16:16Z</time>
      </trkpt>
      <trkpt lat="43.6402" lon="3.82772">
        <ele>128</ele>
        <time>2017-09-07T10:16:19Z</time>
      </trkpt>
      <trkpt lat="43.64027" lon="3.82767">
        <ele>128.3</ele>
        <time>2017-09-07T10:16:22Z</time>
      </trkpt>
      <trkpt lat="43.64035" lon="3.82762">
        <ele>128.5</ele>
        <time>2017-09-07T10:16:24Z</time>
      </trkpt>
      <trkpt lat="43.64042" lon="3.82752">
        <ele>128.8</ele>
        <time>2017-09-07T10:16:27Z</time>
      </trkpt>
      <trkpt lat="43.64049" lon="3.82749">
        <ele>128.9</ele>
        <time>2017-09-07T10:16:29Z</time>
      </trkpt>
      <trkpt lat="43.64056" lon="3.82742">
        <ele>129.1</ele>
        <time>2017-09-07T10:16:31Z</time>
      </trkpt>
      <trkpt lat="43.64064" lon="3.82734">
        <ele>129.3</ele>
        <time>2017-09-07T10:16:34Z</time>
      </trkpt>
      <trkpt lat="43.6407" lon="3.8273">
        <ele>129.4</ele>
        <time>2017-09-07T10:16:37Z</time>
      </trkpt>
      <trkpt lat="43.64079" lon="3.82724">
        <ele>129.5</ele>
        <time>2017-09-07T10:16:40Z</time>
      </trkpt>
      <trkpt lat="43.64087" lon="3.8272">
        <ele>129.5</ele>
        <time>2017-09-07T10:16:43Z</time>
      </trkpt>
      <trkpt lat="43.64094" lon="3.82713">
        <ele>129.6</ele>
        <time>2017-09-07T10:16:46Z</time>
      </trkpt>
      <trkpt lat="43.64102" lon="3.82705">
        <ele>129.7</ele>
        <time>2017-09-07T10:16:49Z</time>
      </trkpt>
      <trkpt lat="43.64107" lon="3.82695">
        <ele>129.8</ele>
        <time>2017-09-07T10:16:52Z</time>
      </trkpt>
      <trkpt lat="43.64113" lon="3.82689">
        <ele>129.9</ele>
        <time>2017-09-07T10:16:55Z</time>
      </trkpt>
      <trkpt lat="43.64119" lon="3.82682">
        <ele>130.1</ele>
        <time>2017-09-07T10:16:58Z</time>
      </trkpt>
      <trkpt lat="43.64125" lon="3.82675">
        <ele>130.3</ele>
        <time>2017-09-07T10:17:00Z</time>
      </trkpt>
      <trkpt lat="43.64132" lon="3.82667">
        <ele>130.5</ele>
        <time>2017-09-07T10:17:03Z</time>
      </trkpt>
      <trkpt lat="43.64138" lon="3.82658">
        <ele>130.7</ele>
        <time>2017-09-07T10:17:06Z</time>
      </trkpt>
      <trkpt lat="43.64144" lon="3.82651">
        <ele>130.8</ele>
        <time>2017-09-07T10:17:09Z</time>
      </trkpt>
      <trkpt lat="43.6415" lon="3.82644">
        <ele>130.7</ele>
        <time>2017-09-07T10:17:11Z</time>
      </trkpt>
      <trkpt lat="43.64158" lon="3.82635">
        <ele>130.6</ele>
        <time>2017-09-07T10:17:14Z</time>
      </trkpt>
      <trkpt lat="43.64166" lon="3.82628">
        <ele>130.7</ele>
        <time>2017-09-07T10:17:16Z</time>
      </trkpt>
      <trkpt lat="43.64171" lon="3.8262">
        <ele>130.7</ele>
        <time>2017-09-07T10:17:19Z</time>
      </trkpt>
      <trkpt lat="43.64179" lon="3.82611">
        <ele>130.6</ele>
        <time>2017-09-07T10:17:22Z</time>
      </trkpt>
      <trkpt lat="43.64186" lon="3.82603">
        <ele>130.5</ele>
        <time>2017-09-07T10:17:25Z</time>
      </trkpt>
      <trkpt lat="43.64193" lon="3.82595">
        <ele>130.3</ele>
        <time>2017-09-07T10:17:28Z</time>
      </trkpt>
      <trkpt lat="43.64198" lon="3.82588">
        <ele>130.2</ele>
        <time>2017-09-07T10:17:31Z</time>
      </trkpt>
      <trkpt lat="43.64205" lon="3.82579">
        <ele>130</ele>
        <time>2017-09-07T10:17:33Z</time>
      </trkpt>
      <trkpt lat="43.64211" lon="3.8257">
        <ele>130</ele>
        <time>2017-09-07T10:17:35Z</time>
      </trkpt>
      <trkpt lat="43.64215" lon="3.82561">
        <ele>129.9</ele>
        <time>2017-09-07T10:17:38Z</time>
      </trkpt>
      <trkpt lat="43.64219" lon="3.82548">
        <ele>130.1</ele>
        <time>2017-09-07T10:17:41Z</time>
      </trkpt>
      <trkpt lat="43.64224" lon="3.82537">
        <ele>130.2</ele>
        <time>2017-09-07T10:17:44Z</time>
      </trkpt>
      <trkpt lat="43.6423" lon="3.82528">
        <ele>130.4</ele>
        <time>2017-09-07T10:17:48Z</time>
      </trkpt>
      <trkpt lat="43.64234" lon="3.82515">
        <ele>130.4</ele>
        <time>2017-09-07T10:17:51Z</time>
      </trkpt>
      <trkpt lat="43.64237" lon="3.82505">
        <ele>130.5</ele>
        <time>2017-09-07T10:17:54Z</time>
      </trkpt>
      <trkpt lat="43.64241" lon="3.82495">
        <ele>130.6</ele>
        <time>2017-09-07T10:17:56Z</time>
      </trkpt>
      <trkpt lat="43.64244" lon="3.82485">
        <ele>130.8</ele>
        <time>2017-09-07T10:17:58Z</time>
      </trkpt>
      <trkpt lat="43.64249" lon="3.82474">
        <ele>131.3</ele>
        <time>2017-09-07T10:18:01Z</time>
      </trkpt>
      <trkpt lat="43.64253" lon="3.82462">
        <ele>132</ele>
        <time>2017-09-07T10:18:04Z</time>
      </trkpt>
      <trkpt lat="43.64259" lon="3.82451">
        <ele>132.7</ele>
        <time>2017-09-07T10:18:07Z</time>
      </trkpt>
      <trkpt lat="43.64263" lon="3.82442">
        <ele>133.5</ele>
        <time>2017-09-07T10:18:11Z</time>
      </trkpt>
      <trkpt lat="43.64268" lon="3.82429">
        <ele>134.1</ele>
        <time>2017-09-07T10:18:14Z</time>
      </trkpt>
      <trkpt lat="43.64271" lon="3.8242">
        <ele>134.4</ele>
        <time>2017-09-07T10:18:16Z</time>
      </trkpt>
      <trkpt lat="43.64277" lon="3.82408">
        <ele>134.9</ele>
        <time>2017-09-07T10:18:19Z</time>
      </trkpt>
      <trkpt lat="43.64283" lon="3.824">
        <ele>136.5</ele>
        <time>2017-09-07T10:18:21Z</time>
      </trkpt>
      <trkpt lat="43.6429" lon="3.82394">
        <ele>136.7</ele>
        <time>2017-09-07T10:18:23Z</time>
      </trkpt>
      <trkpt lat="43.64299" lon="3.82389">
        <ele>137.5</ele>
        <time>2017-09-07T10:18:25Z</time>
      </trkpt>
      <trkpt lat="43.64305" lon="3.8238">
        <ele>137.6</ele>
        <time>2017-09-07T10:18:27Z</time>
      </trkpt>
      <trkpt lat="43.64307" lon="3.82371">
        <ele>137.7</ele>
        <time>2017-09-07T10:18:29Z</time>
      </trkpt>
      <trkpt lat="43.64309" lon="3.82359">
        <ele>137.8</ele>
        <time>2017-09-07T10:18:32Z</time>
      </trkpt>
      <trkpt lat="43.64314" lon="3.82349">
        <ele>137.9</ele>
        <time>2017-09-07T10:18:35Z</time>
      </trkpt>
      <trkpt lat="43.64318" lon="3.82339">
        <ele>138</ele>
        <time>2017-09-07T10:18:37Z</time>
      </trkpt>
      <trkpt lat="43.64322" lon="3.82329">
        <ele>138</ele>
        <time>2017-09-07T10:18:39Z</time>
      </trkpt>
      <trkpt lat="43.64326" lon="3.82316">
        <ele>138.2</ele>
        <time>2017-09-07T10:18:42Z</time>
      </trkpt>
      <trkpt lat="43.6433" lon="3.82306">
        <ele>138.5</ele>
        <time>2017-09-07T10:18:45Z</time>
      </trkpt>
      <trkpt lat="43.64334" lon="3.82296">
        <ele>138.8</ele>
        <time>2017-09-07T10:18:48Z</time>
      </trkpt>
      <trkpt lat="43.6434" lon="3.82285">
        <ele>139.3</ele>
        <time>2017-09-07T10:18:51Z</time>
      </trkpt>
      <trkpt lat="43.64345" lon="3.82278">
        <ele>139.6</ele>
        <time>2017-09-07T10:18:53Z</time>
      </trkpt>
      <trkpt lat="43.64352" lon="3.82269">
        <ele>139.8</ele>
        <time>2017-09-07T10:18:55Z</time>
      </trkpt>
      <trkpt lat="43.6436" lon="3.82263">
        <ele>140.1</ele>
        <time>2017-09-07T10:18:57Z</time>
      </trkpt>
      <trkpt lat="43.64368" lon="3.82261">
        <ele>140.5</ele>
        <time>2017-09-07T10:19:00Z</time>
      </trkpt>
      <trkpt lat="43.64364" lon="3.82251">
        <ele>141.3</ele>
        <time>2017-09-07T10:19:05Z</time>
      </trkpt>
      <trkpt lat="43.64362" lon="3.8224">
        <ele>141.8</ele>
        <time>2017-09-07T10:19:08Z</time>
      </trkpt>
      <trkpt lat="43.64361" lon="3.82229">
        <ele>142.4</ele>
        <time>2017-09-07T10:19:11Z</time>
      </trkpt>
      <trkpt lat="43.64355" lon="3.82219">
        <ele>143.3</ele>
        <time>2017-09-07T10:19:15Z</time>
      </trkpt>
      <trkpt lat="43.64349" lon="3.82211">
        <ele>144.7</ele>
        <time>2017-09-07T10:19:20Z</time>
      </trkpt>
      <trkpt lat="43.64346" lon="3.82202">
        <ele>145.4</ele>
        <time>2017-09-07T10:19:23Z</time>
      </trkpt>
      <trkpt lat="43.64345" lon="3.82192">
        <ele>146.2</ele>
        <time>2017-09-07T10:19:26Z</time>
      </trkpt>
      <trkpt lat="43.64341" lon="3.82183">
        <ele>146.8</ele>
        <time>2017-09-07T10:19:29Z</time>
      </trkpt>
      <trkpt lat="43.64337" lon="3.8217">
        <ele>147.3</ele>
        <time>2017-09-07T10:19:32Z</time>
      </trkpt>
      <trkpt lat="43.64334" lon="3.82157">
        <ele>147.8</ele>
        <time>2017-09-07T10:19:35Z</time>
      </trkpt>
      <trkpt lat="43.64335" lon="3.82147">
        <ele>148.4</ele>
        <time>2017-09-07T10:19:37Z</time>
      </trkpt>
      <trkpt lat="43.64334" lon="3.82135">
        <ele>149.8</ele>
        <time>2017-09-07T10:19:42Z</time>
      </trkpt>
      <trkpt lat="43.64332" lon="3.82122">
        <ele>150.4</ele>
        <time>2017-09-07T10:19:44Z</time>
      </trkpt>
      <trkpt lat="43.64332" lon="3.82108">
        <ele>151.3</ele>
        <time>2017-09-07T10:19:47Z</time>
      </trkpt>
      <trkpt lat="43.64332" lon="3.82095">
        <ele>152</ele>
        <time>2017-09-07T10:19:50Z</time>
      </trkpt>
      <trkpt lat="43.64337" lon="3.82085">
        <ele>152.4</ele>
        <time>2017-09-07T10:19:53Z</time>
      </trkpt>
      <trkpt lat="43.64341" lon="3.82075">
        <ele>152.5</ele>
        <time>2017-09-07T10:19:55Z</time>
      </trkpt>
      <trkpt lat="43.64345" lon="3.82067">
        <ele>152.4</ele>
        <time>2017-09-07T10:19:57Z</time>
      </trkpt>
      <trkpt lat="43.64349" lon="3.82058">
        <ele>152.4</ele>
        <time>2017-09-07T10:19:59Z</time>
      </trkpt>
      <trkpt lat="43.64353" lon="3.82047">
        <ele>152.3</ele>
        <time>2017-09-07T10:20:02Z</time>
      </trkpt>
      <trkpt lat="43.64358" lon="3.82037">
        <ele>152.3</ele>
        <time>2017-09-07T10:20:05Z</time>
      </trkpt>
      <trkpt lat="43.64361" lon="3.82028">
        <ele>152.2</ele>
        <time>2017-09-07T10:20:07Z</time>
      </trkpt>
      <trkpt lat="43.64366" lon="3.82018">
        <ele>152.2</ele>
        <time>2017-09-07T10:20:09Z</time>
      </trkpt>
      <trkpt lat="43.64373" lon="3.8201">
        <ele>152.1</ele>
        <time>2017-09-07T10:20:12Z</time>
      </trkpt>
      <trkpt lat="43.64379" lon="3.82">
        <ele>152.2</ele>
        <time>2017-09-07T10:20:14Z</time>
      </trkpt>
      <trkpt lat="43.64383" lon="3.81988">
        <ele>152.4</ele>
        <time>2017-09-07T10:20:17Z</time>
      </trkpt>
      <trkpt lat="43.64387" lon="3.8198">
        <ele>152.8</ele>
        <time>2017-09-07T10:20:20Z</time>
      </trkpt>
      <trkpt lat="43.64389" lon="3.81969">
        <ele>153.3</ele>
        <time>2017-09-07T10:20:23Z</time>
      </trkpt>
      <trkpt lat="43.64396" lon="3.81956">
        <ele>154.9</ele>
        <time>2017-09-07T10:20:26Z</time>
      </trkpt>
      <trkpt lat="43.64399" lon="3.81946">
        <ele>155.2</ele>
        <time>2017-09-07T10:20:29Z</time>
      </trkpt>
      <trkpt lat="43.64399" lon="3.81933">
        <ele>155.3</ele>
        <time>2017-09-07T10:20:33Z</time>
      </trkpt>
      <trkpt lat="43.64403" lon="3.81922">
        <ele>155.4</ele>
        <time>2017-09-07T10:20:36Z</time>
      </trkpt>
      <trkpt lat="43.64408" lon="3.81912">
        <ele>155.5</ele>
        <time>2017-09-07T10:20:39Z</time>
      </trkpt>
      <trkpt lat="43.64409" lon="3.81901">
        <ele>155.4</ele>
        <time>2017-09-07T10:20:43Z</time>
      </trkpt>
      <trkpt lat="43.64408" lon="3.81888">
        <ele>155.5</ele>
        <time>2017-09-07T10:20:46Z</time>
      </trkpt>
      <trkpt lat="43.64408" lon="3.81875">
        <ele>155.6</ele>
        <time>2017-09-07T10:20:49Z</time>
      </trkpt>
      <trkpt lat="43.64409" lon="3.81865">
        <ele>155.7</ele>
        <time>2017-09-07T10:20:51Z</time>
      </trkpt>
      <trkpt lat="43.64409" lon="3.81854">
        <ele>155.8</ele>
        <time>2017-09-07T10:20:53Z</time>
      </trkpt>
      <trkpt lat="43.64409" lon="3.81844">
        <ele>156</ele>
        <time>2017-09-07T10:20:55Z</time>
      </trkpt>
      <trkpt lat="43.64408" lon="3.81832">
        <ele>156.3</ele>
        <time>2017-09-07T10:20:58Z</time>
      </trkpt>
      <trkpt lat="43.64414" lon="3.81818">
        <ele>158</ele>
        <time>2017-09-07T10:21:00Z</time>
      </trkpt>
      <trkpt lat="43.6442" lon="3.8181">
        <ele>158.1</ele>
        <time>2017-09-07T10:21:02Z</time>
      </trkpt>
      <trkpt lat="43.64419" lon="3.81799">
        <ele>158.2</ele>
        <time>2017-09-07T10:21:05Z</time>
      </trkpt>
      <trkpt lat="43.64412" lon="3.81786">
        <ele>159.7</ele>
        <time>2017-09-07T10:21:08Z</time>
      </trkpt>
      <trkpt lat="43.64406" lon="3.81777">
        <ele>159.9</ele>
        <time>2017-09-07T10:21:10Z</time>
      </trkpt>
      <trkpt lat="43.64401" lon="3.81767">
        <ele>160.1</ele>
        <time>2017-09-07T10:21:12Z</time>
      </trkpt>
      <trkpt lat="43.64397" lon="3.81755">
        <ele>160.4</ele>
        <time>2017-09-07T10:21:15Z</time>
      </trkpt>
      <trkpt lat="43.64393" lon="3.81744">
        <ele>160.9</ele>
        <time>2017-09-07T10:21:18Z</time>
      </trkpt>
      <trkpt lat="43.64388" lon="3.81734">
        <ele>161.6</ele>
        <time>2017-09-07T10:21:21Z</time>
      </trkpt>
      <trkpt lat="43.64384" lon="3.81725">
        <ele>162</ele>
        <time>2017-09-07T10:21:23Z</time>
      </trkpt>
      <trkpt lat="43.64379" lon="3.81716">
        <ele>164.5</ele>
        <time>2017-09-07T10:21:26Z</time>
      </trkpt>
      <trkpt lat="43.64376" lon="3.81706">
        <ele>164.9</ele>
        <time>2017-09-07T10:21:28Z</time>
      </trkpt>
      <trkpt lat="43.64375" lon="3.81695">
        <ele>165.4</ele>
        <time>2017-09-07T10:21:31Z</time>
      </trkpt>
      <trkpt lat="43.64371" lon="3.81685">
        <ele>165.9</ele>
        <time>2017-09-07T10:21:34Z</time>
      </trkpt>
      <trkpt lat="43.64367" lon="3.81675">
        <ele>166.2</ele>
        <time>2017-09-07T10:21:36Z</time>
      </trkpt>
      <trkpt lat="43.64365" lon="3.81664">
        <ele>169.4</ele>
        <time>2017-09-07T10:21:38Z</time>
      </trkpt>
      <trkpt lat="43.64362" lon="3.81655">
        <ele>169.6</ele>
        <time>2017-09-07T10:21:40Z</time>
      </trkpt>
      <trkpt lat="43.64358" lon="3.81646">
        <ele>171.9</ele>
        <time>2017-09-07T10:21:42Z</time>
      </trkpt>
      <trkpt lat="43.64355" lon="3.81635">
        <ele>172.1</ele>
        <time>2017-09-07T10:21:44Z</time>
      </trkpt>
      <trkpt lat="43.64352" lon="3.81626">
        <ele>172.4</ele>
        <time>2017-09-07T10:21:46Z</time>
      </trkpt>
      <trkpt lat="43.64347" lon="3.81617">
        <ele>172.7</ele>
        <time>2017-09-07T10:21:48Z</time>
      </trkpt>
      <trkpt lat="43.64341" lon="3.81606">
        <ele>173</ele>
        <time>2017-09-07T10:21:51Z</time>
      </trkpt>
      <trkpt lat="43.64338" lon="3.81596">
        <ele>173.4</ele>
        <time>2017-09-07T10:21:54Z</time>
      </trkpt>
      <trkpt lat="43.64334" lon="3.81583">
        <ele>173.7</ele>
        <time>2017-09-07T10:21:57Z</time>
      </trkpt>
      <trkpt lat="43.6433" lon="3.81573">
        <ele>174.1</ele>
        <time>2017-09-07T10:22:00Z</time>
      </trkpt>
      <trkpt lat="43.64327" lon="3.81562">
        <ele>174.3</ele>
        <time>2017-09-07T10:22:03Z</time>
      </trkpt>
      <trkpt lat="43.64325" lon="3.81552">
        <ele>174.9</ele>
        <time>2017-09-07T10:22:05Z</time>
      </trkpt>
      <trkpt lat="43.64321" lon="3.81542">
        <ele>176.2</ele>
        <time>2017-09-07T10:22:07Z</time>
      </trkpt>
      <trkpt lat="43.64319" lon="3.81529">
        <ele>176.7</ele>
        <time>2017-09-07T10:22:09Z</time>
      </trkpt>
      <trkpt lat="43.64316" lon="3.81513">
        <ele>176.6</ele>
        <time>2017-09-07T10:22:11Z</time>
      </trkpt>
      <trkpt lat="43.64313" lon="3.81498">
        <ele>175.9</ele>
        <time>2017-09-07T10:22:13Z</time>
      </trkpt>
      <trkpt lat="43.64309" lon="3.81485">
        <ele>175.1</ele>
        <time>2017-09-07T10:22:15Z</time>
      </trkpt>
      <trkpt lat="43.64306" lon="3.81473">
        <ele>174.5</ele>
        <time>2017-09-07T10:22:17Z</time>
      </trkpt>
      <trkpt lat="43.64303" lon="3.8146">
        <ele>173.9</ele>
        <time>2017-09-07T10:22:19Z</time>
      </trkpt>
      <trkpt lat="43.643" lon="3.81447">
        <ele>174.1</ele>
        <time>2017-09-07T10:22:21Z</time>
      </trkpt>
      <trkpt lat="43.64297" lon="3.81434">
        <ele>174.1</ele>
        <time>2017-09-07T10:22:23Z</time>
      </trkpt>
      <trkpt lat="43.64293" lon="3.81422">
        <ele>174.2</ele>
        <time>2017-09-07T10:22:25Z</time>
      </trkpt>
      <trkpt lat="43.64288" lon="3.81408">
        <ele>174.1</ele>
        <time>2017-09-07T10:22:27Z</time>
      </trkpt>
      <trkpt lat="43.64283" lon="3.81392">
        <ele>173.9</ele>
        <time>2017-09-07T10:22:29Z</time>
      </trkpt>
      <trkpt lat="43.6428" lon="3.81381">
        <ele>173.8</ele>
        <time>2017-09-07T10:22:31Z</time>
      </trkpt>
      <trkpt lat="43.64274" lon="3.81367">
        <ele>173.8</ele>
        <time>2017-09-07T10:22:34Z</time>
      </trkpt>
      <trkpt lat="43.64269" lon="3.81356">
        <ele>173.8</ele>
        <time>2017-09-07T10:22:36Z</time>
      </trkpt>
      <trkpt lat="43.64262" lon="3.81343">
        <ele>174.1</ele>
        <time>2017-09-07T10:22:39Z</time>
      </trkpt>
      <trkpt lat="43.64258" lon="3.81332">
        <ele>174.1</ele>
        <time>2017-09-07T10:22:41Z</time>
      </trkpt>
      <trkpt lat="43.64252" lon="3.81323">
        <ele>174.1</ele>
        <time>2017-09-07T10:22:44Z</time>
      </trkpt>
      <trkpt lat="43.64246" lon="3.81316">
        <ele>173.9</ele>
        <time>2017-09-07T10:22:47Z</time>
      </trkpt>
      <trkpt lat="43.6424" lon="3.81307">
        <ele>173.9</ele>
        <time>2017-09-07T10:22:50Z</time>
      </trkpt>
      <trkpt lat="43.64233" lon="3.81297">
        <ele>174.1</ele>
        <time>2017-09-07T10:22:53Z</time>
      </trkpt>
      <trkpt lat="43.64228" lon="3.81289">
        <ele>174.1</ele>
        <time>2017-09-07T10:22:55Z</time>
      </trkpt>
      <trkpt lat="43.64223" lon="3.81279">
        <ele>174.1</ele>
        <time>2017-09-07T10:22:57Z</time>
      </trkpt>
      <trkpt lat="43.64216" lon="3.81269">
        <ele>174.1</ele>
        <time>2017-09-07T10:23:00Z</time>
      </trkpt>
      <trkpt lat="43.64212" lon="3.8126">
        <ele>173.8</ele>
        <time>2017-09-07T10:23:03Z</time>
      </trkpt>
      <trkpt lat="43.64206" lon="3.81247">
        <ele>173.6</ele>
        <time>2017-09-07T10:23:06Z</time>
      </trkpt>
      <trkpt lat="43.64201" lon="3.81237">
        <ele>173.5</ele>
        <time>2017-09-07T10:23:08Z</time>
      </trkpt>
      <trkpt lat="43.64197" lon="3.81228">
        <ele>173</ele>
        <time>2017-09-07T10:23:10Z</time>
      </trkpt>
      <trkpt lat="43.6419" lon="3.81215">
        <ele>172.1</ele>
        <time>2017-09-07T10:23:13Z</time>
      </trkpt>
      <trkpt lat="43.64184" lon="3.81206">
        <ele>171.9</ele>
        <time>2017-09-07T10:23:15Z</time>
      </trkpt>
      <trkpt lat="43.64177" lon="3.81199">
        <ele>172</ele>
        <time>2017-09-07T10:23:17Z</time>
      </trkpt>
      <trkpt lat="43.6417" lon="3.81188">
        <ele>172.5</ele>
        <time>2017-09-07T10:23:19Z</time>
      </trkpt>
      <trkpt lat="43.64162" lon="3.81181">
        <ele>173.5</ele>
        <time>2017-09-07T10:23:21Z</time>
      </trkpt>
      <trkpt lat="43.64154" lon="3.81171">
        <ele>174.7</ele>
        <time>2017-09-07T10:23:23Z</time>
      </trkpt>
      <trkpt lat="43.64146" lon="3.81163">
        <ele>176.4</ele>
        <time>2017-09-07T10:23:25Z</time>
      </trkpt>
      <trkpt lat="43.64138" lon="3.81154">
        <ele>177.7</ele>
        <time>2017-09-07T10:23:27Z</time>
      </trkpt>
      <trkpt lat="43.64129" lon="3.81146">
        <ele>178.4</ele>
        <time>2017-09-07T10:23:29Z</time>
      </trkpt>
      <trkpt lat="43.64123" lon="3.81139">
        <ele>178.8</ele>
        <time>2017-09-07T10:23:30Z</time>
      </trkpt>
      <trkpt lat="43.64118" lon="3.81132">
        <ele>179.4</ele>
        <time>2017-09-07T10:23:32Z</time>
      </trkpt>
      <trkpt lat="43.64112" lon="3.81125">
        <ele>179.8</ele>
        <time>2017-09-07T10:23:34Z</time>
      </trkpt>
      <trkpt lat="43.64103" lon="3.81112">
        <ele>181</ele>
        <time>2017-09-07T10:23:36Z</time>
      </trkpt>
      <trkpt lat="43.64097" lon="3.81104">
        <ele>181.7</ele>
        <time>2017-09-07T10:23:38Z</time>
      </trkpt>
      <trkpt lat="43.64087" lon="3.81095">
        <ele>181.9</ele>
        <time>2017-09-07T10:23:40Z</time>
      </trkpt>
      <trkpt lat="43.64084" lon="3.81085">
        <ele>181.1</ele>
        <time>2017-09-07T10:23:45Z</time>
      </trkpt>
      <trkpt lat="43.6409" lon="3.8107">
        <ele>178.6</ele>
        <time>2017-09-07T10:23:51Z</time>
      </trkpt>
      <trkpt lat="43.64097" lon="3.81054">
        <ele>175.2</ele>
        <time>2017-09-07T10:23:53Z</time>
      </trkpt>
      <trkpt lat="43.64101" lon="3.81045">
        <ele>174</ele>
        <time>2017-09-07T10:23:54Z</time>
      </trkpt>
      <trkpt lat="43.64106" lon="3.81035">
        <ele>173.2</ele>
        <time>2017-09-07T10:23:55Z</time>
      </trkpt>
      <trkpt lat="43.6411" lon="3.81024">
        <ele>172.2</ele>
        <time>2017-09-07T10:23:56Z</time>
      </trkpt>
      <trkpt lat="43.64115" lon="3.8101">
        <ele>171.5</ele>
        <time>2017-09-07T10:23:57Z</time>
      </trkpt>
      <trkpt lat="43.6412" lon="3.81">
        <ele>170.7</ele>
        <time>2017-09-07T10:23:58Z</time>
      </trkpt>
      <trkpt lat="43.64126" lon="3.8099">
        <ele>169.9</ele>
        <time>2017-09-07T10:23:59Z</time>
      </trkpt>
      <trkpt lat="43.64132" lon="3.80981">
        <ele>169.3</ele>
        <time>2017-09-07T10:24:00Z</time>
      </trkpt>
      <trkpt lat="43.64136" lon="3.80969">
        <ele>168.9</ele>
        <time>2017-09-07T10:24:01Z</time>
      </trkpt>
      <trkpt lat="43.6414" lon="3.80959">
        <ele>168.3</ele>
        <time>2017-09-07T10:24:02Z</time>
      </trkpt>
      <trkpt lat="43.64148" lon="3.80948">
        <ele>167.4</ele>
        <time>2017-09-07T10:24:04Z</time>
      </trkpt>
      <trkpt lat="43.64154" lon="3.80938">
        <ele>167.3</ele>
        <time>2017-09-07T10:24:06Z</time>
      </trkpt>
      <trkpt lat="43.6416" lon="3.80932">
        <ele>167.1</ele>
        <time>2017-09-07T10:24:08Z</time>
      </trkpt>
      <trkpt lat="43.64168" lon="3.80926">
        <ele>166.5</ele>
        <time>2017-09-07T10:24:11Z</time>
      </trkpt>
      <trkpt lat="43.64173" lon="3.80914">
        <ele>166</ele>
        <time>2017-09-07T10:24:14Z</time>
      </trkpt>
      <trkpt lat="43.64177" lon="3.80904">
        <ele>165.5</ele>
        <time>2017-09-07T10:24:17Z</time>
      </trkpt>
      <trkpt lat="43.6418" lon="3.80895">
        <ele>164.8</ele>
        <time>2017-09-07T10:24:22Z</time>
      </trkpt>
      <trkpt lat="43.64177" lon="3.80888">
        <ele>164.2</ele>
        <time>2017-09-07T10:24:29Z</time>
      </trkpt>
      <trkpt lat="43.64173" lon="3.80878">
        <ele>163.6</ele>
        <time>2017-09-07T10:24:45Z</time>
      </trkpt>
      <trkpt lat="43.6417" lon="3.80867">
        <ele>163.3</ele>
        <time>2017-09-07T10:24:48Z</time>
      </trkpt>
      <trkpt lat="43.64167" lon="3.80855">
        <ele>161.9</ele>
        <time>2017-09-07T10:24:50Z</time>
      </trkpt>
      <trkpt lat="43.64165" lon="3.8084">
        <ele>161.3</ele>
        <time>2017-09-07T10:24:52Z</time>
      </trkpt>
      <trkpt lat="43.64163" lon="3.8083">
        <ele>161.2</ele>
        <time>2017-09-07T10:24:55Z</time>
      </trkpt>
      <trkpt lat="43.64163" lon="3.80814">
        <ele>160.4</ele>
        <time>2017-09-07T10:24:58Z</time>
      </trkpt>
      <trkpt lat="43.64161" lon="3.80801">
        <ele>159.2</ele>
        <time>2017-09-07T10:25:00Z</time>
      </trkpt>
      <trkpt lat="43.6416" lon="3.80784">
        <ele>157</ele>
        <time>2017-09-07T10:25:02Z</time>
      </trkpt>
      <trkpt lat="43.6416" lon="3.80773">
        <ele>156</ele>
        <time>2017-09-07T10:25:03Z</time>
      </trkpt>
      <trkpt lat="43.6416" lon="3.80759">
        <ele>155.3</ele>
        <time>2017-09-07T10:25:04Z</time>
      </trkpt>
      <trkpt lat="43.64159" lon="3.80747">
        <ele>154.5</ele>
        <time>2017-09-07T10:25:05Z</time>
      </trkpt>
      <trkpt lat="43.64158" lon="3.80732">
        <ele>154.3</ele>
        <time>2017-09-07T10:25:06Z</time>
      </trkpt>
      <trkpt lat="43.64157" lon="3.80718">
        <ele>153.9</ele>
        <time>2017-09-07T10:25:07Z</time>
      </trkpt>
      <trkpt lat="43.64156" lon="3.80704">
        <ele>153.4</ele>
        <time>2017-09-07T10:25:08Z</time>
      </trkpt>
      <trkpt lat="43.64152" lon="3.80692">
        <ele>152.8</ele>
        <time>2017-09-07T10:25:09Z</time>
      </trkpt>
      <trkpt lat="43.64148" lon="3.80679">
        <ele>151.9</ele>
        <time>2017-09-07T10:25:10Z</time>
      </trkpt>
      <trkpt lat="43.64147" lon="3.80666">
        <ele>151.3</ele>
        <time>2017-09-07T10:25:11Z</time>
      </trkpt>
      <trkpt lat="43.64145" lon="3.80655">
        <ele>150.8</ele>
        <time>2017-09-07T10:25:12Z</time>
      </trkpt>
      <trkpt lat="43.64144" lon="3.80644">
        <ele>149.9</ele>
        <time>2017-09-07T10:25:13Z</time>
      </trkpt>
      <trkpt lat="43.64141" lon="3.80633">
        <ele>149.3</ele>
        <time>2017-09-07T10:25:14Z</time>
      </trkpt>
      <trkpt lat="43.64133" lon="3.80623">
        <ele>148.9</ele>
        <time>2017-09-07T10:25:16Z</time>
      </trkpt>
      <trkpt lat="43.64126" lon="3.80615">
        <ele>147.5</ele>
        <time>2017-09-07T10:25:18Z</time>
      </trkpt>
      <trkpt lat="43.64121" lon="3.80608">
        <ele>147.2</ele>
        <time>2017-09-07T10:25:20Z</time>
      </trkpt>
      <trkpt lat="43.64113" lon="3.80608">
        <ele>145.6</ele>
        <time>2017-09-07T10:25:24Z</time>
      </trkpt>
      <trkpt lat="43.64103" lon="3.80615">
        <ele>143.3</ele>
        <time>2017-09-07T10:25:27Z</time>
      </trkpt>
      <trkpt lat="43.64093" lon="3.80617">
        <ele>141.7</ele>
        <time>2017-09-07T10:25:29Z</time>
      </trkpt>
      <trkpt lat="43.64084" lon="3.80617">
        <ele>141.4</ele>
        <time>2017-09-07T10:25:32Z</time>
      </trkpt>
      <trkpt lat="43.64073" lon="3.80621">
        <ele>140.9</ele>
        <time>2017-09-07T10:25:35Z</time>
      </trkpt>
      <trkpt lat="43.64063" lon="3.80624">
        <ele>138.8</ele>
        <time>2017-09-07T10:25:37Z</time>
      </trkpt>
      <trkpt lat="43.64053" lon="3.80624">
        <ele>138.4</ele>
        <time>2017-09-07T10:25:39Z</time>
      </trkpt>
      <trkpt lat="43.64044" lon="3.80625">
        <ele>136</ele>
        <time>2017-09-07T10:25:41Z</time>
      </trkpt>
      <trkpt lat="43.64035" lon="3.80632">
        <ele>131.4</ele>
        <time>2017-09-07T10:25:43Z</time>
      </trkpt>
      <trkpt lat="43.64027" lon="3.80637">
        <ele>128.3</ele>
        <time>2017-09-07T10:25:45Z</time>
      </trkpt>
      <trkpt lat="43.6402" lon="3.80641">
        <ele>126</ele>
        <time>2017-09-07T10:25:47Z</time>
      </trkpt>
      <trkpt lat="43.64012" lon="3.80643">
        <ele>123.5</ele>
        <time>2017-09-07T10:25:49Z</time>
      </trkpt>
      <trkpt lat="43.64002" lon="3.80648">
        <ele>121.7</ele>
        <time>2017-09-07T10:25:51Z</time>
      </trkpt>
      <trkpt lat="43.63989" lon="3.80652">
        <ele>120.5</ele>
        <time>2017-09-07T10:25:53Z</time>
      </trkpt>
      <trkpt lat="43.63976" lon="3.80656">
        <ele>119.2</ele>
        <time>2017-09-07T10:25:55Z</time>
      </trkpt>
      <trkpt lat="43.63965" lon="3.80659">
        <ele>118.4</ele>
        <time>2017-09-07T10:25:57Z</time>
      </trkpt>
      <trkpt lat="43.63956" lon="3.80665">
        <ele>118</ele>
        <time>2017-09-07T10:26:01Z</time>
      </trkpt>
      <trkpt lat="43.63948" lon="3.80665">
        <ele>115.1</ele>
        <time>2017-09-07T10:26:03Z</time>
      </trkpt>
      <trkpt lat="43.63938" lon="3.80667">
        <ele>112.8</ele>
        <time>2017-09-07T10:26:05Z</time>
      </trkpt>
      <trkpt lat="43.63927" lon="3.80668">
        <ele>110.6</ele>
        <time>2017-09-07T10:26:07Z</time>
      </trkpt>
      <trkpt lat="43.63919" lon="3.80672">
        <ele>109.5</ele>
        <time>2017-09-07T10:26:09Z</time>
      </trkpt>
      <trkpt lat="43.63912" lon="3.80686">
        <ele>108.4</ele>
        <time>2017-09-07T10:26:11Z</time>
      </trkpt>
      <trkpt lat="43.63913" lon="3.807">
        <ele>107.6</ele>
        <time>2017-09-07T10:26:13Z</time>
      </trkpt>
      <trkpt lat="43.6391" lon="3.80711">
        <ele>107.5</ele>
        <time>2017-09-07T10:26:16Z</time>
      </trkpt>
      <trkpt lat="43.63902" lon="3.80714">
        <ele>107.3</ele>
        <time>2017-09-07T10:26:20Z</time>
      </trkpt>
      <trkpt lat="43.63891" lon="3.80715">
        <ele>107.2</ele>
        <time>2017-09-07T10:26:24Z</time>
      </trkpt>
      <trkpt lat="43.63888" lon="3.80713">
        <ele>107</ele>
        <time>2017-09-07T10:26:31Z</time>
      </trkpt>
      <trkpt lat="43.63884" lon="3.80717">
        <ele>105.9</ele>
        <time>2017-09-07T10:26:44Z</time>
      </trkpt>
      <trkpt lat="43.63878" lon="3.80725">
        <ele>105.3</ele>
        <time>2017-09-07T10:26:48Z</time>
      </trkpt>
      <trkpt lat="43.63872" lon="3.8073">
        <ele>104.7</ele>
        <time>2017-09-07T10:26:55Z</time>
      </trkpt>
      <trkpt lat="43.63862" lon="3.80733">
        <ele>104.2</ele>
        <time>2017-09-07T10:27:02Z</time>
      </trkpt>
      <trkpt lat="43.63853" lon="3.80736">
        <ele>103.8</ele>
        <time>2017-09-07T10:27:09Z</time>
      </trkpt>
      <trkpt lat="43.63846" lon="3.80734">
        <ele>103.9</ele>
        <time>2017-09-07T10:27:15Z</time>
      </trkpt>
      <trkpt lat="43.63837" lon="3.80736">
        <ele>104.2</ele>
        <time>2017-09-07T10:27:19Z</time>
      </trkpt>
      <trkpt lat="43.63829" lon="3.80738">
        <ele>104.6</ele>
        <time>2017-09-07T10:27:22Z</time>
      </trkpt>
      <trkpt lat="43.63821" lon="3.80737">
        <ele>104.8</ele>
        <time>2017-09-07T10:27:25Z</time>
      </trkpt>
      <trkpt lat="43.63812" lon="3.80739">
        <ele>105.1</ele>
        <time>2017-09-07T10:27:28Z</time>
      </trkpt>
      <trkpt lat="43.63805" lon="3.80739">
        <ele>105.3</ele>
        <time>2017-09-07T10:27:30Z</time>
      </trkpt>
      <trkpt lat="43.63795" lon="3.80741">
        <ele>105.6</ele>
        <time>2017-09-07T10:27:33Z</time>
      </trkpt>
      <trkpt lat="43.63785" lon="3.80744">
        <ele>105.9</ele>
        <time>2017-09-07T10:27:36Z</time>
      </trkpt>
      <trkpt lat="43.63775" lon="3.80745">
        <ele>106.2</ele>
        <time>2017-09-07T10:27:39Z</time>
      </trkpt>
      <trkpt lat="43.63767" lon="3.80746">
        <ele>106.3</ele>
        <time>2017-09-07T10:27:41Z</time>
      </trkpt>
      <trkpt lat="43.6376" lon="3.80748">
        <ele>106.4</ele>
        <time>2017-09-07T10:27:43Z</time>
      </trkpt>
      <trkpt lat="43.63752" lon="3.80747">
        <ele>107.1</ele>
        <time>2017-09-07T10:27:45Z</time>
      </trkpt>
      <trkpt lat="43.63744" lon="3.80746">
        <ele>107.2</ele>
        <time>2017-09-07T10:27:47Z</time>
      </trkpt>
      <trkpt lat="43.63736" lon="3.80744">
        <ele>109.5</ele>
        <time>2017-09-07T10:27:49Z</time>
      </trkpt>
      <trkpt lat="43.63728" lon="3.80742">
        <ele>111.5</ele>
        <time>2017-09-07T10:27:51Z</time>
      </trkpt>
      <trkpt lat="43.6372" lon="3.80741">
        <ele>112.4</ele>
        <time>2017-09-07T10:27:53Z</time>
      </trkpt>
      <trkpt lat="43.63712" lon="3.8074">
        <ele>113.5</ele>
        <time>2017-09-07T10:27:55Z</time>
      </trkpt>
      <trkpt lat="43.63705" lon="3.80739">
        <ele>114.3</ele>
        <time>2017-09-07T10:27:57Z</time>
      </trkpt>
      <trkpt lat="43.63697" lon="3.80736">
        <ele>115.4</ele>
        <time>2017-09-07T10:27:59Z</time>
      </trkpt>
      <trkpt lat="43.6369" lon="3.80732">
        <ele>115.9</ele>
        <time>2017-09-07T10:28:01Z</time>
      </trkpt>
      <trkpt lat="43.6368" lon="3.80728">
        <ele>116.3</ele>
        <time>2017-09-07T10:28:04Z</time>
      </trkpt>
      <trkpt lat="43.63673" lon="3.80725">
        <ele>116.7</ele>
        <time>2017-09-07T10:28:06Z</time>
      </trkpt>
      <trkpt lat="43.63663" lon="3.80724">
        <ele>117.2</ele>
        <time>2017-09-07T10:28:08Z</time>
      </trkpt>
      <trkpt lat="43.63652" lon="3.80722">
        <ele>117.6</ele>
        <time>2017-09-07T10:28:10Z</time>
      </trkpt>
      <trkpt lat="43.63644" lon="3.80722">
        <ele>118.1</ele>
        <time>2017-09-07T10:28:12Z</time>
      </trkpt>
      <trkpt lat="43.63634" lon="3.8072">
        <ele>118.1</ele>
        <time>2017-09-07T10:28:14Z</time>
      </trkpt>
      <trkpt lat="43.63625" lon="3.80717">
        <ele>118.1</ele>
        <time>2017-09-07T10:28:16Z</time>
      </trkpt>
      <trkpt lat="43.63616" lon="3.80713">
        <ele>117.5</ele>
        <time>2017-09-07T10:28:18Z</time>
      </trkpt>
      <trkpt lat="43.63606" lon="3.80708">
        <ele>117</ele>
        <time>2017-09-07T10:28:20Z</time>
      </trkpt>
      <trkpt lat="43.63595" lon="3.80704">
        <ele>116.3</ele>
        <time>2017-09-07T10:28:22Z</time>
      </trkpt>
      <trkpt lat="43.63584" lon="3.80702">
        <ele>115.7</ele>
        <time>2017-09-07T10:28:24Z</time>
      </trkpt>
      <trkpt lat="43.63573" lon="3.80701">
        <ele>114.6</ele>
        <time>2017-09-07T10:28:26Z</time>
      </trkpt>
      <trkpt lat="43.63562" lon="3.80702">
        <ele>113.5</ele>
        <time>2017-09-07T10:28:28Z</time>
      </trkpt>
      <trkpt lat="43.63552" lon="3.80701">
        <ele>112.5</ele>
        <time>2017-09-07T10:28:30Z</time>
      </trkpt>
      <trkpt lat="43.63541" lon="3.80698">
        <ele>112.1</ele>
        <time>2017-09-07T10:28:32Z</time>
      </trkpt>
      <trkpt lat="43.63531" lon="3.80694">
        <ele>112.4</ele>
        <time>2017-09-07T10:28:34Z</time>
      </trkpt>
      <trkpt lat="43.6352" lon="3.80688">
        <ele>112.7</ele>
        <time>2017-09-07T10:28:36Z</time>
      </trkpt>
      <trkpt lat="43.6351" lon="3.80682">
        <ele>113.1</ele>
        <time>2017-09-07T10:28:38Z</time>
      </trkpt>
      <trkpt lat="43.635" lon="3.80676">
        <ele>112.7</ele>
        <time>2017-09-07T10:28:40Z</time>
      </trkpt>
      <trkpt lat="43.63491" lon="3.80669">
        <ele>112.5</ele>
        <time>2017-09-07T10:28:42Z</time>
      </trkpt>
      <trkpt lat="43.63483" lon="3.80663">
        <ele>113.3</ele>
        <time>2017-09-07T10:28:44Z</time>
      </trkpt>
      <trkpt lat="43.63474" lon="3.80659">
        <ele>114.4</ele>
        <time>2017-09-07T10:28:46Z</time>
      </trkpt>
      <trkpt lat="43.63465" lon="3.80655">
        <ele>114.5</ele>
        <time>2017-09-07T10:28:49Z</time>
      </trkpt>
      <trkpt lat="43.63457" lon="3.8065">
        <ele>114.8</ele>
        <time>2017-09-07T10:28:53Z</time>
      </trkpt>
      <trkpt lat="43.6345" lon="3.80653">
        <ele>115.2</ele>
        <time>2017-09-07T10:28:56Z</time>
      </trkpt>
      <trkpt lat="43.63441" lon="3.80654">
        <ele>115.2</ele>
        <time>2017-09-07T10:28:58Z</time>
      </trkpt>
      <trkpt lat="43.63433" lon="3.80655">
        <ele>115</ele>
        <time>2017-09-07T10:29:00Z</time>
      </trkpt>
      <trkpt lat="43.63423" lon="3.80651">
        <ele>114.9</ele>
        <time>2017-09-07T10:29:02Z</time>
      </trkpt>
      <trkpt lat="43.63416" lon="3.8065">
        <ele>114.9</ele>
        <time>2017-09-07T10:29:04Z</time>
      </trkpt>
      <trkpt lat="43.63404" lon="3.80648">
        <ele>115</ele>
        <time>2017-09-07T10:29:08Z</time>
      </trkpt>
      <trkpt lat="43.63395" lon="3.80647">
        <ele>115.2</ele>
        <time>2017-09-07T10:29:11Z</time>
      </trkpt>
      <trkpt lat="43.63386" lon="3.80646">
        <ele>115.5</ele>
        <time>2017-09-07T10:29:14Z</time>
      </trkpt>
      <trkpt lat="43.63378" lon="3.80645">
        <ele>115.8</ele>
        <time>2017-09-07T10:29:18Z</time>
      </trkpt>
      <trkpt lat="43.63369" lon="3.80646">
        <ele>116</ele>
        <time>2017-09-07T10:29:22Z</time>
      </trkpt>
      <trkpt lat="43.63361" lon="3.80648">
        <ele>116.1</ele>
        <time>2017-09-07T10:29:26Z</time>
      </trkpt>
      <trkpt lat="43.63353" lon="3.8065">
        <ele>116</ele>
        <time>2017-09-07T10:29:30Z</time>
      </trkpt>
      <trkpt lat="43.63345" lon="3.80655">
        <ele>115.7</ele>
        <time>2017-09-07T10:29:34Z</time>
      </trkpt>
      <trkpt lat="43.63337" lon="3.80658">
        <ele>115.5</ele>
        <time>2017-09-07T10:29:37Z</time>
      </trkpt>
      <trkpt lat="43.63329" lon="3.80662">
        <ele>115.1</ele>
        <time>2017-09-07T10:29:41Z</time>
      </trkpt>
      <trkpt lat="43.63322" lon="3.80668">
        <ele>114.9</ele>
        <time>2017-09-07T10:29:44Z</time>
      </trkpt>
      <trkpt lat="43.63315" lon="3.80673">
        <ele>114.6</ele>
        <time>2017-09-07T10:29:47Z</time>
      </trkpt>
      <trkpt lat="43.6331" lon="3.80682">
        <ele>114.5</ele>
        <time>2017-09-07T10:29:51Z</time>
      </trkpt>
      <trkpt lat="43.63306" lon="3.80691">
        <ele>114.6</ele>
        <time>2017-09-07T10:29:55Z</time>
      </trkpt>
      <trkpt lat="43.63301" lon="3.80699">
        <ele>114.9</ele>
        <time>2017-09-07T10:29:58Z</time>
      </trkpt>
      <trkpt lat="43.63296" lon="3.80709">
        <ele>115.3</ele>
        <time>2017-09-07T10:30:02Z</time>
      </trkpt>
      <trkpt lat="43.63292" lon="3.80717">
        <ele>115.6</ele>
        <time>2017-09-07T10:30:05Z</time>
      </trkpt>
      <trkpt lat="43.63284" lon="3.80726">
        <ele>116</ele>
        <time>2017-09-07T10:30:08Z</time>
      </trkpt>
      <trkpt lat="43.63276" lon="3.80725">
        <ele>116.4</ele>
        <time>2017-09-07T10:30:11Z</time>
      </trkpt>
      <trkpt lat="43.63272" lon="3.80717">
        <ele>116.6</ele>
        <time>2017-09-07T10:30:13Z</time>
      </trkpt>
      <trkpt lat="43.63267" lon="3.80707">
        <ele>117</ele>
        <time>2017-09-07T10:30:16Z</time>
      </trkpt>
      <trkpt lat="43.63264" lon="3.80696">
        <ele>117.6</ele>
        <time>2017-09-07T10:30:20Z</time>
      </trkpt>
      <trkpt lat="43.63269" lon="3.80685">
        <ele>118.2</ele>
        <time>2017-09-07T10:30:26Z</time>
      </trkpt>
      <trkpt lat="43.63273" lon="3.80673">
        <ele>118.9</ele>
        <time>2017-09-07T10:30:30Z</time>
      </trkpt>
      <trkpt lat="43.63277" lon="3.80665">
        <ele>119.2</ele>
        <time>2017-09-07T10:30:33Z</time>
      </trkpt>
      <trkpt lat="43.6328" lon="3.80656">
        <ele>119.7</ele>
        <time>2017-09-07T10:30:36Z</time>
      </trkpt>
      <trkpt lat="43.63285" lon="3.80647">
        <ele>120.1</ele>
        <time>2017-09-07T10:30:39Z</time>
      </trkpt>
      <trkpt lat="43.63289" lon="3.80637">
        <ele>120.7</ele>
        <time>2017-09-07T10:30:42Z</time>
      </trkpt>
      <trkpt lat="43.63293" lon="3.80627">
        <ele>121.6</ele>
        <time>2017-09-07T10:30:46Z</time>
      </trkpt>
      <trkpt lat="43.63298" lon="3.80615">
        <ele>122.5</ele>
        <time>2017-09-07T10:30:50Z</time>
      </trkpt>
      <trkpt lat="43.63301" lon="3.80605">
        <ele>123.2</ele>
        <time>2017-09-07T10:30:53Z</time>
      </trkpt>
      <trkpt lat="43.63307" lon="3.80594">
        <ele>124.2</ele>
        <time>2017-09-07T10:30:57Z</time>
      </trkpt>
      <trkpt lat="43.6331" lon="3.80585">
        <ele>124.8</ele>
        <time>2017-09-07T10:31:00Z</time>
      </trkpt>
      <trkpt lat="43.63315" lon="3.80573">
        <ele>125.6</ele>
        <time>2017-09-07T10:31:04Z</time>
      </trkpt>
      <trkpt lat="43.63322" lon="3.80566">
        <ele>126.2</ele>
        <time>2017-09-07T10:31:07Z</time>
      </trkpt>
      <trkpt lat="43.63328" lon="3.80558">
        <ele>126.8</ele>
        <time>2017-09-07T10:31:10Z</time>
      </trkpt>
      <trkpt lat="43.63336" lon="3.80554">
        <ele>127.6</ele>
        <time>2017-09-07T10:31:14Z</time>
      </trkpt>
      <trkpt lat="43.63344" lon="3.80551">
        <ele>128.3</ele>
        <time>2017-09-07T10:31:18Z</time>
      </trkpt>
      <trkpt lat="43.63353" lon="3.80554">
        <ele>128.9</ele>
        <time>2017-09-07T10:31:22Z</time>
      </trkpt>
      <trkpt lat="43.63362" lon="3.80555">
        <ele>129.4</ele>
        <time>2017-09-07T10:31:26Z</time>
      </trkpt>
      <trkpt lat="43.63369" lon="3.80551">
        <ele>129.6</ele>
        <time>2017-09-07T10:31:29Z</time>
      </trkpt>
      <trkpt lat="43.63376" lon="3.80543">
        <ele>130</ele>
        <time>2017-09-07T10:31:33Z</time>
      </trkpt>
      <trkpt lat="43.63381" lon="3.80534">
        <ele>130.4</ele>
        <time>2017-09-07T10:31:36Z</time>
      </trkpt>
      <trkpt lat="43.63382" lon="3.80521">
        <ele>131</ele>
        <time>2017-09-07T10:31:40Z</time>
      </trkpt>
      <trkpt lat="43.63381" lon="3.8051">
        <ele>131.6</ele>
        <time>2017-09-07T10:31:43Z</time>
      </trkpt>
      <trkpt lat="43.63382" lon="3.80498">
        <ele>132.4</ele>
        <time>2017-09-07T10:31:47Z</time>
      </trkpt>
      <trkpt lat="43.63387" lon="3.8049">
        <ele>133.2</ele>
        <time>2017-09-07T10:31:51Z</time>
      </trkpt>
      <trkpt lat="43.63393" lon="3.80481">
        <ele>134.3</ele>
        <time>2017-09-07T10:31:56Z</time>
      </trkpt>
      <trkpt lat="43.63398" lon="3.80471">
        <ele>135.4</ele>
        <time>2017-09-07T10:32:00Z</time>
      </trkpt>
      <trkpt lat="43.63401" lon="3.80459">
        <ele>136.8</ele>
        <time>2017-09-07T10:32:04Z</time>
      </trkpt>
      <trkpt lat="43.63407" lon="3.80452">
        <ele>137.9</ele>
        <time>2017-09-07T10:32:07Z</time>
      </trkpt>
      <trkpt lat="43.63417" lon="3.8045">
        <ele>139.6</ele>
        <time>2017-09-07T10:32:11Z</time>
      </trkpt>
      <trkpt lat="43.63423" lon="3.80456">
        <ele>141.2</ele>
        <time>2017-09-07T10:32:15Z</time>
      </trkpt>
      <trkpt lat="43.63429" lon="3.80464">
        <ele>142.7</ele>
        <time>2017-09-07T10:32:19Z</time>
      </trkpt>
      <trkpt lat="43.63438" lon="3.80466">
        <ele>144</ele>
        <time>2017-09-07T10:32:23Z</time>
      </trkpt>
      <trkpt lat="43.63445" lon="3.80464">
        <ele>145.3</ele>
        <time>2017-09-07T10:32:27Z</time>
      </trkpt>
      <trkpt lat="43.63452" lon="3.80459">
        <ele>146.4</ele>
        <time>2017-09-07T10:32:31Z</time>
      </trkpt>
      <trkpt lat="43.63454" lon="3.80447">
        <ele>147.7</ele>
        <time>2017-09-07T10:32:36Z</time>
      </trkpt>
      <trkpt lat="43.6345" lon="3.80438">
        <ele>148.6</ele>
        <time>2017-09-07T10:32:40Z</time>
      </trkpt>
      <trkpt lat="43.63448" lon="3.80427">
        <ele>149.7</ele>
        <time>2017-09-07T10:32:45Z</time>
      </trkpt>
      <trkpt lat="43.6345" lon="3.80417">
        <ele>150.5</ele>
        <time>2017-09-07T10:32:49Z</time>
      </trkpt>
      <trkpt lat="43.63456" lon="3.80409">
        <ele>151</ele>
        <time>2017-09-07T10:32:52Z</time>
      </trkpt>
      <trkpt lat="43.63463" lon="3.80402">
        <ele>151.5</ele>
        <time>2017-09-07T10:32:55Z</time>
      </trkpt>
      <trkpt lat="43.63466" lon="3.80391">
        <ele>152.1</ele>
        <time>2017-09-07T10:32:58Z</time>
      </trkpt>
      <trkpt lat="43.6347" lon="3.80381">
        <ele>152.9</ele>
        <time>2017-09-07T10:33:02Z</time>
      </trkpt>
      <trkpt lat="43.63472" lon="3.8037">
        <ele>153.9</ele>
        <time>2017-09-07T10:33:06Z</time>
      </trkpt>
      <trkpt lat="43.63474" lon="3.8036">
        <ele>154.9</ele>
        <time>2017-09-07T10:33:10Z</time>
      </trkpt>
      <trkpt lat="43.63475" lon="3.80347">
        <ele>155.8</ele>
        <time>2017-09-07T10:33:14Z</time>
      </trkpt>
      <trkpt lat="43.63477" lon="3.80336">
        <ele>156.4</ele>
        <time>2017-09-07T10:33:17Z</time>
      </trkpt>
      <trkpt lat="43.63478" lon="3.80325">
        <ele>157</ele>
        <time>2017-09-07T10:33:20Z</time>
      </trkpt>
      <trkpt lat="43.6348" lon="3.80312">
        <ele>157.6</ele>
        <time>2017-09-07T10:33:23Z</time>
      </trkpt>
      <trkpt lat="43.6348" lon="3.80298">
        <ele>158.3</ele>
        <time>2017-09-07T10:33:26Z</time>
      </trkpt>
      <trkpt lat="43.63481" lon="3.80286">
        <ele>158.9</ele>
        <time>2017-09-07T10:33:29Z</time>
      </trkpt>
      <trkpt lat="43.63482" lon="3.80274">
        <ele>159.4</ele>
        <time>2017-09-07T10:33:32Z</time>
      </trkpt>
      <trkpt lat="43.63485" lon="3.80262">
        <ele>160</ele>
        <time>2017-09-07T10:33:35Z</time>
      </trkpt>
      <trkpt lat="43.63486" lon="3.8025">
        <ele>160.3</ele>
        <time>2017-09-07T10:33:37Z</time>
      </trkpt>
      <trkpt lat="43.63488" lon="3.80237">
        <ele>160.8</ele>
        <time>2017-09-07T10:33:40Z</time>
      </trkpt>
      <trkpt lat="43.63492" lon="3.80227">
        <ele>161.1</ele>
        <time>2017-09-07T10:33:43Z</time>
      </trkpt>
      <trkpt lat="43.63497" lon="3.80219">
        <ele>161.2</ele>
        <time>2017-09-07T10:33:45Z</time>
      </trkpt>
      <trkpt lat="43.63502" lon="3.80211">
        <ele>161.4</ele>
        <time>2017-09-07T10:33:48Z</time>
      </trkpt>
      <trkpt lat="43.6351" lon="3.80202">
        <ele>161.4</ele>
        <time>2017-09-07T10:33:52Z</time>
      </trkpt>
      <trkpt lat="43.63517" lon="3.80192">
        <ele>161.3</ele>
        <time>2017-09-07T10:33:55Z</time>
      </trkpt>
      <trkpt lat="43.63522" lon="3.80182">
        <ele>161.3</ele>
        <time>2017-09-07T10:33:57Z</time>
      </trkpt>
      <trkpt lat="43.63528" lon="3.80167">
        <ele>160.5</ele>
        <time>2017-09-07T10:34:00Z</time>
      </trkpt>
      <trkpt lat="43.63534" lon="3.80157">
        <ele>160.3</ele>
        <time>2017-09-07T10:34:02Z</time>
      </trkpt>
      <trkpt lat="43.63539" lon="3.80145">
        <ele>159.9</ele>
        <time>2017-09-07T10:34:04Z</time>
      </trkpt>
      <trkpt lat="43.63541" lon="3.80128">
        <ele>159.7</ele>
        <time>2017-09-07T10:34:06Z</time>
      </trkpt>
      <trkpt lat="43.63542" lon="3.8011">
        <ele>158.8</ele>
        <time>2017-09-07T10:34:08Z</time>
      </trkpt>
      <trkpt lat="43.63544" lon="3.80099">
        <ele>158</ele>
        <time>2017-09-07T10:34:09Z</time>
      </trkpt>
      <trkpt lat="43.63547" lon="3.80087">
        <ele>157.3</ele>
        <time>2017-09-07T10:34:10Z</time>
      </trkpt>
      <trkpt lat="43.63554" lon="3.80071">
        <ele>155.9</ele>
        <time>2017-09-07T10:34:12Z</time>
      </trkpt>
      <trkpt lat="43.63563" lon="3.80061">
        <ele>155.7</ele>
        <time>2017-09-07T10:34:14Z</time>
      </trkpt>
      <trkpt lat="43.63569" lon="3.80049">
        <ele>155.9</ele>
        <time>2017-09-07T10:34:16Z</time>
      </trkpt>
      <trkpt lat="43.63573" lon="3.80038">
        <ele>156.3</ele>
        <time>2017-09-07T10:34:18Z</time>
      </trkpt>
      <trkpt lat="43.63576" lon="3.80027">
        <ele>157.1</ele>
        <time>2017-09-07T10:34:20Z</time>
      </trkpt>
      <trkpt lat="43.63581" lon="3.80015">
        <ele>158.3</ele>
        <time>2017-09-07T10:34:22Z</time>
      </trkpt>
      <trkpt lat="43.63585" lon="3.80005">
        <ele>159.5</ele>
        <time>2017-09-07T10:34:24Z</time>
      </trkpt>
      <trkpt lat="43.63588" lon="3.79996">
        <ele>160.2</ele>
        <time>2017-09-07T10:34:26Z</time>
      </trkpt>
      <trkpt lat="43.63594" lon="3.79985">
        <ele>160.9</ele>
        <time>2017-09-07T10:34:28Z</time>
      </trkpt>
      <trkpt lat="43.63601" lon="3.79977">
        <ele>161.3</ele>
        <time>2017-09-07T10:34:30Z</time>
      </trkpt>
      <trkpt lat="43.63607" lon="3.79968">
        <ele>161.8</ele>
        <time>2017-09-07T10:34:32Z</time>
      </trkpt>
      <trkpt lat="43.63611" lon="3.79959">
        <ele>162.2</ele>
        <time>2017-09-07T10:34:34Z</time>
      </trkpt>
      <trkpt lat="43.63614" lon="3.79949">
        <ele>162.7</ele>
        <time>2017-09-07T10:34:36Z</time>
      </trkpt>
      <trkpt lat="43.6362" lon="3.79941">
        <ele>162.8</ele>
        <time>2017-09-07T10:34:38Z</time>
      </trkpt>
      <trkpt lat="43.63626" lon="3.79934">
        <ele>162.8</ele>
        <time>2017-09-07T10:34:40Z</time>
      </trkpt>
      <trkpt lat="43.63632" lon="3.79926">
        <ele>162.9</ele>
        <time>2017-09-07T10:34:42Z</time>
      </trkpt>
      <trkpt lat="43.63637" lon="3.79916">
        <ele>163.2</ele>
        <time>2017-09-07T10:34:44Z</time>
      </trkpt>
      <trkpt lat="43.63642" lon="3.79909">
        <ele>163.2</ele>
        <time>2017-09-07T10:34:46Z</time>
      </trkpt>
      <trkpt lat="43.63648" lon="3.799">
        <ele>163.3</ele>
        <time>2017-09-07T10:34:48Z</time>
      </trkpt>
      <trkpt lat="43.63652" lon="3.79893">
        <ele>163.3</ele>
        <time>2017-09-07T10:34:50Z</time>
      </trkpt>
      <trkpt lat="43.63657" lon="3.79886">
        <ele>163.4</ele>
        <time>2017-09-07T10:34:52Z</time>
      </trkpt>
      <trkpt lat="43.63666" lon="3.79876">
        <ele>163.5</ele>
        <time>2017-09-07T10:34:55Z</time>
      </trkpt>
      <trkpt lat="43.63671" lon="3.79869">
        <ele>163.5</ele>
        <time>2017-09-07T10:34:57Z</time>
      </trkpt>
      <trkpt lat="43.63676" lon="3.7986">
        <ele>163.6</ele>
        <time>2017-09-07T10:34:59Z</time>
      </trkpt>
      <trkpt lat="43.6368" lon="3.79851">
        <ele>163.7</ele>
        <time>2017-09-07T10:35:01Z</time>
      </trkpt>
      <trkpt lat="43.63684" lon="3.79843">
        <ele>163.8</ele>
        <time>2017-09-07T10:35:03Z</time>
      </trkpt>
      <trkpt lat="43.63691" lon="3.79833">
        <ele>163.9</ele>
        <time>2017-09-07T10:35:06Z</time>
      </trkpt>
      <trkpt lat="43.63696" lon="3.79826">
        <ele>163.9</ele>
        <time>2017-09-07T10:35:08Z</time>
      </trkpt>
      <trkpt lat="43.63701" lon="3.7982">
        <ele>164</ele>
        <time>2017-09-07T10:35:10Z</time>
      </trkpt>
      <trkpt lat="43.63707" lon="3.79811">
        <ele>164.1</ele>
        <time>2017-09-07T10:35:12Z</time>
      </trkpt>
      <trkpt lat="43.6371" lon="3.79798">
        <ele>164.2</ele>
        <time>2017-09-07T10:35:15Z</time>
      </trkpt>
      <trkpt lat="43.63715" lon="3.79788">
        <ele>164.4</ele>
        <time>2017-09-07T10:35:18Z</time>
      </trkpt>
      <trkpt lat="43.63721" lon="3.79779">
        <ele>165.4</ele>
        <time>2017-09-07T10:35:20Z</time>
      </trkpt>
      <trkpt lat="43.63727" lon="3.79771">
        <ele>165.5</ele>
        <time>2017-09-07T10:35:22Z</time>
      </trkpt>
      <trkpt lat="43.63731" lon="3.79763">
        <ele>165.6</ele>
        <time>2017-09-07T10:35:24Z</time>
      </trkpt>
      <trkpt lat="43.63739" lon="3.79753">
        <ele>165.8</ele>
        <time>2017-09-07T10:35:27Z</time>
      </trkpt>
      <trkpt lat="43.63746" lon="3.79745">
        <ele>166</ele>
        <time>2017-09-07T10:35:30Z</time>
      </trkpt>
      <trkpt lat="43.63753" lon="3.79737">
        <ele>166.1</ele>
        <time>2017-09-07T10:35:33Z</time>
      </trkpt>
      <trkpt lat="43.6376" lon="3.79732">
        <ele>166.3</ele>
        <time>2017-09-07T10:35:36Z</time>
      </trkpt>
      <trkpt lat="43.63769" lon="3.79725">
        <ele>166.5</ele>
        <time>2017-09-07T10:35:38Z</time>
      </trkpt>
      <trkpt lat="43.63777" lon="3.79721">
        <ele>167.4</ele>
        <time>2017-09-07T10:35:40Z</time>
      </trkpt>
      <trkpt lat="43.63785" lon="3.79715">
        <ele>167.8</ele>
        <time>2017-09-07T10:35:42Z</time>
      </trkpt>
      <trkpt lat="43.63795" lon="3.79708">
        <ele>168.6</ele>
        <time>2017-09-07T10:35:44Z</time>
      </trkpt>
      <trkpt lat="43.63803" lon="3.79699">
        <ele>169.1</ele>
        <time>2017-09-07T10:35:46Z</time>
      </trkpt>
      <trkpt lat="43.63811" lon="3.79693">
        <ele>169.1</ele>
        <time>2017-09-07T10:35:48Z</time>
      </trkpt>
      <trkpt lat="43.63822" lon="3.79686">
        <ele>168.5</ele>
        <time>2017-09-07T10:35:50Z</time>
      </trkpt>
      <trkpt lat="43.63832" lon="3.79675">
        <ele>168.5</ele>
        <time>2017-09-07T10:35:52Z</time>
      </trkpt>
      <trkpt lat="43.63844" lon="3.79665">
        <ele>168.7</ele>
        <time>2017-09-07T10:35:54Z</time>
      </trkpt>
      <trkpt lat="43.63851" lon="3.79664">
        <ele>168.8</ele>
        <time>2017-09-07T10:35:56Z</time>
      </trkpt>
      <trkpt lat="43.63859" lon="3.79662">
        <ele>168.8</ele>
        <time>2017-09-07T10:35:59Z</time>
      </trkpt>
      <trkpt lat="43.63865" lon="3.79656">
        <ele>168.8</ele>
        <time>2017-09-07T10:36:03Z</time>
      </trkpt>
      <trkpt lat="43.63872" lon="3.79654">
        <ele>168.8</ele>
        <time>2017-09-07T10:36:06Z</time>
      </trkpt>
      <trkpt lat="43.63879" lon="3.79662">
        <ele>168.8</ele>
        <time>2017-09-07T10:36:09Z</time>
      </trkpt>
      <trkpt lat="43.63885" lon="3.7967">
        <ele>168.8</ele>
        <time>2017-09-07T10:36:12Z</time>
      </trkpt>
      <trkpt lat="43.63895" lon="3.79675">
        <ele>168.8</ele>
        <time>2017-09-07T10:36:15Z</time>
      </trkpt>
      <trkpt lat="43.63905" lon="3.79678">
        <ele>168.4</ele>
        <time>2017-09-07T10:36:18Z</time>
      </trkpt>
      <trkpt lat="43.63913" lon="3.79681">
        <ele>168.3</ele>
        <time>2017-09-07T10:36:20Z</time>
      </trkpt>
      <trkpt lat="43.63922" lon="3.79685">
        <ele>168</ele>
        <time>2017-09-07T10:36:22Z</time>
      </trkpt>
      <trkpt lat="43.63931" lon="3.79693">
        <ele>167.9</ele>
        <time>2017-09-07T10:36:24Z</time>
      </trkpt>
      <trkpt lat="43.63941" lon="3.79703">
        <ele>167.6</ele>
        <time>2017-09-07T10:36:26Z</time>
      </trkpt>
      <trkpt lat="43.6395" lon="3.79712">
        <ele>167.4</ele>
        <time>2017-09-07T10:36:28Z</time>
      </trkpt>
      <trkpt lat="43.63959" lon="3.79721">
        <ele>167</ele>
        <time>2017-09-07T10:36:30Z</time>
      </trkpt>
      <trkpt lat="43.63966" lon="3.79726">
        <ele>166.5</ele>
        <time>2017-09-07T10:36:32Z</time>
      </trkpt>
      <trkpt lat="43.63973" lon="3.79735">
        <ele>165.7</ele>
        <time>2017-09-07T10:36:34Z</time>
      </trkpt>
      <trkpt lat="43.63983" lon="3.79744">
        <ele>164.7</ele>
        <time>2017-09-07T10:36:36Z</time>
      </trkpt>
      <trkpt lat="43.63994" lon="3.79752">
        <ele>163.2</ele>
        <time>2017-09-07T10:36:38Z</time>
      </trkpt>
      <trkpt lat="43.64004" lon="3.79762">
        <ele>161.8</ele>
        <time>2017-09-07T10:36:40Z</time>
      </trkpt>
      <trkpt lat="43.64008" lon="3.79777">
        <ele>160.5</ele>
        <time>2017-09-07T10:36:42Z</time>
      </trkpt>
      <trkpt lat="43.64008" lon="3.79791">
        <ele>159.6</ele>
        <time>2017-09-07T10:36:44Z</time>
      </trkpt>
      <trkpt lat="43.64011" lon="3.79802">
        <ele>159.5</ele>
        <time>2017-09-07T10:36:46Z</time>
      </trkpt>
      <trkpt lat="43.64019" lon="3.79808">
        <ele>159.4</ele>
        <time>2017-09-07T10:36:49Z</time>
      </trkpt>
      <trkpt lat="43.64027" lon="3.79801">
        <ele>159.3</ele>
        <time>2017-09-07T10:36:52Z</time>
      </trkpt>
      <trkpt lat="43.64035" lon="3.79798">
        <ele>159.1</ele>
        <time>2017-09-07T10:36:55Z</time>
      </trkpt>
      <trkpt lat="43.64046" lon="3.79798">
        <ele>158.9</ele>
        <time>2017-09-07T10:36:58Z</time>
      </trkpt>
      <trkpt lat="43.64053" lon="3.79802">
        <ele>158.6</ele>
        <time>2017-09-07T10:37:01Z</time>
      </trkpt>
      <trkpt lat="43.6406" lon="3.79807">
        <ele>158.1</ele>
        <time>2017-09-07T10:37:04Z</time>
      </trkpt>
      <trkpt lat="43.64069" lon="3.79807">
        <ele>157.4</ele>
        <time>2017-09-07T10:37:08Z</time>
      </trkpt>
      <trkpt lat="43.64078" lon="3.798">
        <ele>156.7</ele>
        <time>2017-09-07T10:37:11Z</time>
      </trkpt>
      <trkpt lat="43.64085" lon="3.79792">
        <ele>152.3</ele>
        <time>2017-09-07T10:37:13Z</time>
      </trkpt>
      <trkpt lat="43.64093" lon="3.79788">
        <ele>152</ele>
        <time>2017-09-07T10:37:15Z</time>
      </trkpt>
      <trkpt lat="43.64101" lon="3.79785">
        <ele>151.4</ele>
        <time>2017-09-07T10:37:18Z</time>
      </trkpt>
      <trkpt lat="43.64109" lon="3.79782">
        <ele>150.9</ele>
        <time>2017-09-07T10:37:20Z</time>
      </trkpt>
      <trkpt lat="43.64118" lon="3.7978">
        <ele>150.1</ele>
        <time>2017-09-07T10:37:23Z</time>
      </trkpt>
      <trkpt lat="43.64126" lon="3.79779">
        <ele>149.1</ele>
        <time>2017-09-07T10:37:26Z</time>
      </trkpt>
      <trkpt lat="43.64132" lon="3.79769">
        <ele>147.6</ele>
        <time>2017-09-07T10:37:30Z</time>
      </trkpt>
      <trkpt lat="43.64143" lon="3.7976">
        <ele>139</ele>
        <time>2017-09-07T10:37:33Z</time>
      </trkpt>
      <trkpt lat="43.64154" lon="3.79753">
        <ele>135.1</ele>
        <time>2017-09-07T10:37:35Z</time>
      </trkpt>
      <trkpt lat="43.64163" lon="3.7975">
        <ele>134.5</ele>
        <time>2017-09-07T10:37:37Z</time>
      </trkpt>
      <trkpt lat="43.64172" lon="3.7975">
        <ele>131.7</ele>
        <time>2017-09-07T10:37:39Z</time>
      </trkpt>
      <trkpt lat="43.64183" lon="3.79746">
        <ele>131</ele>
        <time>2017-09-07T10:37:42Z</time>
      </trkpt>
      <trkpt lat="43.6419" lon="3.79738">
        <ele>130.1</ele>
        <time>2017-09-07T10:37:46Z</time>
      </trkpt>
      <trkpt lat="43.64192" lon="3.79728">
        <ele>129.5</ele>
        <time>2017-09-07T10:37:49Z</time>
      </trkpt>
      <trkpt lat="43.64193" lon="3.79718">
        <ele>128.9</ele>
        <time>2017-09-07T10:37:52Z</time>
      </trkpt>
      <trkpt lat="43.64195" lon="3.79706">
        <ele>128</ele>
        <time>2017-09-07T10:37:56Z</time>
      </trkpt>
      <trkpt lat="43.642" lon="3.79697">
        <ele>127.3</ele>
        <time>2017-09-07T10:37:59Z</time>
      </trkpt>
      <trkpt lat="43.64202" lon="3.79687">
        <ele>126.1</ele>
        <time>2017-09-07T10:38:06Z</time>
      </trkpt>
      <trkpt lat="43.64206" lon="3.79677">
        <ele>125.7</ele>
        <time>2017-09-07T10:38:09Z</time>
      </trkpt>
      <trkpt lat="43.64208" lon="3.79666">
        <ele>125.3</ele>
        <time>2017-09-07T10:38:12Z</time>
      </trkpt>
      <trkpt lat="43.6421" lon="3.79655">
        <ele>124.4</ele>
        <time>2017-09-07T10:38:17Z</time>
      </trkpt>
      <trkpt lat="43.64216" lon="3.79645">
        <ele>123.9</ele>
        <time>2017-09-07T10:38:19Z</time>
      </trkpt>
      <trkpt lat="43.64224" lon="3.79635">
        <ele>123.3</ele>
        <time>2017-09-07T10:38:22Z</time>
      </trkpt>
      <trkpt lat="43.6423" lon="3.79625">
        <ele>122.8</ele>
        <time>2017-09-07T10:38:25Z</time>
      </trkpt>
      <trkpt lat="43.64235" lon="3.79614">
        <ele>122.4</ele>
        <time>2017-09-07T10:38:28Z</time>
      </trkpt>
      <trkpt lat="43.64243" lon="3.796">
        <ele>121.3</ele>
        <time>2017-09-07T10:38:35Z</time>
      </trkpt>
      <trkpt lat="43.64252" lon="3.79598">
        <ele>120.5</ele>
        <time>2017-09-07T10:38:39Z</time>
      </trkpt>
      <trkpt lat="43.64261" lon="3.79598">
        <ele>120</ele>
        <time>2017-09-07T10:38:43Z</time>
      </trkpt>
      <trkpt lat="43.64269" lon="3.79596">
        <ele>119.6</ele>
        <time>2017-09-07T10:38:47Z</time>
      </trkpt>
      <trkpt lat="43.64275" lon="3.79586">
        <ele>118.9</ele>
        <time>2017-09-07T10:38:52Z</time>
      </trkpt>
      <trkpt lat="43.64279" lon="3.79578">
        <ele>118.4</ele>
        <time>2017-09-07T10:38:56Z</time>
      </trkpt>
      <trkpt lat="43.64284" lon="3.79569">
        <ele>117.7</ele>
        <time>2017-09-07T10:39:02Z</time>
      </trkpt>
      <trkpt lat="43.64289" lon="3.79556">
        <ele>116.7</ele>
        <time>2017-09-07T10:39:11Z</time>
      </trkpt>
      <trkpt lat="43.64291" lon="3.79545">
        <ele>116.5</ele>
        <time>2017-09-07T10:39:15Z</time>
      </trkpt>
      <trkpt lat="43.64292" lon="3.79532">
        <ele>116.5</ele>
        <time>2017-09-07T10:39:21Z</time>
      </trkpt>
      <trkpt lat="43.64298" lon="3.79524">
        <ele>116.4</ele>
        <time>2017-09-07T10:39:26Z</time>
      </trkpt>
      <trkpt lat="43.64305" lon="3.79515">
        <ele>116.4</ele>
        <time>2017-09-07T10:39:29Z</time>
      </trkpt>
      <trkpt lat="43.64313" lon="3.79512">
        <ele>116.2</ele>
        <time>2017-09-07T10:39:37Z</time>
      </trkpt>
      <trkpt lat="43.64322" lon="3.79512">
        <ele>115.9</ele>
        <time>2017-09-07T10:39:39Z</time>
      </trkpt>
      <trkpt lat="43.6433" lon="3.79511">
        <ele>115.8</ele>
        <time>2017-09-07T10:39:42Z</time>
      </trkpt>
      <trkpt lat="43.64338" lon="3.79509">
        <ele>115.7</ele>
        <time>2017-09-07T10:39:45Z</time>
      </trkpt>
      <trkpt lat="43.64344" lon="3.79518">
        <ele>115.6</ele>
        <time>2017-09-07T10:39:47Z</time>
      </trkpt>
      <trkpt lat="43.64348" lon="3.79532">
        <ele>115.4</ele>
        <time>2017-09-07T10:39:49Z</time>
      </trkpt>
      <trkpt lat="43.6436" lon="3.79532">
        <ele>114.2</ele>
        <time>2017-09-07T10:39:52Z</time>
      </trkpt>
      <trkpt lat="43.64372" lon="3.79531">
        <ele>113.2</ele>
        <time>2017-09-07T10:39:54Z</time>
      </trkpt>
      <trkpt lat="43.64383" lon="3.79527">
        <ele>112.7</ele>
        <time>2017-09-07T10:39:56Z</time>
      </trkpt>
      <trkpt lat="43.64391" lon="3.7952">
        <ele>112.5</ele>
        <time>2017-09-07T10:39:58Z</time>
      </trkpt>
      <trkpt lat="43.64397" lon="3.79512">
        <ele>112.5</ele>
        <time>2017-09-07T10:40:01Z</time>
      </trkpt>
      <trkpt lat="43.64405" lon="3.79505">
        <ele>112.6</ele>
        <time>2017-09-07T10:40:04Z</time>
      </trkpt>
      <trkpt lat="43.64412" lon="3.79497">
        <ele>112.7</ele>
        <time>2017-09-07T10:40:07Z</time>
      </trkpt>
      <trkpt lat="43.64418" lon="3.79491">
        <ele>112.9</ele>
        <time>2017-09-07T10:40:10Z</time>
      </trkpt>
      <trkpt lat="43.64425" lon="3.79483">
        <ele>113.3</ele>
        <time>2017-09-07T10:40:14Z</time>
      </trkpt>
      <trkpt lat="43.64433" lon="3.7948">
        <ele>113.8</ele>
        <time>2017-09-07T10:40:17Z</time>
      </trkpt>
      <trkpt lat="43.64439" lon="3.79471">
        <ele>114.3</ele>
        <time>2017-09-07T10:40:20Z</time>
      </trkpt>
      <trkpt lat="43.64445" lon="3.79463">
        <ele>114.7</ele>
        <time>2017-09-07T10:40:23Z</time>
      </trkpt>
      <trkpt lat="43.64451" lon="3.79454">
        <ele>115.1</ele>
        <time>2017-09-07T10:40:27Z</time>
      </trkpt>
      <trkpt lat="43.64458" lon="3.79446">
        <ele>115.2</ele>
        <time>2017-09-07T10:40:31Z</time>
      </trkpt>
      <trkpt lat="43.64466" lon="3.79443">
        <ele>115.3</ele>
        <time>2017-09-07T10:40:34Z</time>
      </trkpt>
      <trkpt lat="43.64474" lon="3.79439">
        <ele>115.3</ele>
        <time>2017-09-07T10:40:36Z</time>
      </trkpt>
      <trkpt lat="43.64482" lon="3.79434">
        <ele>115.4</ele>
        <time>2017-09-07T10:40:38Z</time>
      </trkpt>
      <trkpt lat="43.64493" lon="3.79431">
        <ele>116</ele>
        <time>2017-09-07T10:40:40Z</time>
      </trkpt>
      <trkpt lat="43.64502" lon="3.79429">
        <ele>116.6</ele>
        <time>2017-09-07T10:40:42Z</time>
      </trkpt>
      <trkpt lat="43.64513" lon="3.79428">
        <ele>117.4</ele>
        <time>2017-09-07T10:40:44Z</time>
      </trkpt>
      <trkpt lat="43.64523" lon="3.79424">
        <ele>118.3</ele>
        <time>2017-09-07T10:40:46Z</time>
      </trkpt>
      <trkpt lat="43.64531" lon="3.79421">
        <ele>118.2</ele>
        <time>2017-09-07T10:40:48Z</time>
      </trkpt>
      <trkpt lat="43.64541" lon="3.79424">
        <ele>118.1</ele>
        <time>2017-09-07T10:40:50Z</time>
      </trkpt>
      <trkpt lat="43.6455" lon="3.79422">
        <ele>120</ele>
        <time>2017-09-07T10:40:52Z</time>
      </trkpt>
      <trkpt lat="43.6456" lon="3.79419">
        <ele>122.2</ele>
        <time>2017-09-07T10:40:54Z</time>
      </trkpt>
      <trkpt lat="43.6457" lon="3.79423">
        <ele>123.7</ele>
        <time>2017-09-07T10:40:56Z</time>
      </trkpt>
      <trkpt lat="43.64578" lon="3.79425">
        <ele>123.6</ele>
        <time>2017-09-07T10:40:58Z</time>
      </trkpt>
      <trkpt lat="43.64585" lon="3.7942">
        <ele>123.2</ele>
        <time>2017-09-07T10:41:01Z</time>
      </trkpt>
      <trkpt lat="43.6459" lon="3.79413">
        <ele>122.6</ele>
        <time>2017-09-07T10:41:04Z</time>
      </trkpt>
      <trkpt lat="43.64596" lon="3.79405">
        <ele>121.8</ele>
        <time>2017-09-07T10:41:07Z</time>
      </trkpt>
      <trkpt lat="43.64603" lon="3.79397">
        <ele>120.4</ele>
        <time>2017-09-07T10:41:11Z</time>
      </trkpt>
      <trkpt lat="43.64609" lon="3.79391">
        <ele>119.5</ele>
        <time>2017-09-07T10:41:14Z</time>
      </trkpt>
      <trkpt lat="43.64616" lon="3.79383">
        <ele>118.8</ele>
        <time>2017-09-07T10:41:17Z</time>
      </trkpt>
      <trkpt lat="43.64624" lon="3.79375">
        <ele>118.5</ele>
        <time>2017-09-07T10:41:20Z</time>
      </trkpt>
      <trkpt lat="43.64629" lon="3.79366">
        <ele>118.3</ele>
        <time>2017-09-07T10:41:24Z</time>
      </trkpt>
      <trkpt lat="43.64633" lon="3.79358">
        <ele>118.1</ele>
        <time>2017-09-07T10:41:28Z</time>
      </trkpt>
      <trkpt lat="43.64637" lon="3.79347">
        <ele>117.9</ele>
        <time>2017-09-07T10:41:31Z</time>
      </trkpt>
      <trkpt lat="43.6464" lon="3.79337">
        <ele>117.5</ele>
        <time>2017-09-07T10:41:35Z</time>
      </trkpt>
      <trkpt lat="43.64643" lon="3.79323">
        <ele>117.1</ele>
        <time>2017-09-07T10:41:38Z</time>
      </trkpt>
      <trkpt lat="43.64647" lon="3.79311">
        <ele>116.6</ele>
        <time>2017-09-07T10:41:41Z</time>
      </trkpt>
      <trkpt lat="43.64652" lon="3.793">
        <ele>116.5</ele>
        <time>2017-09-07T10:41:43Z</time>
      </trkpt>
      <trkpt lat="43.64658" lon="3.7929">
        <ele>116.3</ele>
        <time>2017-09-07T10:41:45Z</time>
      </trkpt>
      <trkpt lat="43.64666" lon="3.79283">
        <ele>116</ele>
        <time>2017-09-07T10:41:47Z</time>
      </trkpt>
      <trkpt lat="43.64677" lon="3.7928">
        <ele>114.1</ele>
        <time>2017-09-07T10:41:49Z</time>
      </trkpt>
      <trkpt lat="43.64688" lon="3.79274">
        <ele>113.9</ele>
        <time>2017-09-07T10:41:51Z</time>
      </trkpt>
      <trkpt lat="43.64694" lon="3.79265">
        <ele>113.7</ele>
        <time>2017-09-07T10:41:53Z</time>
      </trkpt>
      <trkpt lat="43.647" lon="3.7926">
        <ele>112.5</ele>
        <time>2017-09-07T10:41:56Z</time>
      </trkpt>
      <trkpt lat="43.64703" lon="3.79249">
        <ele>112.4</ele>
        <time>2017-09-07T10:41:58Z</time>
      </trkpt>
      <trkpt lat="43.64706" lon="3.79237">
        <ele>112.3</ele>
        <time>2017-09-07T10:42:01Z</time>
      </trkpt>
      <trkpt lat="43.64709" lon="3.79227">
        <ele>112.2</ele>
        <time>2017-09-07T10:42:04Z</time>
      </trkpt>
      <trkpt lat="43.64713" lon="3.79215">
        <ele>112.2</ele>
        <time>2017-09-07T10:42:07Z</time>
      </trkpt>
      <trkpt lat="43.64713" lon="3.79205">
        <ele>112.1</ele>
        <time>2017-09-07T10:42:12Z</time>
      </trkpt>
      <trkpt lat="43.64712" lon="3.79198">
        <ele>111.9</ele>
        <time>2017-09-07T10:42:19Z</time>
      </trkpt>
      <trkpt lat="43.64706" lon="3.79206">
        <ele>112.1</ele>
        <time>2017-09-07T10:42:25Z</time>
      </trkpt>
      <trkpt lat="43.64701" lon="3.79207">
        <ele>112.1</ele>
        <time>2017-09-07T10:42:32Z</time>
      </trkpt>
      <trkpt lat="43.64702" lon="3.79221">
        <ele>112.2</ele>
        <time>2017-09-07T10:42:34Z</time>
      </trkpt>
      <trkpt lat="43.64708" lon="3.79233">
        <ele>112.1</ele>
        <time>2017-09-07T10:42:36Z</time>
      </trkpt>
      <trkpt lat="43.64714" lon="3.79245">
        <ele>111.9</ele>
        <time>2017-09-07T10:42:38Z</time>
      </trkpt>
      <trkpt lat="43.64715" lon="3.79254">
        <ele>111.9</ele>
        <time>2017-09-07T10:42:45Z</time>
      </trkpt>
      <trkpt lat="43.64712" lon="3.79244">
        <ele>111.7</ele>
        <time>2017-09-07T10:42:51Z</time>
      </trkpt>
      <trkpt lat="43.64713" lon="3.79233">
        <ele>111.8</ele>
        <time>2017-09-07T10:42:57Z</time>
      </trkpt>
      <trkpt lat="43.64715" lon="3.79223">
        <ele>111.8</ele>
        <time>2017-09-07T10:43:00Z</time>
      </trkpt>
      <trkpt lat="43.64716" lon="3.79211">
        <ele>111.8</ele>
        <time>2017-09-07T10:43:03Z</time>
      </trkpt>
      <trkpt lat="43.64715" lon="3.79199">
        <ele>111.5</ele>
        <time>2017-09-07T10:43:07Z</time>
      </trkpt>
      <trkpt lat="43.64717" lon="3.79189">
        <ele>110.9</ele>
        <time>2017-09-07T10:43:14Z</time>
      </trkpt>
      <trkpt lat="43.64722" lon="3.79179">
        <ele>110.7</ele>
        <time>2017-09-07T10:43:18Z</time>
      </trkpt>
      <trkpt lat="43.64729" lon="3.79172">
        <ele>110.5</ele>
        <time>2017-09-07T10:43:21Z</time>
      </trkpt>
      <trkpt lat="43.64735" lon="3.79166">
        <ele>110.2</ele>
        <time>2017-09-07T10:43:24Z</time>
      </trkpt>
      <trkpt lat="43.64745" lon="3.79157">
        <ele>110</ele>
        <time>2017-09-07T10:43:27Z</time>
      </trkpt>
      <trkpt lat="43.64751" lon="3.79151">
        <ele>109.7</ele>
        <time>2017-09-07T10:43:30Z</time>
      </trkpt>
      <trkpt lat="43.64757" lon="3.79144">
        <ele>109.4</ele>
        <time>2017-09-07T10:43:35Z</time>
      </trkpt>
      <trkpt lat="43.64762" lon="3.79137">
        <ele>109.3</ele>
        <time>2017-09-07T10:43:39Z</time>
      </trkpt>
      <trkpt lat="43.6477" lon="3.79126">
        <ele>109</ele>
        <time>2017-09-07T10:43:43Z</time>
      </trkpt>
      <trkpt lat="43.64775" lon="3.79117">
        <ele>108.8</ele>
        <time>2017-09-07T10:43:48Z</time>
      </trkpt>
      <trkpt lat="43.64786" lon="3.79113">
        <ele>109</ele>
        <time>2017-09-07T10:43:51Z</time>
      </trkpt>
      <trkpt lat="43.64796" lon="3.79113">
        <ele>109.1</ele>
        <time>2017-09-07T10:43:53Z</time>
      </trkpt>
      <trkpt lat="43.64806" lon="3.79108">
        <ele>111.1</ele>
        <time>2017-09-07T10:43:55Z</time>
      </trkpt>
      <trkpt lat="43.64812" lon="3.79098">
        <ele>111.3</ele>
        <time>2017-09-07T10:43:57Z</time>
      </trkpt>
      <trkpt lat="43.64819" lon="3.79092">
        <ele>113.4</ele>
        <time>2017-09-07T10:43:59Z</time>
      </trkpt>
      <trkpt lat="43.64826" lon="3.79084">
        <ele>114.4</ele>
        <time>2017-09-07T10:44:01Z</time>
      </trkpt>
      <trkpt lat="43.64834" lon="3.79076">
        <ele>114.5</ele>
        <time>2017-09-07T10:44:03Z</time>
      </trkpt>
      <trkpt lat="43.64844" lon="3.79068">
        <ele>114.4</ele>
        <time>2017-09-07T10:44:05Z</time>
      </trkpt>
      <trkpt lat="43.64854" lon="3.79062">
        <ele>114.7</ele>
        <time>2017-09-07T10:44:07Z</time>
      </trkpt>
      <trkpt lat="43.64863" lon="3.79053">
        <ele>116.3</ele>
        <time>2017-09-07T10:44:09Z</time>
      </trkpt>
      <trkpt lat="43.64869" lon="3.79044">
        <ele>117.3</ele>
        <time>2017-09-07T10:44:11Z</time>
      </trkpt>
      <trkpt lat="43.64879" lon="3.79036">
        <ele>117.3</ele>
        <time>2017-09-07T10:44:13Z</time>
      </trkpt>
      <trkpt lat="43.64887" lon="3.79031">
        <ele>117.3</ele>
        <time>2017-09-07T10:44:15Z</time>
      </trkpt>
      <trkpt lat="43.64893" lon="3.79026">
        <ele>117.2</ele>
        <time>2017-09-07T10:44:17Z</time>
      </trkpt>
      <trkpt lat="43.649" lon="3.7902">
        <ele>117.1</ele>
        <time>2017-09-07T10:44:19Z</time>
      </trkpt>
      <trkpt lat="43.64907" lon="3.79015">
        <ele>117.1</ele>
        <time>2017-09-07T10:44:21Z</time>
      </trkpt>
      <trkpt lat="43.64917" lon="3.7901">
        <ele>116.8</ele>
        <time>2017-09-07T10:44:23Z</time>
      </trkpt>
      <trkpt lat="43.64924" lon="3.79004">
        <ele>116.7</ele>
        <time>2017-09-07T10:44:25Z</time>
      </trkpt>
      <trkpt lat="43.64929" lon="3.78998">
        <ele>115.2</ele>
        <time>2017-09-07T10:44:27Z</time>
      </trkpt>
      <trkpt lat="43.64937" lon="3.78991">
        <ele>114.9</ele>
        <time>2017-09-07T10:44:29Z</time>
      </trkpt>
      <trkpt lat="43.64945" lon="3.78984">
        <ele>113.7</ele>
        <time>2017-09-07T10:44:31Z</time>
      </trkpt>
      <trkpt lat="43.64952" lon="3.78979">
        <ele>113.4</ele>
        <time>2017-09-07T10:44:33Z</time>
      </trkpt>
      <trkpt lat="43.64959" lon="3.78975">
        <ele>113</ele>
        <time>2017-09-07T10:44:35Z</time>
      </trkpt>
      <trkpt lat="43.64967" lon="3.78969">
        <ele>112.6</ele>
        <time>2017-09-07T10:44:37Z</time>
      </trkpt>
      <trkpt lat="43.64977" lon="3.78962">
        <ele>112.3</ele>
        <time>2017-09-07T10:44:39Z</time>
      </trkpt>
      <trkpt lat="43.64986" lon="3.78956">
        <ele>112.3</ele>
        <time>2017-09-07T10:44:42Z</time>
      </trkpt>
      <trkpt lat="43.64995" lon="3.78949">
        <ele>112.3</ele>
        <time>2017-09-07T10:44:45Z</time>
      </trkpt>
      <trkpt lat="43.65002" lon="3.78944">
        <ele>112.2</ele>
        <time>2017-09-07T10:44:47Z</time>
      </trkpt>
      <trkpt lat="43.65009" lon="3.78937">
        <ele>112</ele>
        <time>2017-09-07T10:44:50Z</time>
      </trkpt>
      <trkpt lat="43.65017" lon="3.78929">
        <ele>111.7</ele>
        <time>2017-09-07T10:44:53Z</time>
      </trkpt>
      <trkpt lat="43.65025" lon="3.78921">
        <ele>111.4</ele>
        <time>2017-09-07T10:44:56Z</time>
      </trkpt>
      <trkpt lat="43.65032" lon="3.78913">
        <ele>111</ele>
        <time>2017-09-07T10:44:59Z</time>
      </trkpt>
      <trkpt lat="43.65038" lon="3.78906">
        <ele>110.8</ele>
        <time>2017-09-07T10:45:02Z</time>
      </trkpt>
      <trkpt lat="43.65046" lon="3.789">
        <ele>110.6</ele>
        <time>2017-09-07T10:45:05Z</time>
      </trkpt>
      <trkpt lat="43.65053" lon="3.78895">
        <ele>110.3</ele>
        <time>2017-09-07T10:45:08Z</time>
      </trkpt>
      <trkpt lat="43.65058" lon="3.78887">
        <ele>110.2</ele>
        <time>2017-09-07T10:45:11Z</time>
      </trkpt>
      <trkpt lat="43.65062" lon="3.78888">
        <ele>111</ele>
        <time>2017-09-07T10:45:18Z</time>
      </trkpt>
      <trkpt lat="43.65064" lon="3.78903">
        <ele>111.6</ele>
        <time>2017-09-07T10:45:21Z</time>
      </trkpt>
      <trkpt lat="43.65068" lon="3.78915">
        <ele>112</ele>
        <time>2017-09-07T10:45:23Z</time>
      </trkpt>
      <trkpt lat="43.65072" lon="3.78925">
        <ele>112.3</ele>
        <time>2017-09-07T10:45:25Z</time>
      </trkpt>
      <trkpt lat="43.65076" lon="3.78937">
        <ele>112.8</ele>
        <time>2017-09-07T10:45:28Z</time>
      </trkpt>
      <trkpt lat="43.6508" lon="3.7895">
        <ele>113.5</ele>
        <time>2017-09-07T10:45:31Z</time>
      </trkpt>
      <trkpt lat="43.65082" lon="3.78965">
        <ele>114.2</ele>
        <time>2017-09-07T10:45:34Z</time>
      </trkpt>
      <trkpt lat="43.65083" lon="3.78977">
        <ele>116.4</ele>
        <time>2017-09-07T10:45:35Z</time>
      </trkpt>
      <trkpt lat="43.65083" lon="3.7899">
        <ele>116.5</ele>
        <time>2017-09-07T10:45:36Z</time>
      </trkpt>
      <trkpt lat="43.65084" lon="3.79008">
        <ele>116.6</ele>
        <time>2017-09-07T10:45:38Z</time>
      </trkpt>
      <trkpt lat="43.65084" lon="3.79018">
        <ele>116.4</ele>
        <time>2017-09-07T10:45:39Z</time>
      </trkpt>
      <trkpt lat="43.65084" lon="3.79032">
        <ele>116.4</ele>
        <time>2017-09-07T10:45:41Z</time>
      </trkpt>
      <trkpt lat="43.65084" lon="3.79043">
        <ele>116.2</ele>
        <time>2017-09-07T10:45:43Z</time>
      </trkpt>
      <trkpt lat="43.6508" lon="3.79055">
        <ele>116.1</ele>
        <time>2017-09-07T10:45:46Z</time>
      </trkpt>
      <trkpt lat="43.65076" lon="3.79064">
        <ele>115.9</ele>
        <time>2017-09-07T10:45:49Z</time>
      </trkpt>
      <trkpt lat="43.65073" lon="3.79073">
        <ele>115.6</ele>
        <time>2017-09-07T10:45:52Z</time>
      </trkpt>
      <trkpt lat="43.65073" lon="3.79073">
        <ele>114.9</ele>
        <time>2017-09-07T10:45:59Z</time>
      </trkpt>
      <trkpt lat="43.6508" lon="3.7907">
        <ele>114.5</ele>
        <time>2017-09-07T10:46:03Z</time>
      </trkpt>
      <trkpt lat="43.65088" lon="3.79067">
        <ele>114.3</ele>
        <time>2017-09-07T10:46:06Z</time>
      </trkpt>
      <trkpt lat="43.65097" lon="3.79062">
        <ele>114</ele>
        <time>2017-09-07T10:46:11Z</time>
      </trkpt>
      <trkpt lat="43.65106" lon="3.79057">
        <ele>113.8</ele>
        <time>2017-09-07T10:46:14Z</time>
      </trkpt>
      <trkpt lat="43.65115" lon="3.79052">
        <ele>113.5</ele>
        <time>2017-09-07T10:46:17Z</time>
      </trkpt>
      <trkpt lat="43.65126" lon="3.79047">
        <ele>113.2</ele>
        <time>2017-09-07T10:46:20Z</time>
      </trkpt>
      <trkpt lat="43.65134" lon="3.79045">
        <ele>113.2</ele>
        <time>2017-09-07T10:46:22Z</time>
      </trkpt>
      <trkpt lat="43.65142" lon="3.79045">
        <ele>113</ele>
        <time>2017-09-07T10:46:24Z</time>
      </trkpt>
      <trkpt lat="43.65151" lon="3.79043">
        <ele>112.9</ele>
        <time>2017-09-07T10:46:26Z</time>
      </trkpt>
      <trkpt lat="43.6516" lon="3.79042">
        <ele>112.2</ele>
        <time>2017-09-07T10:46:28Z</time>
      </trkpt>
      <trkpt lat="43.6517" lon="3.79042">
        <ele>110.4</ele>
        <time>2017-09-07T10:46:30Z</time>
      </trkpt>
      <trkpt lat="43.65178" lon="3.79043">
        <ele>109.4</ele>
        <time>2017-09-07T10:46:32Z</time>
      </trkpt>
      <trkpt lat="43.65187" lon="3.79045">
        <ele>109.1</ele>
        <time>2017-09-07T10:46:34Z</time>
      </trkpt>
      <trkpt lat="43.65195" lon="3.7905">
        <ele>109.2</ele>
        <time>2017-09-07T10:46:36Z</time>
      </trkpt>
      <trkpt lat="43.652" lon="3.79061">
        <ele>110</ele>
        <time>2017-09-07T10:46:38Z</time>
      </trkpt>
      <trkpt lat="43.65207" lon="3.79069">
        <ele>109.9</ele>
        <time>2017-09-07T10:46:42Z</time>
      </trkpt>
      <trkpt lat="43.65214" lon="3.79071">
        <ele>109.9</ele>
        <time>2017-09-07T10:46:44Z</time>
      </trkpt>
      <trkpt lat="43.65224" lon="3.79076">
        <ele>109.9</ele>
        <time>2017-09-07T10:46:47Z</time>
      </trkpt>
      <trkpt lat="43.65234" lon="3.79079">
        <ele>110</ele>
        <time>2017-09-07T10:46:50Z</time>
      </trkpt>
      <trkpt lat="43.65242" lon="3.7908">
        <ele>110.1</ele>
        <time>2017-09-07T10:46:53Z</time>
      </trkpt>
      <trkpt lat="43.65249" lon="3.79084">
        <ele>110</ele>
        <time>2017-09-07T10:46:55Z</time>
      </trkpt>
      <trkpt lat="43.65256" lon="3.79088">
        <ele>110.1</ele>
        <time>2017-09-07T10:46:58Z</time>
      </trkpt>
      <trkpt lat="43.65263" lon="3.79094">
        <ele>110.4</ele>
        <time>2017-09-07T10:47:02Z</time>
      </trkpt>
      <trkpt lat="43.65272" lon="3.79097">
        <ele>111.3</ele>
        <time>2017-09-07T10:47:09Z</time>
      </trkpt>
      <trkpt lat="43.6528" lon="3.79094">
        <ele>111.8</ele>
        <time>2017-09-07T10:47:12Z</time>
      </trkpt>
      <trkpt lat="43.65287" lon="3.79093">
        <ele>112.1</ele>
        <time>2017-09-07T10:47:14Z</time>
      </trkpt>
      <trkpt lat="43.65296" lon="3.79092">
        <ele>112.8</ele>
        <time>2017-09-07T10:47:18Z</time>
      </trkpt>
      <trkpt lat="43.65304" lon="3.79096">
        <ele>113.8</ele>
        <time>2017-09-07T10:47:22Z</time>
      </trkpt>
      <trkpt lat="43.65311" lon="3.79097">
        <ele>115.5</ele>
        <time>2017-09-07T10:47:28Z</time>
      </trkpt>
      <trkpt lat="43.6532" lon="3.791">
        <ele>116.7</ele>
        <time>2017-09-07T10:47:33Z</time>
      </trkpt>
      <trkpt lat="43.65326" lon="3.79107">
        <ele>117.5</ele>
        <time>2017-09-07T10:47:37Z</time>
      </trkpt>
      <trkpt lat="43.65335" lon="3.79109">
        <ele>118.6</ele>
        <time>2017-09-07T10:47:42Z</time>
      </trkpt>
      <trkpt lat="43.65345" lon="3.79111">
        <ele>119.5</ele>
        <time>2017-09-07T10:47:45Z</time>
      </trkpt>
      <trkpt lat="43.65353" lon="3.79112">
        <ele>120.1</ele>
        <time>2017-09-07T10:47:47Z</time>
      </trkpt>
      <trkpt lat="43.6536" lon="3.79115">
        <ele>120.7</ele>
        <time>2017-09-07T10:47:49Z</time>
      </trkpt>
      <trkpt lat="43.65369" lon="3.79115">
        <ele>121.2</ele>
        <time>2017-09-07T10:47:51Z</time>
      </trkpt>
      <trkpt lat="43.65377" lon="3.79117">
        <ele>121.8</ele>
        <time>2017-09-07T10:47:53Z</time>
      </trkpt>
      <trkpt lat="43.65384" lon="3.79119">
        <ele>124.7</ele>
        <time>2017-09-07T10:47:55Z</time>
      </trkpt>
      <trkpt lat="43.65393" lon="3.79123">
        <ele>128.8</ele>
        <time>2017-09-07T10:47:57Z</time>
      </trkpt>
      <trkpt lat="43.65404" lon="3.79126">
        <ele>131.4</ele>
        <time>2017-09-07T10:47:59Z</time>
      </trkpt>
      <trkpt lat="43.65412" lon="3.7913">
        <ele>131.6</ele>
        <time>2017-09-07T10:48:01Z</time>
      </trkpt>
      <trkpt lat="43.65421" lon="3.79134">
        <ele>131.8</ele>
        <time>2017-09-07T10:48:04Z</time>
      </trkpt>
      <trkpt lat="43.65428" lon="3.79133">
        <ele>131.9</ele>
        <time>2017-09-07T10:48:06Z</time>
      </trkpt>
      <trkpt lat="43.65439" lon="3.79133">
        <ele>132</ele>
        <time>2017-09-07T10:48:09Z</time>
      </trkpt>
      <trkpt lat="43.65446" lon="3.79133">
        <ele>132</ele>
        <time>2017-09-07T10:48:11Z</time>
      </trkpt>
      <trkpt lat="43.65455" lon="3.79134">
        <ele>132.1</ele>
        <time>2017-09-07T10:48:14Z</time>
      </trkpt>
      <trkpt lat="43.65466" lon="3.79134">
        <ele>132.1</ele>
        <time>2017-09-07T10:48:17Z</time>
      </trkpt>
      <trkpt lat="43.65477" lon="3.79135">
        <ele>132</ele>
        <time>2017-09-07T10:48:19Z</time>
      </trkpt>
      <trkpt lat="43.65484" lon="3.79137">
        <ele>131.8</ele>
        <time>2017-09-07T10:48:21Z</time>
      </trkpt>
      <trkpt lat="43.65492" lon="3.79142">
        <ele>131.8</ele>
        <time>2017-09-07T10:48:23Z</time>
      </trkpt>
      <trkpt lat="43.65502" lon="3.79144">
        <ele>131.7</ele>
        <time>2017-09-07T10:48:26Z</time>
      </trkpt>
      <trkpt lat="43.6551" lon="3.79144">
        <ele>131.8</ele>
        <time>2017-09-07T10:48:28Z</time>
      </trkpt>
      <trkpt lat="43.6552" lon="3.79147">
        <ele>132</ele>
        <time>2017-09-07T10:48:31Z</time>
      </trkpt>
      <trkpt lat="43.65529" lon="3.79146">
        <ele>132.2</ele>
        <time>2017-09-07T10:48:33Z</time>
      </trkpt>
      <trkpt lat="43.6554" lon="3.7915">
        <ele>132.2</ele>
        <time>2017-09-07T10:48:36Z</time>
      </trkpt>
      <trkpt lat="43.65548" lon="3.79156">
        <ele>132.3</ele>
        <time>2017-09-07T10:48:38Z</time>
      </trkpt>
      <trkpt lat="43.65552" lon="3.79165">
        <ele>132.4</ele>
        <time>2017-09-07T10:48:40Z</time>
      </trkpt>
      <trkpt lat="43.65558" lon="3.79173">
        <ele>132.7</ele>
        <time>2017-09-07T10:48:45Z</time>
      </trkpt>
      <trkpt lat="43.65567" lon="3.79185">
        <ele>132.8</ele>
        <time>2017-09-07T10:48:48Z</time>
      </trkpt>
      <trkpt lat="43.65574" lon="3.79192">
        <ele>132.8</ele>
        <time>2017-09-07T10:48:50Z</time>
      </trkpt>
      <trkpt lat="43.65581" lon="3.79195">
        <ele>132.7</ele>
        <time>2017-09-07T10:48:52Z</time>
      </trkpt>
      <trkpt lat="43.65587" lon="3.79207">
        <ele>132.6</ele>
        <time>2017-09-07T10:48:55Z</time>
      </trkpt>
      <trkpt lat="43.65595" lon="3.79214">
        <ele>132</ele>
        <time>2017-09-07T10:48:59Z</time>
      </trkpt>
      <trkpt lat="43.65601" lon="3.7922">
        <ele>131.8</ele>
        <time>2017-09-07T10:49:03Z</time>
      </trkpt>
      <trkpt lat="43.65608" lon="3.79223">
        <ele>132.4</ele>
        <time>2017-09-07T10:49:12Z</time>
      </trkpt>
      <trkpt lat="43.65615" lon="3.79226">
        <ele>132.5</ele>
        <time>2017-09-07T10:49:15Z</time>
      </trkpt>
      <trkpt lat="43.65623" lon="3.79229">
        <ele>132.7</ele>
        <time>2017-09-07T10:49:20Z</time>
      </trkpt>
      <trkpt lat="43.65632" lon="3.79233">
        <ele>133.1</ele>
        <time>2017-09-07T10:49:26Z</time>
      </trkpt>
      <trkpt lat="43.65637" lon="3.79243">
        <ele>133.6</ele>
        <time>2017-09-07T10:49:31Z</time>
      </trkpt>
      <trkpt lat="43.65638" lon="3.79255">
        <ele>134.2</ele>
        <time>2017-09-07T10:49:36Z</time>
      </trkpt>
      <trkpt lat="43.65646" lon="3.79262">
        <ele>135.7</ele>
        <time>2017-09-07T10:49:40Z</time>
      </trkpt>
      <trkpt lat="43.65654" lon="3.79266">
        <ele>136</ele>
        <time>2017-09-07T10:49:42Z</time>
      </trkpt>
      <trkpt lat="43.6566" lon="3.79271">
        <ele>136.9</ele>
        <time>2017-09-07T10:49:48Z</time>
      </trkpt>
      <trkpt lat="43.65669" lon="3.79276">
        <ele>137.9</ele>
        <time>2017-09-07T10:49:53Z</time>
      </trkpt>
      <trkpt lat="43.65677" lon="3.79278">
        <ele>138.5</ele>
        <time>2017-09-07T10:49:56Z</time>
      </trkpt>
      <trkpt lat="43.65684" lon="3.79283">
        <ele>139.3</ele>
        <time>2017-09-07T10:50:00Z</time>
      </trkpt>
      <trkpt lat="43.65692" lon="3.79289">
        <ele>140.1</ele>
        <time>2017-09-07T10:50:05Z</time>
      </trkpt>
      <trkpt lat="43.65699" lon="3.79295">
        <ele>140.9</ele>
        <time>2017-09-07T10:50:10Z</time>
      </trkpt>
      <trkpt lat="43.65711" lon="3.79297">
        <ele>142.3</ele>
        <time>2017-09-07T10:50:13Z</time>
      </trkpt>
      <trkpt lat="43.65721" lon="3.79301">
        <ele>143.1</ele>
        <time>2017-09-07T10:50:15Z</time>
      </trkpt>
      <trkpt lat="43.65725" lon="3.79309">
        <ele>143.2</ele>
        <time>2017-09-07T10:50:17Z</time>
      </trkpt>
      <trkpt lat="43.65733" lon="3.79317">
        <ele>143.8</ele>
        <time>2017-09-07T10:50:20Z</time>
      </trkpt>
      <trkpt lat="43.65743" lon="3.79323">
        <ele>144</ele>
        <time>2017-09-07T10:50:22Z</time>
      </trkpt>
      <trkpt lat="43.65749" lon="3.79329">
        <ele>144.9</ele>
        <time>2017-09-07T10:50:23Z</time>
      </trkpt>
      <trkpt lat="43.65752" lon="3.79341">
        <ele>145.5</ele>
        <time>2017-09-07T10:50:25Z</time>
      </trkpt>
      <trkpt lat="43.65757" lon="3.79353">
        <ele>146.4</ele>
        <time>2017-09-07T10:50:28Z</time>
      </trkpt>
      <trkpt lat="43.65763" lon="3.79362">
        <ele>146.4</ele>
        <time>2017-09-07T10:50:30Z</time>
      </trkpt>
      <trkpt lat="43.65774" lon="3.79369">
        <ele>145.9</ele>
        <time>2017-09-07T10:50:33Z</time>
      </trkpt>
      <trkpt lat="43.65783" lon="3.79376">
        <ele>145.8</ele>
        <time>2017-09-07T10:50:36Z</time>
      </trkpt>
      <trkpt lat="43.65789" lon="3.79386">
        <ele>145.7</ele>
        <time>2017-09-07T10:50:40Z</time>
      </trkpt>
      <trkpt lat="43.65796" lon="3.79397">
        <ele>145.8</ele>
        <time>2017-09-07T10:50:44Z</time>
      </trkpt>
      <trkpt lat="43.65802" lon="3.794">
        <ele>145.9</ele>
        <time>2017-09-07T10:50:47Z</time>
      </trkpt>
      <trkpt lat="43.65814" lon="3.79398">
        <ele>145.8</ele>
        <time>2017-09-07T10:50:50Z</time>
      </trkpt>
      <trkpt lat="43.65826" lon="3.79398">
        <ele>146.6</ele>
        <time>2017-09-07T10:50:52Z</time>
      </trkpt>
      <trkpt lat="43.6583" lon="3.79388">
        <ele>146.6</ele>
        <time>2017-09-07T10:50:55Z</time>
      </trkpt>
      <trkpt lat="43.65836" lon="3.79376">
        <ele>146.5</ele>
        <time>2017-09-07T10:50:58Z</time>
      </trkpt>
      <trkpt lat="43.65843" lon="3.79368">
        <ele>146.4</ele>
        <time>2017-09-07T10:51:01Z</time>
      </trkpt>
      <trkpt lat="43.65851" lon="3.79358">
        <ele>145.2</ele>
        <time>2017-09-07T10:51:03Z</time>
      </trkpt>
      <trkpt lat="43.65858" lon="3.79353">
        <ele>145</ele>
        <time>2017-09-07T10:51:04Z</time>
      </trkpt>
      <trkpt lat="43.65868" lon="3.79351">
        <ele>144.9</ele>
        <time>2017-09-07T10:51:06Z</time>
      </trkpt>
      <trkpt lat="43.65876" lon="3.79351">
        <ele>145</ele>
        <time>2017-09-07T10:51:08Z</time>
      </trkpt>
      <trkpt lat="43.65885" lon="3.79343">
        <ele>145</ele>
        <time>2017-09-07T10:51:10Z</time>
      </trkpt>
      <trkpt lat="43.65893" lon="3.79336">
        <ele>144.8</ele>
        <time>2017-09-07T10:51:12Z</time>
      </trkpt>
      <trkpt lat="43.65903" lon="3.7933">
        <ele>144.8</ele>
        <time>2017-09-07T10:51:14Z</time>
      </trkpt>
      <trkpt lat="43.65909" lon="3.79323">
        <ele>144.7</ele>
        <time>2017-09-07T10:51:16Z</time>
      </trkpt>
      <trkpt lat="43.65916" lon="3.79321">
        <ele>144.3</ele>
        <time>2017-09-07T10:51:18Z</time>
      </trkpt>
      <trkpt lat="43.65923" lon="3.7932">
        <ele>144.3</ele>
        <time>2017-09-07T10:51:20Z</time>
      </trkpt>
      <trkpt lat="43.65933" lon="3.79321">
        <ele>144.4</ele>
        <time>2017-09-07T10:51:23Z</time>
      </trkpt>
      <trkpt lat="43.65941" lon="3.7932">
        <ele>144.3</ele>
        <time>2017-09-07T10:51:25Z</time>
      </trkpt>
      <trkpt lat="43.6595" lon="3.79322">
        <ele>144.7</ele>
        <time>2017-09-07T10:51:27Z</time>
      </trkpt>
      <trkpt lat="43.65958" lon="3.79323">
        <ele>144.7</ele>
        <time>2017-09-07T10:51:29Z</time>
      </trkpt>
      <trkpt lat="43.65969" lon="3.79329">
        <ele>144.9</ele>
        <time>2017-09-07T10:51:32Z</time>
      </trkpt>
      <trkpt lat="43.65977" lon="3.79334">
        <ele>144.6</ele>
        <time>2017-09-07T10:51:34Z</time>
      </trkpt>
      <trkpt lat="43.65987" lon="3.79336">
        <ele>144.4</ele>
        <time>2017-09-07T10:51:37Z</time>
      </trkpt>
      <trkpt lat="43.65995" lon="3.79341">
        <ele>144.3</ele>
        <time>2017-09-07T10:51:39Z</time>
      </trkpt>
      <trkpt lat="43.66005" lon="3.79341">
        <ele>142.8</ele>
        <time>2017-09-07T10:51:42Z</time>
      </trkpt>
      <trkpt lat="43.66013" lon="3.79347">
        <ele>142</ele>
        <time>2017-09-07T10:51:44Z</time>
      </trkpt>
      <trkpt lat="43.66015" lon="3.79359">
        <ele>141.9</ele>
        <time>2017-09-07T10:51:47Z</time>
      </trkpt>
      <trkpt lat="43.66016" lon="3.7937">
        <ele>141.8</ele>
        <time>2017-09-07T10:51:50Z</time>
      </trkpt>
      <trkpt lat="43.66018" lon="3.79384">
        <ele>141.7</ele>
        <time>2017-09-07T10:51:52Z</time>
      </trkpt>
      <trkpt lat="43.66018" lon="3.79394">
        <ele>141.5</ele>
        <time>2017-09-07T10:51:54Z</time>
      </trkpt>
      <trkpt lat="43.66023" lon="3.79406">
        <ele>141.2</ele>
        <time>2017-09-07T10:51:58Z</time>
      </trkpt>
      <trkpt lat="43.66026" lon="3.79421">
        <ele>141</ele>
        <time>2017-09-07T10:52:01Z</time>
      </trkpt>
      <trkpt lat="43.66029" lon="3.79431">
        <ele>140.8</ele>
        <time>2017-09-07T10:52:03Z</time>
      </trkpt>
      <trkpt lat="43.66031" lon="3.79445">
        <ele>140.4</ele>
        <time>2017-09-07T10:52:06Z</time>
      </trkpt>
      <trkpt lat="43.66029" lon="3.79461">
        <ele>140.1</ele>
        <time>2017-09-07T10:52:09Z</time>
      </trkpt>
      <trkpt lat="43.66028" lon="3.79473">
        <ele>139.8</ele>
        <time>2017-09-07T10:52:12Z</time>
      </trkpt>
      <trkpt lat="43.6603" lon="3.79486">
        <ele>139.5</ele>
        <time>2017-09-07T10:52:16Z</time>
      </trkpt>
      <trkpt lat="43.6603" lon="3.79497">
        <ele>139.2</ele>
        <time>2017-09-07T10:52:19Z</time>
      </trkpt>
      <trkpt lat="43.6603" lon="3.79511">
        <ele>139</ele>
        <time>2017-09-07T10:52:23Z</time>
      </trkpt>
      <trkpt lat="43.6603" lon="3.79524">
        <ele>138.9</ele>
        <time>2017-09-07T10:52:26Z</time>
      </trkpt>
      <trkpt lat="43.6603" lon="3.79534">
        <ele>138.8</ele>
        <time>2017-09-07T10:52:28Z</time>
      </trkpt>
      <trkpt lat="43.6603" lon="3.79546">
        <ele>138.7</ele>
        <time>2017-09-07T10:52:31Z</time>
      </trkpt>
      <trkpt lat="43.66031" lon="3.79557">
        <ele>138.6</ele>
        <time>2017-09-07T10:52:34Z</time>
      </trkpt>
      <trkpt lat="43.66035" lon="3.79568">
        <ele>138.5</ele>
        <time>2017-09-07T10:52:37Z</time>
      </trkpt>
      <trkpt lat="43.66036" lon="3.79579">
        <ele>138.5</ele>
        <time>2017-09-07T10:52:40Z</time>
      </trkpt>
      <trkpt lat="43.66036" lon="3.79592">
        <ele>138.6</ele>
        <time>2017-09-07T10:52:44Z</time>
      </trkpt>
      <trkpt lat="43.66035" lon="3.79606">
        <ele>138.7</ele>
        <time>2017-09-07T10:52:47Z</time>
      </trkpt>
      <trkpt lat="43.66034" lon="3.79616">
        <ele>138.9</ele>
        <time>2017-09-07T10:52:50Z</time>
      </trkpt>
      <trkpt lat="43.6603" lon="3.79627">
        <ele>139.1</ele>
        <time>2017-09-07T10:52:53Z</time>
      </trkpt>
      <trkpt lat="43.66029" lon="3.7964">
        <ele>139.3</ele>
        <time>2017-09-07T10:52:56Z</time>
      </trkpt>
      <trkpt lat="43.66027" lon="3.79651">
        <ele>139.4</ele>
        <time>2017-09-07T10:52:59Z</time>
      </trkpt>
      <trkpt lat="43.66025" lon="3.79663">
        <ele>139.4</ele>
        <time>2017-09-07T10:53:02Z</time>
      </trkpt>
      <trkpt lat="43.66024" lon="3.79672">
        <ele>139.6</ele>
        <time>2017-09-07T10:53:05Z</time>
      </trkpt>
      <trkpt lat="43.66022" lon="3.79682">
        <ele>139.8</ele>
        <time>2017-09-07T10:53:08Z</time>
      </trkpt>
      <trkpt lat="43.66022" lon="3.79694">
        <ele>140</ele>
        <time>2017-09-07T10:53:11Z</time>
      </trkpt>
      <trkpt lat="43.6602" lon="3.79703">
        <ele>140.3</ele>
        <time>2017-09-07T10:53:14Z</time>
      </trkpt>
      <trkpt lat="43.66018" lon="3.79715">
        <ele>140.4</ele>
        <time>2017-09-07T10:53:17Z</time>
      </trkpt>
      <trkpt lat="43.66017" lon="3.79726">
        <ele>140.6</ele>
        <time>2017-09-07T10:53:21Z</time>
      </trkpt>
      <trkpt lat="43.66015" lon="3.79737">
        <ele>140.8</ele>
        <time>2017-09-07T10:53:25Z</time>
      </trkpt>
      <trkpt lat="43.66013" lon="3.79751">
        <ele>140.9</ele>
        <time>2017-09-07T10:53:29Z</time>
      </trkpt>
      <trkpt lat="43.6601" lon="3.79761">
        <ele>141</ele>
        <time>2017-09-07T10:53:33Z</time>
      </trkpt>
      <trkpt lat="43.66009" lon="3.79771">
        <ele>141.1</ele>
        <time>2017-09-07T10:53:37Z</time>
      </trkpt>
      <trkpt lat="43.66006" lon="3.79782">
        <ele>141.3</ele>
        <time>2017-09-07T10:53:41Z</time>
      </trkpt>
      <trkpt lat="43.66006" lon="3.79794">
        <ele>141.5</ele>
        <time>2017-09-07T10:53:45Z</time>
      </trkpt>
      <trkpt lat="43.66005" lon="3.79805">
        <ele>141.8</ele>
        <time>2017-09-07T10:53:49Z</time>
      </trkpt>
      <trkpt lat="43.66006" lon="3.79816">
        <ele>142.1</ele>
        <time>2017-09-07T10:53:53Z</time>
      </trkpt>
      <trkpt lat="43.66005" lon="3.79826">
        <ele>142.3</ele>
        <time>2017-09-07T10:53:57Z</time>
      </trkpt>
      <trkpt lat="43.66004" lon="3.79837">
        <ele>142.6</ele>
        <time>2017-09-07T10:54:02Z</time>
      </trkpt>
      <trkpt lat="43.66004" lon="3.79847">
        <ele>142.8</ele>
        <time>2017-09-07T10:54:06Z</time>
      </trkpt>
      <trkpt lat="43.66003" lon="3.79857">
        <ele>143.1</ele>
        <time>2017-09-07T10:54:10Z</time>
      </trkpt>
      <trkpt lat="43.66001" lon="3.79868">
        <ele>143.6</ele>
        <time>2017-09-07T10:54:15Z</time>
      </trkpt>
      <trkpt lat="43.65999" lon="3.79878">
        <ele>144.3</ele>
        <time>2017-09-07T10:54:20Z</time>
      </trkpt>
      <trkpt lat="43.65995" lon="3.79889">
        <ele>145.5</ele>
        <time>2017-09-07T10:54:26Z</time>
      </trkpt>
      <trkpt lat="43.65991" lon="3.79897">
        <ele>146.1</ele>
        <time>2017-09-07T10:54:29Z</time>
      </trkpt>
      <trkpt lat="43.65986" lon="3.79906">
        <ele>147.1</ele>
        <time>2017-09-07T10:54:33Z</time>
      </trkpt>
      <trkpt lat="43.6598" lon="3.79912">
        <ele>147.9</ele>
        <time>2017-09-07T10:54:36Z</time>
      </trkpt>
      <trkpt lat="43.65973" lon="3.79919">
        <ele>149</ele>
        <time>2017-09-07T10:54:40Z</time>
      </trkpt>
      <trkpt lat="43.65968" lon="3.79926">
        <ele>150.1</ele>
        <time>2017-09-07T10:54:44Z</time>
      </trkpt>
      <trkpt lat="43.65962" lon="3.79933">
        <ele>151</ele>
        <time>2017-09-07T10:54:47Z</time>
      </trkpt>
      <trkpt lat="43.65955" lon="3.7994">
        <ele>152.1</ele>
        <time>2017-09-07T10:54:51Z</time>
      </trkpt>
      <trkpt lat="43.6595" lon="3.79949">
        <ele>153.1</ele>
        <time>2017-09-07T10:54:55Z</time>
      </trkpt>
      <trkpt lat="43.65944" lon="3.79958">
        <ele>154.3</ele>
        <time>2017-09-07T10:55:00Z</time>
      </trkpt>
      <trkpt lat="43.65938" lon="3.79966">
        <ele>155.1</ele>
        <time>2017-09-07T10:55:04Z</time>
      </trkpt>
      <trkpt lat="43.65933" lon="3.79973">
        <ele>155.8</ele>
        <time>2017-09-07T10:55:07Z</time>
      </trkpt>
      <trkpt lat="43.65927" lon="3.79982">
        <ele>156.3</ele>
        <time>2017-09-07T10:55:10Z</time>
      </trkpt>
      <trkpt lat="43.6592" lon="3.7999">
        <ele>157.4</ele>
        <time>2017-09-07T10:55:15Z</time>
      </trkpt>
      <trkpt lat="43.65914" lon="3.79999">
        <ele>158.2</ele>
        <time>2017-09-07T10:55:19Z</time>
      </trkpt>
      <trkpt lat="43.65906" lon="3.80003">
        <ele>159.3</ele>
        <time>2017-09-07T10:55:24Z</time>
      </trkpt>
      <trkpt lat="43.65899" lon="3.80007">
        <ele>160</ele>
        <time>2017-09-07T10:55:28Z</time>
      </trkpt>
      <trkpt lat="43.6589" lon="3.8001">
        <ele>160.9</ele>
        <time>2017-09-07T10:55:32Z</time>
      </trkpt>
      <trkpt lat="43.65881" lon="3.80013">
        <ele>161.8</ele>
        <time>2017-09-07T10:55:36Z</time>
      </trkpt>
      <trkpt lat="43.65874" lon="3.80018">
        <ele>162.7</ele>
        <time>2017-09-07T10:55:40Z</time>
      </trkpt>
      <trkpt lat="43.65865" lon="3.80017">
        <ele>164</ele>
        <time>2017-09-07T10:55:45Z</time>
      </trkpt>
      <trkpt lat="43.65857" lon="3.80018">
        <ele>165.4</ele>
        <time>2017-09-07T10:55:51Z</time>
      </trkpt>
      <trkpt lat="43.65848" lon="3.80019">
        <ele>166</ele>
        <time>2017-09-07T10:55:54Z</time>
      </trkpt>
      <trkpt lat="43.65839" lon="3.80021">
        <ele>166.7</ele>
        <time>2017-09-07T10:55:58Z</time>
      </trkpt>
      <trkpt lat="43.65831" lon="3.8002">
        <ele>167.5</ele>
        <time>2017-09-07T10:56:02Z</time>
      </trkpt>
      <trkpt lat="43.65823" lon="3.8002">
        <ele>168</ele>
        <time>2017-09-07T10:56:05Z</time>
      </trkpt>
      <trkpt lat="43.65814" lon="3.80022">
        <ele>168.5</ele>
        <time>2017-09-07T10:56:08Z</time>
      </trkpt>
      <trkpt lat="43.65805" lon="3.80024">
        <ele>169.2</ele>
        <time>2017-09-07T10:56:12Z</time>
      </trkpt>
      <trkpt lat="43.65796" lon="3.80026">
        <ele>169.8</ele>
        <time>2017-09-07T10:56:16Z</time>
      </trkpt>
      <trkpt lat="43.65789" lon="3.80027">
        <ele>170.2</ele>
        <time>2017-09-07T10:56:19Z</time>
      </trkpt>
      <trkpt lat="43.65782" lon="3.80027">
        <ele>170.6</ele>
        <time>2017-09-07T10:56:22Z</time>
      </trkpt>
      <trkpt lat="43.65774" lon="3.8003">
        <ele>171</ele>
        <time>2017-09-07T10:56:26Z</time>
      </trkpt>
      <trkpt lat="43.65766" lon="3.80034">
        <ele>171.5</ele>
        <time>2017-09-07T10:56:32Z</time>
      </trkpt>
      <trkpt lat="43.65759" lon="3.80041">
        <ele>171.9</ele>
        <time>2017-09-07T10:56:36Z</time>
      </trkpt>
      <trkpt lat="43.65752" lon="3.80043">
        <ele>172.3</ele>
        <time>2017-09-07T10:56:40Z</time>
      </trkpt>
      <trkpt lat="43.65744" lon="3.80042">
        <ele>172.8</ele>
        <time>2017-09-07T10:56:44Z</time>
      </trkpt>
      <trkpt lat="43.65737" lon="3.80046">
        <ele>173.3</ele>
        <time>2017-09-07T10:56:47Z</time>
      </trkpt>
      <trkpt lat="43.65729" lon="3.80052">
        <ele>174.1</ele>
        <time>2017-09-07T10:56:52Z</time>
      </trkpt>
      <trkpt lat="43.65721" lon="3.80057">
        <ele>174.8</ele>
        <time>2017-09-07T10:56:56Z</time>
      </trkpt>
      <trkpt lat="43.65715" lon="3.80063">
        <ele>175.5</ele>
        <time>2017-09-07T10:57:00Z</time>
      </trkpt>
      <trkpt lat="43.65709" lon="3.80069">
        <ele>176.1</ele>
        <time>2017-09-07T10:57:04Z</time>
      </trkpt>
      <trkpt lat="43.65702" lon="3.80075">
        <ele>176.5</ele>
        <time>2017-09-07T10:57:07Z</time>
      </trkpt>
      <trkpt lat="43.65695" lon="3.8008">
        <ele>176.9</ele>
        <time>2017-09-07T10:57:10Z</time>
      </trkpt>
      <trkpt lat="43.65688" lon="3.80088">
        <ele>177.5</ele>
        <time>2017-09-07T10:57:14Z</time>
      </trkpt>
      <trkpt lat="43.65681" lon="3.80094">
        <ele>177.9</ele>
        <time>2017-09-07T10:57:17Z</time>
      </trkpt>
      <trkpt lat="43.65673" lon="3.801">
        <ele>178.4</ele>
        <time>2017-09-07T10:57:20Z</time>
      </trkpt>
      <trkpt lat="43.65667" lon="3.80107">
        <ele>179.1</ele>
        <time>2017-09-07T10:57:24Z</time>
      </trkpt>
      <trkpt lat="43.65662" lon="3.80115">
        <ele>179.7</ele>
        <time>2017-09-07T10:57:27Z</time>
      </trkpt>
      <trkpt lat="43.65653" lon="3.80119">
        <ele>180.4</ele>
        <time>2017-09-07T10:57:31Z</time>
      </trkpt>
      <trkpt lat="43.65645" lon="3.80125">
        <ele>181.1</ele>
        <time>2017-09-07T10:57:35Z</time>
      </trkpt>
      <trkpt lat="43.65638" lon="3.8013">
        <ele>181.7</ele>
        <time>2017-09-07T10:57:38Z</time>
      </trkpt>
      <trkpt lat="43.65631" lon="3.80136">
        <ele>182.4</ele>
        <time>2017-09-07T10:57:41Z</time>
      </trkpt>
      <trkpt lat="43.65625" lon="3.80146">
        <ele>183.4</ele>
        <time>2017-09-07T10:57:45Z</time>
      </trkpt>
      <trkpt lat="43.65621" lon="3.80154">
        <ele>184.5</ele>
        <time>2017-09-07T10:57:49Z</time>
      </trkpt>
      <trkpt lat="43.65614" lon="3.80163">
        <ele>185.6</ele>
        <time>2017-09-07T10:57:53Z</time>
      </trkpt>
      <trkpt lat="43.65608" lon="3.80174">
        <ele>186.6</ele>
        <time>2017-09-07T10:57:57Z</time>
      </trkpt>
      <trkpt lat="43.65603" lon="3.80184">
        <ele>187.3</ele>
        <time>2017-09-07T10:58:00Z</time>
      </trkpt>
      <trkpt lat="43.65598" lon="3.80192">
        <ele>188.1</ele>
        <time>2017-09-07T10:58:03Z</time>
      </trkpt>
      <trkpt lat="43.65591" lon="3.80199">
        <ele>189</ele>
        <time>2017-09-07T10:58:07Z</time>
      </trkpt>
      <trkpt lat="43.65584" lon="3.80208">
        <ele>189.7</ele>
        <time>2017-09-07T10:58:10Z</time>
      </trkpt>
      <trkpt lat="43.65576" lon="3.80215">
        <ele>190.4</ele>
        <time>2017-09-07T10:58:13Z</time>
      </trkpt>
      <trkpt lat="43.65569" lon="3.80219">
        <ele>190.8</ele>
        <time>2017-09-07T10:58:15Z</time>
      </trkpt>
      <trkpt lat="43.6556" lon="3.80224">
        <ele>191.5</ele>
        <time>2017-09-07T10:58:18Z</time>
      </trkpt>
      <trkpt lat="43.65553" lon="3.80227">
        <ele>191.9</ele>
        <time>2017-09-07T10:58:20Z</time>
      </trkpt>
      <trkpt lat="43.65546" lon="3.80234">
        <ele>194.2</ele>
        <time>2017-09-07T10:58:22Z</time>
      </trkpt>
      <trkpt lat="43.65536" lon="3.80237">
        <ele>194.7</ele>
        <time>2017-09-07T10:58:25Z</time>
      </trkpt>
      <trkpt lat="43.65527" lon="3.80241">
        <ele>195.3</ele>
        <time>2017-09-07T10:58:28Z</time>
      </trkpt>
      <trkpt lat="43.65518" lon="3.80246">
        <ele>195.7</ele>
        <time>2017-09-07T10:58:30Z</time>
      </trkpt>
      <trkpt lat="43.65509" lon="3.80252">
        <ele>196</ele>
        <time>2017-09-07T10:58:32Z</time>
      </trkpt>
      <trkpt lat="43.655" lon="3.80256">
        <ele>198.2</ele>
        <time>2017-09-07T10:58:34Z</time>
      </trkpt>
      <trkpt lat="43.65492" lon="3.80264">
        <ele>199</ele>
        <time>2017-09-07T10:58:36Z</time>
      </trkpt>
      <trkpt lat="43.65485" lon="3.80273">
        <ele>198.3</ele>
        <time>2017-09-07T10:58:38Z</time>
      </trkpt>
      <trkpt lat="43.65482" lon="3.80285">
        <ele>198.1</ele>
        <time>2017-09-07T10:58:40Z</time>
      </trkpt>
      <trkpt lat="43.65483" lon="3.80298">
        <ele>198.1</ele>
        <time>2017-09-07T10:58:42Z</time>
      </trkpt>
      <trkpt lat="43.65487" lon="3.80307">
        <ele>198.1</ele>
        <time>2017-09-07T10:58:44Z</time>
      </trkpt>
      <trkpt lat="43.65495" lon="3.80312">
        <ele>198</ele>
        <time>2017-09-07T10:58:47Z</time>
      </trkpt>
      <trkpt lat="43.65501" lon="3.80318">
        <ele>198.1</ele>
        <time>2017-09-07T10:58:51Z</time>
      </trkpt>
      <trkpt lat="43.65501" lon="3.80329">
        <ele>198</ele>
        <time>2017-09-07T10:58:57Z</time>
      </trkpt>
      <trkpt lat="43.655" lon="3.80339">
        <ele>198.3</ele>
        <time>2017-09-07T10:59:04Z</time>
      </trkpt>
      <trkpt lat="43.65505" lon="3.80346">
        <ele>198.9</ele>
        <time>2017-09-07T10:59:08Z</time>
      </trkpt>
      <trkpt lat="43.65514" lon="3.8035">
        <ele>199.6</ele>
        <time>2017-09-07T10:59:13Z</time>
      </trkpt>
      <trkpt lat="43.65525" lon="3.80354">
        <ele>201.6</ele>
        <time>2017-09-07T10:59:15Z</time>
      </trkpt>
      <trkpt lat="43.65536" lon="3.80352">
        <ele>204.8</ele>
        <time>2017-09-07T10:59:18Z</time>
      </trkpt>
      <trkpt lat="43.65545" lon="3.80353">
        <ele>207.1</ele>
        <time>2017-09-07T10:59:20Z</time>
      </trkpt>
      <trkpt lat="43.65555" lon="3.80355">
        <ele>208.6</ele>
        <time>2017-09-07T10:59:22Z</time>
      </trkpt>
      <trkpt lat="43.65564" lon="3.80358">
        <ele>208.9</ele>
        <time>2017-09-07T10:59:25Z</time>
      </trkpt>
      <trkpt lat="43.65574" lon="3.80361">
        <ele>209.4</ele>
        <time>2017-09-07T10:59:27Z</time>
      </trkpt>
      <trkpt lat="43.65584" lon="3.80364">
        <ele>211.6</ele>
        <time>2017-09-07T10:59:29Z</time>
      </trkpt>
      <trkpt lat="43.65592" lon="3.80366">
        <ele>211.9</ele>
        <time>2017-09-07T10:59:31Z</time>
      </trkpt>
      <trkpt lat="43.65601" lon="3.80375">
        <ele>212.2</ele>
        <time>2017-09-07T10:59:33Z</time>
      </trkpt>
      <trkpt lat="43.65608" lon="3.80385">
        <ele>214.5</ele>
        <time>2017-09-07T10:59:35Z</time>
      </trkpt>
      <trkpt lat="43.65617" lon="3.8039">
        <ele>216.5</ele>
        <time>2017-09-07T10:59:37Z</time>
      </trkpt>
      <trkpt lat="43.65626" lon="3.80391">
        <ele>218.3</ele>
        <time>2017-09-07T10:59:39Z</time>
      </trkpt>
      <trkpt lat="43.65637" lon="3.80396">
        <ele>220.1</ele>
        <time>2017-09-07T10:59:41Z</time>
      </trkpt>
      <trkpt lat="43.65649" lon="3.80396">
        <ele>220.3</ele>
        <time>2017-09-07T10:59:43Z</time>
      </trkpt>
      <trkpt lat="43.65657" lon="3.80397">
        <ele>221.8</ele>
        <time>2017-09-07T10:59:45Z</time>
      </trkpt>
      <trkpt lat="43.65667" lon="3.804">
        <ele>222.2</ele>
        <time>2017-09-07T10:59:47Z</time>
      </trkpt>
      <trkpt lat="43.65676" lon="3.80405">
        <ele>222.2</ele>
        <time>2017-09-07T10:59:49Z</time>
      </trkpt>
      <trkpt lat="43.65683" lon="3.80408">
        <ele>222.2</ele>
        <time>2017-09-07T10:59:51Z</time>
      </trkpt>
      <trkpt lat="43.65694" lon="3.80412">
        <ele>222</ele>
        <time>2017-09-07T10:59:53Z</time>
      </trkpt>
      <trkpt lat="43.65701" lon="3.8042">
        <ele>221.7</ele>
        <time>2017-09-07T10:59:55Z</time>
      </trkpt>
      <trkpt lat="43.65712" lon="3.80422">
        <ele>219.7</ele>
        <time>2017-09-07T10:59:58Z</time>
      </trkpt>
      <trkpt lat="43.65722" lon="3.80423">
        <ele>219.4</ele>
        <time>2017-09-07T11:00:01Z</time>
      </trkpt>
      <trkpt lat="43.6573" lon="3.80428">
        <ele>219.2</ele>
        <time>2017-09-07T11:00:03Z</time>
      </trkpt>
      <trkpt lat="43.65738" lon="3.80431">
        <ele>217.8</ele>
        <time>2017-09-07T11:00:05Z</time>
      </trkpt>
      <trkpt lat="43.65747" lon="3.80436">
        <ele>217.4</ele>
        <time>2017-09-07T11:00:07Z</time>
      </trkpt>
      <trkpt lat="43.65755" lon="3.80438">
        <ele>217.6</ele>
        <time>2017-09-07T11:00:09Z</time>
      </trkpt>
      <trkpt lat="43.65765" lon="3.80442">
        <ele>217.6</ele>
        <time>2017-09-07T11:00:11Z</time>
      </trkpt>
      <trkpt lat="43.65774" lon="3.80447">
        <ele>217.5</ele>
        <time>2017-09-07T11:00:13Z</time>
      </trkpt>
      <trkpt lat="43.65784" lon="3.80452">
        <ele>218</ele>
        <time>2017-09-07T11:00:15Z</time>
      </trkpt>
      <trkpt lat="43.65792" lon="3.80456">
        <ele>219.8</ele>
        <time>2017-09-07T11:00:17Z</time>
      </trkpt>
      <trkpt lat="43.65803" lon="3.80465">
        <ele>220.1</ele>
        <time>2017-09-07T11:00:19Z</time>
      </trkpt>
      <trkpt lat="43.65813" lon="3.80464">
        <ele>218.8</ele>
        <time>2017-09-07T11:00:21Z</time>
      </trkpt>
      <trkpt lat="43.65821" lon="3.80467">
        <ele>218.6</ele>
        <time>2017-09-07T11:00:24Z</time>
      </trkpt>
      <trkpt lat="43.6583" lon="3.8047">
        <ele>218.3</ele>
        <time>2017-09-07T11:00:27Z</time>
      </trkpt>
      <trkpt lat="43.65838" lon="3.80474">
        <ele>218.1</ele>
        <time>2017-09-07T11:00:29Z</time>
      </trkpt>
      <trkpt lat="43.65848" lon="3.80484">
        <ele>214.9</ele>
        <time>2017-09-07T11:00:31Z</time>
      </trkpt>
      <trkpt lat="43.65857" lon="3.80491">
        <ele>212.8</ele>
        <time>2017-09-07T11:00:33Z</time>
      </trkpt>
      <trkpt lat="43.65866" lon="3.80497">
        <ele>214</ele>
        <time>2017-09-07T11:00:35Z</time>
      </trkpt>
      <trkpt lat="43.65873" lon="3.805">
        <ele>215</ele>
        <time>2017-09-07T11:00:37Z</time>
      </trkpt>
      <trkpt lat="43.65883" lon="3.80499">
        <ele>215.7</ele>
        <time>2017-09-07T11:00:40Z</time>
      </trkpt>
      <trkpt lat="43.65891" lon="3.80504">
        <ele>215.9</ele>
        <time>2017-09-07T11:00:42Z</time>
      </trkpt>
      <trkpt lat="43.65899" lon="3.80506">
        <ele>216.2</ele>
        <time>2017-09-07T11:00:44Z</time>
      </trkpt>
      <trkpt lat="43.65906" lon="3.80513">
        <ele>216.4</ele>
        <time>2017-09-07T11:00:46Z</time>
      </trkpt>
      <trkpt lat="43.65916" lon="3.80522">
        <ele>216.7</ele>
        <time>2017-09-07T11:00:48Z</time>
      </trkpt>
      <trkpt lat="43.65925" lon="3.80534">
        <ele>216.9</ele>
        <time>2017-09-07T11:00:50Z</time>
      </trkpt>
      <trkpt lat="43.65932" lon="3.80545">
        <ele>217</ele>
        <time>2017-09-07T11:00:51Z</time>
      </trkpt>
      <trkpt lat="43.65937" lon="3.80561">
        <ele>216.8</ele>
        <time>2017-09-07T11:00:53Z</time>
      </trkpt>
      <trkpt lat="43.6594" lon="3.80572">
        <ele>216.1</ele>
        <time>2017-09-07T11:00:56Z</time>
      </trkpt>
      <trkpt lat="43.65936" lon="3.80582">
        <ele>214.7</ele>
        <time>2017-09-07T11:01:02Z</time>
      </trkpt>
      <trkpt lat="43.65939" lon="3.80594">
        <ele>213.9</ele>
        <time>2017-09-07T11:01:05Z</time>
      </trkpt>
      <trkpt lat="43.6594" lon="3.80606">
        <ele>213.1</ele>
        <time>2017-09-07T11:01:07Z</time>
      </trkpt>
      <trkpt lat="43.65937" lon="3.80615">
        <ele>211.4</ele>
        <time>2017-09-07T11:01:11Z</time>
      </trkpt>
      <trkpt lat="43.65934" lon="3.80628">
        <ele>206.7</ele>
        <time>2017-09-07T11:01:14Z</time>
      </trkpt>
      <trkpt lat="43.65927" lon="3.80637">
        <ele>205.7</ele>
        <time>2017-09-07T11:01:17Z</time>
      </trkpt>
      <trkpt lat="43.65919" lon="3.80643">
        <ele>204.7</ele>
        <time>2017-09-07T11:01:21Z</time>
      </trkpt>
      <trkpt lat="43.65918" lon="3.80658">
        <ele>197.7</ele>
        <time>2017-09-07T11:01:23Z</time>
      </trkpt>
      <trkpt lat="43.65918" lon="3.80668">
        <ele>195.5</ele>
        <time>2017-09-07T11:01:25Z</time>
      </trkpt>
      <trkpt lat="43.65922" lon="3.80678">
        <ele>191.3</ele>
        <time>2017-09-07T11:01:27Z</time>
      </trkpt>
      <trkpt lat="43.65928" lon="3.80693">
        <ele>186.8</ele>
        <time>2017-09-07T11:01:29Z</time>
      </trkpt>
      <trkpt lat="43.65932" lon="3.80704">
        <ele>185.1</ele>
        <time>2017-09-07T11:01:31Z</time>
      </trkpt>
      <trkpt lat="43.6593" lon="3.8072">
        <ele>182.8</ele>
        <time>2017-09-07T11:01:34Z</time>
      </trkpt>
      <trkpt lat="43.65923" lon="3.80735">
        <ele>178.8</ele>
        <time>2017-09-07T11:01:36Z</time>
      </trkpt>
      <trkpt lat="43.65919" lon="3.80753">
        <ele>174.7</ele>
        <time>2017-09-07T11:01:38Z</time>
      </trkpt>
      <trkpt lat="43.65914" lon="3.80767">
        <ele>171</ele>
        <time>2017-09-07T11:01:40Z</time>
      </trkpt>
      <trkpt lat="43.65905" lon="3.80772">
        <ele>168.9</ele>
        <time>2017-09-07T11:01:42Z</time>
      </trkpt>
      <trkpt lat="43.65898" lon="3.8077">
        <ele>167.7</ele>
        <time>2017-09-07T11:01:43Z</time>
      </trkpt>
      <trkpt lat="43.65887" lon="3.80764">
        <ele>165.6</ele>
        <time>2017-09-07T11:01:45Z</time>
      </trkpt>
      <trkpt lat="43.65876" lon="3.8076">
        <ele>164.3</ele>
        <time>2017-09-07T11:01:47Z</time>
      </trkpt>
      <trkpt lat="43.65865" lon="3.80757">
        <ele>163.7</ele>
        <time>2017-09-07T11:01:49Z</time>
      </trkpt>
      <trkpt lat="43.65854" lon="3.80752">
        <ele>163.1</ele>
        <time>2017-09-07T11:01:51Z</time>
      </trkpt>
      <trkpt lat="43.65843" lon="3.80748">
        <ele>162.4</ele>
        <time>2017-09-07T11:01:54Z</time>
      </trkpt>
      <trkpt lat="43.6583" lon="3.80747">
        <ele>161.9</ele>
        <time>2017-09-07T11:01:55Z</time>
      </trkpt>
      <trkpt lat="43.65821" lon="3.80743">
        <ele>161.3</ele>
        <time>2017-09-07T11:01:56Z</time>
      </trkpt>
      <trkpt lat="43.65811" lon="3.80736">
        <ele>159.8</ele>
        <time>2017-09-07T11:01:58Z</time>
      </trkpt>
      <trkpt lat="43.65799" lon="3.80731">
        <ele>158.5</ele>
        <time>2017-09-07T11:02:00Z</time>
      </trkpt>
      <trkpt lat="43.65787" lon="3.80732">
        <ele>157.9</ele>
        <time>2017-09-07T11:02:02Z</time>
      </trkpt>
      <trkpt lat="43.65777" lon="3.80729">
        <ele>157.3</ele>
        <time>2017-09-07T11:02:05Z</time>
      </trkpt>
      <trkpt lat="43.65768" lon="3.80728">
        <ele>156.9</ele>
        <time>2017-09-07T11:02:06Z</time>
      </trkpt>
      <trkpt lat="43.6576" lon="3.80728">
        <ele>156.7</ele>
        <time>2017-09-07T11:02:09Z</time>
      </trkpt>
      <trkpt lat="43.65752" lon="3.80728">
        <ele>156.7</ele>
        <time>2017-09-07T11:02:12Z</time>
      </trkpt>
      <trkpt lat="43.65745" lon="3.80722">
        <ele>156.4</ele>
        <time>2017-09-07T11:02:15Z</time>
      </trkpt>
      <trkpt lat="43.65737" lon="3.80717">
        <ele>156.8</ele>
        <time>2017-09-07T11:02:17Z</time>
      </trkpt>
      <trkpt lat="43.65727" lon="3.80709">
        <ele>156.8</ele>
        <time>2017-09-07T11:02:19Z</time>
      </trkpt>
      <trkpt lat="43.65717" lon="3.80704">
        <ele>156.8</ele>
        <time>2017-09-07T11:02:21Z</time>
      </trkpt>
      <trkpt lat="43.65708" lon="3.80703">
        <ele>156.8</ele>
        <time>2017-09-07T11:02:23Z</time>
      </trkpt>
      <trkpt lat="43.657" lon="3.80706">
        <ele>156.3</ele>
        <time>2017-09-07T11:02:25Z</time>
      </trkpt>
      <trkpt lat="43.65689" lon="3.80713">
        <ele>156.1</ele>
        <time>2017-09-07T11:02:27Z</time>
      </trkpt>
      <trkpt lat="43.65679" lon="3.80717">
        <ele>155.4</ele>
        <time>2017-09-07T11:02:29Z</time>
      </trkpt>
      <trkpt lat="43.65666" lon="3.80721">
        <ele>154</ele>
        <time>2017-09-07T11:02:31Z</time>
      </trkpt>
      <trkpt lat="43.65653" lon="3.80726">
        <ele>152.3</ele>
        <time>2017-09-07T11:02:33Z</time>
      </trkpt>
      <trkpt lat="43.65646" lon="3.80732">
        <ele>151.7</ele>
        <time>2017-09-07T11:02:34Z</time>
      </trkpt>
      <trkpt lat="43.65639" lon="3.80739">
        <ele>150.8</ele>
        <time>2017-09-07T11:02:35Z</time>
      </trkpt>
      <trkpt lat="43.65631" lon="3.80745">
        <ele>150</ele>
        <time>2017-09-07T11:02:36Z</time>
      </trkpt>
      <trkpt lat="43.65623" lon="3.80751">
        <ele>149.4</ele>
        <time>2017-09-07T11:02:37Z</time>
      </trkpt>
      <trkpt lat="43.65616" lon="3.80757">
        <ele>148.8</ele>
        <time>2017-09-07T11:02:38Z</time>
      </trkpt>
      <trkpt lat="43.65609" lon="3.80763">
        <ele>147.9</ele>
        <time>2017-09-07T11:02:39Z</time>
      </trkpt>
      <trkpt lat="43.65598" lon="3.80775">
        <ele>146.2</ele>
        <time>2017-09-07T11:02:42Z</time>
      </trkpt>
      <trkpt lat="43.65592" lon="3.8078">
        <ele>145.5</ele>
        <time>2017-09-07T11:02:42Z</time>
      </trkpt>
      <trkpt lat="43.65585" lon="3.80786">
        <ele>144.7</ele>
        <time>2017-09-07T11:02:43Z</time>
      </trkpt>
      <trkpt lat="43.65578" lon="3.8079">
        <ele>144.1</ele>
        <time>2017-09-07T11:02:44Z</time>
      </trkpt>
      <trkpt lat="43.65564" lon="3.80791">
        <ele>142.9</ele>
        <time>2017-09-07T11:02:46Z</time>
      </trkpt>
      <trkpt lat="43.65556" lon="3.80788">
        <ele>142.2</ele>
        <time>2017-09-07T11:02:47Z</time>
      </trkpt>
      <trkpt lat="43.65549" lon="3.80785">
        <ele>141.5</ele>
        <time>2017-09-07T11:02:48Z</time>
      </trkpt>
      <trkpt lat="43.65536" lon="3.8078">
        <ele>140.7</ele>
        <time>2017-09-07T11:02:50Z</time>
      </trkpt>
      <trkpt lat="43.65526" lon="3.80776">
        <ele>139.8</ele>
        <time>2017-09-07T11:02:52Z</time>
      </trkpt>
      <trkpt lat="43.65516" lon="3.80776">
        <ele>139.5</ele>
        <time>2017-09-07T11:02:54Z</time>
      </trkpt>
      <trkpt lat="43.65504" lon="3.80776">
        <ele>138.7</ele>
        <time>2017-09-07T11:02:56Z</time>
      </trkpt>
      <trkpt lat="43.65491" lon="3.80776">
        <ele>138.6</ele>
        <time>2017-09-07T11:02:58Z</time>
      </trkpt>
      <trkpt lat="43.65483" lon="3.80772">
        <ele>138.3</ele>
        <time>2017-09-07T11:02:59Z</time>
      </trkpt>
      <trkpt lat="43.65472" lon="3.80764">
        <ele>137.6</ele>
        <time>2017-09-07T11:03:01Z</time>
      </trkpt>
      <trkpt lat="43.65461" lon="3.80758">
        <ele>137.2</ele>
        <time>2017-09-07T11:03:03Z</time>
      </trkpt>
      <trkpt lat="43.6545" lon="3.80758">
        <ele>136.7</ele>
        <time>2017-09-07T11:03:05Z</time>
      </trkpt>
      <trkpt lat="43.6544" lon="3.80756">
        <ele>136.5</ele>
        <time>2017-09-07T11:03:07Z</time>
      </trkpt>
      <trkpt lat="43.65429" lon="3.80756">
        <ele>135.5</ele>
        <time>2017-09-07T11:03:09Z</time>
      </trkpt>
      <trkpt lat="43.65419" lon="3.80754">
        <ele>135.1</ele>
        <time>2017-09-07T11:03:11Z</time>
      </trkpt>
      <trkpt lat="43.65406" lon="3.80749">
        <ele>134.6</ele>
        <time>2017-09-07T11:03:13Z</time>
      </trkpt>
      <trkpt lat="43.65395" lon="3.80741">
        <ele>133.9</ele>
        <time>2017-09-07T11:03:15Z</time>
      </trkpt>
      <trkpt lat="43.65382" lon="3.80739">
        <ele>133.5</ele>
        <time>2017-09-07T11:03:17Z</time>
      </trkpt>
      <trkpt lat="43.6537" lon="3.80735">
        <ele>132.5</ele>
        <time>2017-09-07T11:03:19Z</time>
      </trkpt>
      <trkpt lat="43.6536" lon="3.80732">
        <ele>131.7</ele>
        <time>2017-09-07T11:03:21Z</time>
      </trkpt>
      <trkpt lat="43.6535" lon="3.8073">
        <ele>131.1</ele>
        <time>2017-09-07T11:03:23Z</time>
      </trkpt>
      <trkpt lat="43.65343" lon="3.80737">
        <ele>130.1</ele>
        <time>2017-09-07T11:03:25Z</time>
      </trkpt>
      <trkpt lat="43.6534" lon="3.80747">
        <ele>129.6</ele>
        <time>2017-09-07T11:03:26Z</time>
      </trkpt>
      <trkpt lat="43.65332" lon="3.80761">
        <ele>128.5</ele>
        <time>2017-09-07T11:03:28Z</time>
      </trkpt>
      <trkpt lat="43.65323" lon="3.80777">
        <ele>127.4</ele>
        <time>2017-09-07T11:03:30Z</time>
      </trkpt>
      <trkpt lat="43.65318" lon="3.80785">
        <ele>127</ele>
        <time>2017-09-07T11:03:31Z</time>
      </trkpt>
      <trkpt lat="43.65314" lon="3.80793">
        <ele>126.6</ele>
        <time>2017-09-07T11:03:32Z</time>
      </trkpt>
      <trkpt lat="43.65309" lon="3.80801">
        <ele>126.3</ele>
        <time>2017-09-07T11:03:33Z</time>
      </trkpt>
      <trkpt lat="43.65305" lon="3.80809">
        <ele>126.2</ele>
        <time>2017-09-07T11:03:35Z</time>
      </trkpt>
      <trkpt lat="43.65297" lon="3.80825">
        <ele>126</ele>
        <time>2017-09-07T11:03:36Z</time>
      </trkpt>
      <trkpt lat="43.65291" lon="3.80841">
        <ele>125.7</ele>
        <time>2017-09-07T11:03:38Z</time>
      </trkpt>
      <trkpt lat="43.65287" lon="3.8085">
        <ele>125.7</ele>
        <time>2017-09-07T11:03:39Z</time>
      </trkpt>
      <trkpt lat="43.65283" lon="3.8086">
        <ele>125.5</ele>
        <time>2017-09-07T11:03:40Z</time>
      </trkpt>
      <trkpt lat="43.65279" lon="3.80868">
        <ele>125.2</ele>
        <time>2017-09-07T11:03:41Z</time>
      </trkpt>
      <trkpt lat="43.6527" lon="3.80885">
        <ele>124.9</ele>
        <time>2017-09-07T11:03:43Z</time>
      </trkpt>
      <trkpt lat="43.65263" lon="3.80901">
        <ele>124.6</ele>
        <time>2017-09-07T11:03:45Z</time>
      </trkpt>
      <trkpt lat="43.65256" lon="3.80917">
        <ele>123.7</ele>
        <time>2017-09-07T11:03:48Z</time>
      </trkpt>
      <trkpt lat="43.65251" lon="3.8093">
        <ele>122.6</ele>
        <time>2017-09-07T11:03:49Z</time>
      </trkpt>
      <trkpt lat="43.65246" lon="3.80938">
        <ele>122.5</ele>
        <time>2017-09-07T11:03:51Z</time>
      </trkpt>
      <trkpt lat="43.65245" lon="3.80951">
        <ele>122.4</ele>
        <time>2017-09-07T11:03:54Z</time>
      </trkpt>
      <trkpt lat="43.65241" lon="3.80965">
        <ele>121.6</ele>
        <time>2017-09-07T11:03:57Z</time>
      </trkpt>
      <trkpt lat="43.65237" lon="3.80976">
        <ele>121</ele>
        <time>2017-09-07T11:03:59Z</time>
      </trkpt>
      <trkpt lat="43.65231" lon="3.80986">
        <ele>120.3</ele>
        <time>2017-09-07T11:04:01Z</time>
      </trkpt>
      <trkpt lat="43.65224" lon="3.80997">
        <ele>119.6</ele>
        <time>2017-09-07T11:04:03Z</time>
      </trkpt>
      <trkpt lat="43.65218" lon="3.81008">
        <ele>119.3</ele>
        <time>2017-09-07T11:04:05Z</time>
      </trkpt>
      <trkpt lat="43.65211" lon="3.8102">
        <ele>118.7</ele>
        <time>2017-09-07T11:04:07Z</time>
      </trkpt>
      <trkpt lat="43.65205" lon="3.8103">
        <ele>118.6</ele>
        <time>2017-09-07T11:04:09Z</time>
      </trkpt>
      <trkpt lat="43.65198" lon="3.8104">
        <ele>118.3</ele>
        <time>2017-09-07T11:04:11Z</time>
      </trkpt>
      <trkpt lat="43.65192" lon="3.81051">
        <ele>118.1</ele>
        <time>2017-09-07T11:04:13Z</time>
      </trkpt>
      <trkpt lat="43.65185" lon="3.81063">
        <ele>118.9</ele>
        <time>2017-09-07T11:04:15Z</time>
      </trkpt>
      <trkpt lat="43.65178" lon="3.81075">
        <ele>118.8</ele>
        <time>2017-09-07T11:04:17Z</time>
      </trkpt>
      <trkpt lat="43.65171" lon="3.81085">
        <ele>118.8</ele>
        <time>2017-09-07T11:04:19Z</time>
      </trkpt>
      <trkpt lat="43.65167" lon="3.81099">
        <ele>119.6</ele>
        <time>2017-09-07T11:04:21Z</time>
      </trkpt>
      <trkpt lat="43.65162" lon="3.81113">
        <ele>120.6</ele>
        <time>2017-09-07T11:04:23Z</time>
      </trkpt>
      <trkpt lat="43.65156" lon="3.81126">
        <ele>121.7</ele>
        <time>2017-09-07T11:04:25Z</time>
      </trkpt>
      <trkpt lat="43.65155" lon="3.81138">
        <ele>122.4</ele>
        <time>2017-09-07T11:04:27Z</time>
      </trkpt>
      <trkpt lat="43.65151" lon="3.81149">
        <ele>122.4</ele>
        <time>2017-09-07T11:04:29Z</time>
      </trkpt>
      <trkpt lat="43.65148" lon="3.81159">
        <ele>123.1</ele>
        <time>2017-09-07T11:04:31Z</time>
      </trkpt>
      <trkpt lat="43.65143" lon="3.81171">
        <ele>123.3</ele>
        <time>2017-09-07T11:04:33Z</time>
      </trkpt>
      <trkpt lat="43.65137" lon="3.81186">
        <ele>123.9</ele>
        <time>2017-09-07T11:04:35Z</time>
      </trkpt>
      <trkpt lat="43.65131" lon="3.81203">
        <ele>124.3</ele>
        <time>2017-09-07T11:04:37Z</time>
      </trkpt>
      <trkpt lat="43.6513" lon="3.81213">
        <ele>124.3</ele>
        <time>2017-09-07T11:04:39Z</time>
      </trkpt>
      <trkpt lat="43.65123" lon="3.81227">
        <ele>124.1</ele>
        <time>2017-09-07T11:04:42Z</time>
      </trkpt>
      <trkpt lat="43.65118" lon="3.81242">
        <ele>123.9</ele>
        <time>2017-09-07T11:04:44Z</time>
      </trkpt>
      <trkpt lat="43.65113" lon="3.81255">
        <ele>124.1</ele>
        <time>2017-09-07T11:04:46Z</time>
      </trkpt>
      <trkpt lat="43.65107" lon="3.81267">
        <ele>123.8</ele>
        <time>2017-09-07T11:04:48Z</time>
      </trkpt>
      <trkpt lat="43.65101" lon="3.81277">
        <ele>123.6</ele>
        <time>2017-09-07T11:04:51Z</time>
      </trkpt>
      <trkpt lat="43.65093" lon="3.81286">
        <ele>121.4</ele>
        <time>2017-09-07T11:04:55Z</time>
      </trkpt>
      <trkpt lat="43.65088" lon="3.81295">
        <ele>120.7</ele>
        <time>2017-09-07T11:04:56Z</time>
      </trkpt>
      <trkpt lat="43.65083" lon="3.81307">
        <ele>119.3</ele>
        <time>2017-09-07T11:04:58Z</time>
      </trkpt>
      <trkpt lat="43.65076" lon="3.81313">
        <ele>118.4</ele>
        <time>2017-09-07T11:04:59Z</time>
      </trkpt>
      <trkpt lat="43.6507" lon="3.8132">
        <ele>117.4</ele>
        <time>2017-09-07T11:05:00Z</time>
      </trkpt>
      <trkpt lat="43.65066" lon="3.81329">
        <ele>116.8</ele>
        <time>2017-09-07T11:05:01Z</time>
      </trkpt>
      <trkpt lat="43.65058" lon="3.81344">
        <ele>116.3</ele>
        <time>2017-09-07T11:05:03Z</time>
      </trkpt>
      <trkpt lat="43.65052" lon="3.81359">
        <ele>115.4</ele>
        <time>2017-09-07T11:05:05Z</time>
      </trkpt>
      <trkpt lat="43.65047" lon="3.81372">
        <ele>114.3</ele>
        <time>2017-09-07T11:05:07Z</time>
      </trkpt>
      <trkpt lat="43.65042" lon="3.81383">
        <ele>113.2</ele>
        <time>2017-09-07T11:05:09Z</time>
      </trkpt>
      <trkpt lat="43.65035" lon="3.81393">
        <ele>112.8</ele>
        <time>2017-09-07T11:05:11Z</time>
      </trkpt>
      <trkpt lat="43.65031" lon="3.81402">
        <ele>112.4</ele>
        <time>2017-09-07T11:05:14Z</time>
      </trkpt>
      <trkpt lat="43.65028" lon="3.81414">
        <ele>112.3</ele>
        <time>2017-09-07T11:05:16Z</time>
      </trkpt>
      <trkpt lat="43.65024" lon="3.81427">
        <ele>112.4</ele>
        <time>2017-09-07T11:05:19Z</time>
      </trkpt>
      <trkpt lat="43.65021" lon="3.81439">
        <ele>112.4</ele>
        <time>2017-09-07T11:05:22Z</time>
      </trkpt>
      <trkpt lat="43.65015" lon="3.8145">
        <ele>112.6</ele>
        <time>2017-09-07T11:05:25Z</time>
      </trkpt>
      <trkpt lat="43.6501" lon="3.81457">
        <ele>113.2</ele>
        <time>2017-09-07T11:05:27Z</time>
      </trkpt>
      <trkpt lat="43.65004" lon="3.81466">
        <ele>113.5</ele>
        <time>2017-09-07T11:05:30Z</time>
      </trkpt>
      <trkpt lat="43.64997" lon="3.81476">
        <ele>113.8</ele>
        <time>2017-09-07T11:05:33Z</time>
      </trkpt>
      <trkpt lat="43.64996" lon="3.81489">
        <ele>114.1</ele>
        <time>2017-09-07T11:05:37Z</time>
      </trkpt>
      <trkpt lat="43.64994" lon="3.81501">
        <ele>114.4</ele>
        <time>2017-09-07T11:05:40Z</time>
      </trkpt>
      <trkpt lat="43.6499" lon="3.81514">
        <ele>115.5</ele>
        <time>2017-09-07T11:05:43Z</time>
      </trkpt>
      <trkpt lat="43.64987" lon="3.81525">
        <ele>116.4</ele>
        <time>2017-09-07T11:05:45Z</time>
      </trkpt>
      <trkpt lat="43.64985" lon="3.81538">
        <ele>116.9</ele>
        <time>2017-09-07T11:05:47Z</time>
      </trkpt>
      <trkpt lat="43.64979" lon="3.81549">
        <ele>116.9</ele>
        <time>2017-09-07T11:05:49Z</time>
      </trkpt>
      <trkpt lat="43.64973" lon="3.81562">
        <ele>116.8</ele>
        <time>2017-09-07T11:05:51Z</time>
      </trkpt>
      <trkpt lat="43.64968" lon="3.81574">
        <ele>116.9</ele>
        <time>2017-09-07T11:05:53Z</time>
      </trkpt>
      <trkpt lat="43.64963" lon="3.81587">
        <ele>117</ele>
        <time>2017-09-07T11:05:55Z</time>
      </trkpt>
      <trkpt lat="43.64958" lon="3.81602">
        <ele>117</ele>
        <time>2017-09-07T11:05:57Z</time>
      </trkpt>
      <trkpt lat="43.64951" lon="3.81617">
        <ele>117.1</ele>
        <time>2017-09-07T11:05:59Z</time>
      </trkpt>
      <trkpt lat="43.64946" lon="3.81631">
        <ele>117</ele>
        <time>2017-09-07T11:06:01Z</time>
      </trkpt>
      <trkpt lat="43.6494" lon="3.81645">
        <ele>117.1</ele>
        <time>2017-09-07T11:06:03Z</time>
      </trkpt>
      <trkpt lat="43.64935" lon="3.81658">
        <ele>117.1</ele>
        <time>2017-09-07T11:06:05Z</time>
      </trkpt>
      <trkpt lat="43.64929" lon="3.81672">
        <ele>116.8</ele>
        <time>2017-09-07T11:06:07Z</time>
      </trkpt>
      <trkpt lat="43.64923" lon="3.81683">
        <ele>116.5</ele>
        <time>2017-09-07T11:06:09Z</time>
      </trkpt>
      <trkpt lat="43.64918" lon="3.81695">
        <ele>116.5</ele>
        <time>2017-09-07T11:06:11Z</time>
      </trkpt>
      <trkpt lat="43.64911" lon="3.81707">
        <ele>116.8</ele>
        <time>2017-09-07T11:06:13Z</time>
      </trkpt>
      <trkpt lat="43.64907" lon="3.81717">
        <ele>116.8</ele>
        <time>2017-09-07T11:06:15Z</time>
      </trkpt>
      <trkpt lat="43.64902" lon="3.81726">
        <ele>117.3</ele>
        <time>2017-09-07T11:06:17Z</time>
      </trkpt>
      <trkpt lat="43.64897" lon="3.81735">
        <ele>117.9</ele>
        <time>2017-09-07T11:06:19Z</time>
      </trkpt>
      <trkpt lat="43.6489" lon="3.81743">
        <ele>118</ele>
        <time>2017-09-07T11:06:21Z</time>
      </trkpt>
      <trkpt lat="43.64881" lon="3.81751">
        <ele>118</ele>
        <time>2017-09-07T11:06:23Z</time>
      </trkpt>
      <trkpt lat="43.64873" lon="3.81762">
        <ele>118.3</ele>
        <time>2017-09-07T11:06:25Z</time>
      </trkpt>
      <trkpt lat="43.64866" lon="3.81772">
        <ele>118.5</ele>
        <time>2017-09-07T11:06:27Z</time>
      </trkpt>
      <trkpt lat="43.64861" lon="3.81782">
        <ele>119.2</ele>
        <time>2017-09-07T11:06:29Z</time>
      </trkpt>
      <trkpt lat="43.64857" lon="3.81791">
        <ele>120.4</ele>
        <time>2017-09-07T11:06:31Z</time>
      </trkpt>
      <trkpt lat="43.64852" lon="3.818">
        <ele>120.5</ele>
        <time>2017-09-07T11:06:34Z</time>
      </trkpt>
      <trkpt lat="43.64845" lon="3.81809">
        <ele>121.5</ele>
        <time>2017-09-07T11:06:35Z</time>
      </trkpt>
      <trkpt lat="43.64838" lon="3.81817">
        <ele>122.1</ele>
        <time>2017-09-07T11:06:37Z</time>
      </trkpt>
      <trkpt lat="43.64831" lon="3.81825">
        <ele>122.4</ele>
        <time>2017-09-07T11:06:39Z</time>
      </trkpt>
      <trkpt lat="43.64824" lon="3.81834">
        <ele>122.8</ele>
        <time>2017-09-07T11:06:41Z</time>
      </trkpt>
      <trkpt lat="43.6482" lon="3.81844">
        <ele>123.2</ele>
        <time>2017-09-07T11:06:43Z</time>
      </trkpt>
      <trkpt lat="43.64825" lon="3.81853">
        <ele>123.4</ele>
        <time>2017-09-07T11:06:47Z</time>
      </trkpt>
      <trkpt lat="43.64831" lon="3.81863">
        <ele>123.7</ele>
        <time>2017-09-07T11:06:50Z</time>
      </trkpt>
      <trkpt lat="43.64837" lon="3.8187">
        <ele>123.9</ele>
        <time>2017-09-07T11:06:53Z</time>
      </trkpt>
      <trkpt lat="43.6484" lon="3.8188">
        <ele>124.2</ele>
        <time>2017-09-07T11:06:56Z</time>
      </trkpt>
      <trkpt lat="43.64841" lon="3.81893">
        <ele>124.5</ele>
        <time>2017-09-07T11:06:59Z</time>
      </trkpt>
      <trkpt lat="43.64842" lon="3.81905">
        <ele>124.6</ele>
        <time>2017-09-07T11:07:01Z</time>
      </trkpt>
      <trkpt lat="43.64844" lon="3.81915">
        <ele>124.8</ele>
        <time>2017-09-07T11:07:03Z</time>
      </trkpt>
      <trkpt lat="43.64847" lon="3.81926">
        <ele>125.4</ele>
        <time>2017-09-07T11:07:05Z</time>
      </trkpt>
      <trkpt lat="43.64852" lon="3.81936">
        <ele>125.2</ele>
        <time>2017-09-07T11:07:07Z</time>
      </trkpt>
      <trkpt lat="43.64855" lon="3.81944">
        <ele>125.2</ele>
        <time>2017-09-07T11:07:09Z</time>
      </trkpt>
      <trkpt lat="43.64861" lon="3.81951">
        <ele>125.2</ele>
        <time>2017-09-07T11:07:11Z</time>
      </trkpt>
      <trkpt lat="43.64869" lon="3.8196">
        <ele>125</ele>
        <time>2017-09-07T11:07:14Z</time>
      </trkpt>
      <trkpt lat="43.64875" lon="3.81967">
        <ele>124.9</ele>
        <time>2017-09-07T11:07:16Z</time>
      </trkpt>
      <trkpt lat="43.64883" lon="3.81976">
        <ele>124.4</ele>
        <time>2017-09-07T11:07:19Z</time>
      </trkpt>
      <trkpt lat="43.64893" lon="3.8198">
        <ele>123.5</ele>
        <time>2017-09-07T11:07:21Z</time>
      </trkpt>
      <trkpt lat="43.649" lon="3.81977">
        <ele>123.5</ele>
        <time>2017-09-07T11:07:23Z</time>
      </trkpt>
      <trkpt lat="43.64909" lon="3.81977">
        <ele>123.4</ele>
        <time>2017-09-07T11:07:26Z</time>
      </trkpt>
      <trkpt lat="43.64914" lon="3.81986">
        <ele>122.8</ele>
        <time>2017-09-07T11:07:28Z</time>
      </trkpt>
      <trkpt lat="43.64918" lon="3.81995">
        <ele>122.3</ele>
        <time>2017-09-07T11:07:30Z</time>
      </trkpt>
      <trkpt lat="43.64922" lon="3.82005">
        <ele>122.2</ele>
        <time>2017-09-07T11:07:32Z</time>
      </trkpt>
      <trkpt lat="43.64927" lon="3.82017">
        <ele>122.1</ele>
        <time>2017-09-07T11:07:35Z</time>
      </trkpt>
      <trkpt lat="43.64932" lon="3.82029">
        <ele>122</ele>
        <time>2017-09-07T11:07:38Z</time>
      </trkpt>
      <trkpt lat="43.64937" lon="3.82039">
        <ele>122</ele>
        <time>2017-09-07T11:07:41Z</time>
      </trkpt>
      <trkpt lat="43.64944" lon="3.82051">
        <ele>122</ele>
        <time>2017-09-07T11:07:44Z</time>
      </trkpt>
      <trkpt lat="43.64948" lon="3.8206">
        <ele>121.9</ele>
        <time>2017-09-07T11:07:46Z</time>
      </trkpt>
      <trkpt lat="43.64952" lon="3.82068">
        <ele>121.9</ele>
        <time>2017-09-07T11:07:48Z</time>
      </trkpt>
      <trkpt lat="43.64957" lon="3.8208">
        <ele>122</ele>
        <time>2017-09-07T11:07:51Z</time>
      </trkpt>
      <trkpt lat="43.64961" lon="3.82092">
        <ele>122.1</ele>
        <time>2017-09-07T11:07:54Z</time>
      </trkpt>
      <trkpt lat="43.64965" lon="3.82103">
        <ele>122.3</ele>
        <time>2017-09-07T11:07:57Z</time>
      </trkpt>
      <trkpt lat="43.6497" lon="3.82112">
        <ele>122.4</ele>
        <time>2017-09-07T11:08:00Z</time>
      </trkpt>
      <trkpt lat="43.64978" lon="3.82122">
        <ele>122.7</ele>
        <time>2017-09-07T11:08:03Z</time>
      </trkpt>
      <trkpt lat="43.64985" lon="3.82131">
        <ele>123</ele>
        <time>2017-09-07T11:08:06Z</time>
      </trkpt>
      <trkpt lat="43.64991" lon="3.82137">
        <ele>123.5</ele>
        <time>2017-09-07T11:08:09Z</time>
      </trkpt>
      <trkpt lat="43.64988" lon="3.8215">
        <ele>123.7</ele>
        <time>2017-09-07T11:08:12Z</time>
      </trkpt>
      <trkpt lat="43.64983" lon="3.82157">
        <ele>124</ele>
        <time>2017-09-07T11:08:15Z</time>
      </trkpt>
      <trkpt lat="43.64978" lon="3.82166">
        <ele>124.3</ele>
        <time>2017-09-07T11:08:18Z</time>
      </trkpt>
      <trkpt lat="43.6497" lon="3.82172">
        <ele>124.7</ele>
        <time>2017-09-07T11:08:21Z</time>
      </trkpt>
      <trkpt lat="43.64961" lon="3.8218">
        <ele>127.1</ele>
        <time>2017-09-07T11:08:24Z</time>
      </trkpt>
      <trkpt lat="43.64953" lon="3.82186">
        <ele>127.4</ele>
        <time>2017-09-07T11:08:27Z</time>
      </trkpt>
      <trkpt lat="43.64944" lon="3.82193">
        <ele>127.8</ele>
        <time>2017-09-07T11:08:30Z</time>
      </trkpt>
      <trkpt lat="43.64936" lon="3.82198">
        <ele>128.1</ele>
        <time>2017-09-07T11:08:33Z</time>
      </trkpt>
      <trkpt lat="43.64929" lon="3.82203">
        <ele>128.5</ele>
        <time>2017-09-07T11:08:37Z</time>
      </trkpt>
      <trkpt lat="43.64921" lon="3.82209">
        <ele>130</ele>
        <time>2017-09-07T11:08:39Z</time>
      </trkpt>
      <trkpt lat="43.64912" lon="3.82215">
        <ele>130.3</ele>
        <time>2017-09-07T11:08:42Z</time>
      </trkpt>
      <trkpt lat="43.64903" lon="3.82219">
        <ele>131.8</ele>
        <time>2017-09-07T11:08:45Z</time>
      </trkpt>
      <trkpt lat="43.64893" lon="3.82225">
        <ele>132.1</ele>
        <time>2017-09-07T11:08:48Z</time>
      </trkpt>
      <trkpt lat="43.64887" lon="3.82232">
        <ele>132.5</ele>
        <time>2017-09-07T11:08:53Z</time>
      </trkpt>
      <trkpt lat="43.64881" lon="3.82238">
        <ele>132.6</ele>
        <time>2017-09-07T11:08:56Z</time>
      </trkpt>
      <trkpt lat="43.64871" lon="3.82242">
        <ele>133.7</ele>
        <time>2017-09-07T11:08:59Z</time>
      </trkpt>
      <trkpt lat="43.64862" lon="3.82251">
        <ele>134.6</ele>
        <time>2017-09-07T11:09:01Z</time>
      </trkpt>
      <trkpt lat="43.64853" lon="3.82261">
        <ele>134.7</ele>
        <time>2017-09-07T11:09:03Z</time>
      </trkpt>
      <trkpt lat="43.64844" lon="3.82268">
        <ele>134.4</ele>
        <time>2017-09-07T11:09:05Z</time>
      </trkpt>
      <trkpt lat="43.64836" lon="3.82276">
        <ele>134.4</ele>
        <time>2017-09-07T11:09:07Z</time>
      </trkpt>
      <trkpt lat="43.64829" lon="3.82281">
        <ele>134.3</ele>
        <time>2017-09-07T11:09:09Z</time>
      </trkpt>
      <trkpt lat="43.64815" lon="3.82292">
        <ele>133.9</ele>
        <time>2017-09-07T11:09:14Z</time>
      </trkpt>
      <trkpt lat="43.64806" lon="3.82299">
        <ele>133.8</ele>
        <time>2017-09-07T11:09:16Z</time>
      </trkpt>
      <trkpt lat="43.64799" lon="3.82305">
        <ele>133.7</ele>
        <time>2017-09-07T11:09:18Z</time>
      </trkpt>
      <trkpt lat="43.64791" lon="3.82309">
        <ele>133.7</ele>
        <time>2017-09-07T11:09:20Z</time>
      </trkpt>
      <trkpt lat="43.64782" lon="3.82313">
        <ele>133.8</ele>
        <time>2017-09-07T11:09:23Z</time>
      </trkpt>
      <trkpt lat="43.64775" lon="3.82316">
        <ele>133.8</ele>
        <time>2017-09-07T11:09:25Z</time>
      </trkpt>
      <trkpt lat="43.64768" lon="3.82318">
        <ele>133.9</ele>
        <time>2017-09-07T11:09:27Z</time>
      </trkpt>
      <trkpt lat="43.6476" lon="3.82321">
        <ele>134.1</ele>
        <time>2017-09-07T11:09:29Z</time>
      </trkpt>
      <trkpt lat="43.64751" lon="3.82325">
        <ele>135</ele>
        <time>2017-09-07T11:09:32Z</time>
      </trkpt>
      <trkpt lat="43.64743" lon="3.82326">
        <ele>135.2</ele>
        <time>2017-09-07T11:09:33Z</time>
      </trkpt>
      <trkpt lat="43.64734" lon="3.82326">
        <ele>135.4</ele>
        <time>2017-09-07T11:09:35Z</time>
      </trkpt>
      <trkpt lat="43.64725" lon="3.82327">
        <ele>136</ele>
        <time>2017-09-07T11:09:37Z</time>
      </trkpt>
      <trkpt lat="43.64717" lon="3.82328">
        <ele>136.4</ele>
        <time>2017-09-07T11:09:39Z</time>
      </trkpt>
      <trkpt lat="43.64705" lon="3.82327">
        <ele>137.1</ele>
        <time>2017-09-07T11:09:43Z</time>
      </trkpt>
      <trkpt lat="43.64695" lon="3.82323">
        <ele>137.1</ele>
        <time>2017-09-07T11:09:44Z</time>
      </trkpt>
      <trkpt lat="43.64684" lon="3.82315">
        <ele>137.2</ele>
        <time>2017-09-07T11:09:46Z</time>
      </trkpt>
      <trkpt lat="43.64675" lon="3.8231">
        <ele>137.1</ele>
        <time>2017-09-07T11:09:48Z</time>
      </trkpt>
      <trkpt lat="43.64665" lon="3.82314">
        <ele>137</ele>
        <time>2017-09-07T11:09:51Z</time>
      </trkpt>
      <trkpt lat="43.64657" lon="3.82317">
        <ele>136.8</ele>
        <time>2017-09-07T11:09:53Z</time>
      </trkpt>
      <trkpt lat="43.64651" lon="3.82321">
        <ele>136.8</ele>
        <time>2017-09-07T11:09:55Z</time>
      </trkpt>
      <trkpt lat="43.64641" lon="3.82323">
        <ele>137</ele>
        <time>2017-09-07T11:09:59Z</time>
      </trkpt>
      <trkpt lat="43.64634" lon="3.82327">
        <ele>137.7</ele>
        <time>2017-09-07T11:10:04Z</time>
      </trkpt>
      <trkpt lat="43.64625" lon="3.82327">
        <ele>138.2</ele>
        <time>2017-09-07T11:10:08Z</time>
      </trkpt>
      <trkpt lat="43.64616" lon="3.82328">
        <ele>138.7</ele>
        <time>2017-09-07T11:10:11Z</time>
      </trkpt>
      <trkpt lat="43.64607" lon="3.82328">
        <ele>139</ele>
        <time>2017-09-07T11:10:14Z</time>
      </trkpt>
      <trkpt lat="43.646" lon="3.82327">
        <ele>139.4</ele>
        <time>2017-09-07T11:10:17Z</time>
      </trkpt>
      <trkpt lat="43.64591" lon="3.82325">
        <ele>140</ele>
        <time>2017-09-07T11:10:21Z</time>
      </trkpt>
      <trkpt lat="43.64584" lon="3.82327">
        <ele>140.4</ele>
        <time>2017-09-07T11:10:24Z</time>
      </trkpt>
      <trkpt lat="43.64578" lon="3.82337">
        <ele>141</ele>
        <time>2017-09-07T11:10:28Z</time>
      </trkpt>
      <trkpt lat="43.64575" lon="3.82347">
        <ele>141.4</ele>
        <time>2017-09-07T11:10:31Z</time>
      </trkpt>
      <trkpt lat="43.6457" lon="3.82359">
        <ele>141.8</ele>
        <time>2017-09-07T11:10:34Z</time>
      </trkpt>
      <trkpt lat="43.64565" lon="3.82371">
        <ele>144</ele>
        <time>2017-09-07T11:10:37Z</time>
      </trkpt>
      <trkpt lat="43.64562" lon="3.82385">
        <ele>145</ele>
        <time>2017-09-07T11:10:40Z</time>
      </trkpt>
      <trkpt lat="43.64561" lon="3.82394">
        <ele>145.2</ele>
        <time>2017-09-07T11:10:42Z</time>
      </trkpt>
      <trkpt lat="43.64561" lon="3.82406">
        <ele>146.1</ele>
        <time>2017-09-07T11:10:45Z</time>
      </trkpt>
      <trkpt lat="43.64563" lon="3.82419">
        <ele>146.3</ele>
        <time>2017-09-07T11:10:47Z</time>
      </trkpt>
      <trkpt lat="43.6456" lon="3.82433">
        <ele>146.4</ele>
        <time>2017-09-07T11:10:50Z</time>
      </trkpt>
      <trkpt lat="43.64562" lon="3.82442">
        <ele>146.6</ele>
        <time>2017-09-07T11:10:53Z</time>
      </trkpt>
      <trkpt lat="43.6457" lon="3.82452">
        <ele>147.2</ele>
        <time>2017-09-07T11:10:57Z</time>
      </trkpt>
      <trkpt lat="43.64575" lon="3.82461">
        <ele>147.4</ele>
        <time>2017-09-07T11:10:58Z</time>
      </trkpt>
      <trkpt lat="43.64581" lon="3.82472">
        <ele>147.6</ele>
        <time>2017-09-07T11:11:01Z</time>
      </trkpt>
      <trkpt lat="43.64589" lon="3.82479">
        <ele>147.7</ele>
        <time>2017-09-07T11:11:04Z</time>
      </trkpt>
      <trkpt lat="43.64596" lon="3.82483">
        <ele>147.9</ele>
        <time>2017-09-07T11:11:07Z</time>
      </trkpt>
      <trkpt lat="43.64603" lon="3.82488">
        <ele>148.8</ele>
        <time>2017-09-07T11:11:09Z</time>
      </trkpt>
      <trkpt lat="43.6461" lon="3.82497">
        <ele>148.9</ele>
        <time>2017-09-07T11:11:12Z</time>
      </trkpt>
      <trkpt lat="43.64611" lon="3.82509">
        <ele>149.1</ele>
        <time>2017-09-07T11:11:16Z</time>
      </trkpt>
      <trkpt lat="43.64611" lon="3.8252">
        <ele>149.7</ele>
        <time>2017-09-07T11:11:18Z</time>
      </trkpt>
      <trkpt lat="43.64614" lon="3.82531">
        <ele>149.8</ele>
        <time>2017-09-07T11:11:22Z</time>
      </trkpt>
      <trkpt lat="43.64616" lon="3.82546">
        <ele>149.8</ele>
        <time>2017-09-07T11:11:25Z</time>
      </trkpt>
      <trkpt lat="43.64616" lon="3.82558">
        <ele>149.8</ele>
        <time>2017-09-07T11:11:27Z</time>
      </trkpt>
      <trkpt lat="43.64616" lon="3.82568">
        <ele>149.8</ele>
        <time>2017-09-07T11:11:29Z</time>
      </trkpt>
      <trkpt lat="43.64616" lon="3.82581">
        <ele>150</ele>
        <time>2017-09-07T11:11:33Z</time>
      </trkpt>
      <trkpt lat="43.64614" lon="3.82594">
        <ele>150.2</ele>
        <time>2017-09-07T11:11:37Z</time>
      </trkpt>
      <trkpt lat="43.64613" lon="3.82605">
        <ele>150.3</ele>
        <time>2017-09-07T11:11:41Z</time>
      </trkpt>
      <trkpt lat="43.64611" lon="3.82616">
        <ele>150.4</ele>
        <time>2017-09-07T11:11:44Z</time>
      </trkpt>
      <trkpt lat="43.64609" lon="3.82628">
        <ele>150.6</ele>
        <time>2017-09-07T11:11:47Z</time>
      </trkpt>
      <trkpt lat="43.64608" lon="3.82639">
        <ele>150.7</ele>
        <time>2017-09-07T11:11:50Z</time>
      </trkpt>
      <trkpt lat="43.64606" lon="3.8265">
        <ele>150.8</ele>
        <time>2017-09-07T11:11:53Z</time>
      </trkpt>
      <trkpt lat="43.64601" lon="3.82658">
        <ele>151</ele>
        <time>2017-09-07T11:11:56Z</time>
      </trkpt>
      <trkpt lat="43.64594" lon="3.82663">
        <ele>151.3</ele>
        <time>2017-09-07T11:11:58Z</time>
      </trkpt>
      <trkpt lat="43.64588" lon="3.82669">
        <ele>151.5</ele>
        <time>2017-09-07T11:12:00Z</time>
      </trkpt>
      <trkpt lat="43.6458" lon="3.82677">
        <ele>152.6</ele>
        <time>2017-09-07T11:12:03Z</time>
      </trkpt>
      <trkpt lat="43.64573" lon="3.8269">
        <ele>153.8</ele>
        <time>2017-09-07T11:12:06Z</time>
      </trkpt>
      <trkpt lat="43.64564" lon="3.82698">
        <ele>154.8</ele>
        <time>2017-09-07T11:12:09Z</time>
      </trkpt>
      <trkpt lat="43.64555" lon="3.82706">
        <ele>155.8</ele>
        <time>2017-09-07T11:12:11Z</time>
      </trkpt>
      <trkpt lat="43.64543" lon="3.82716">
        <ele>156.6</ele>
        <time>2017-09-07T11:12:13Z</time>
      </trkpt>
      <trkpt lat="43.64532" lon="3.82724">
        <ele>157</ele>
        <time>2017-09-07T11:12:15Z</time>
      </trkpt>
      <trkpt lat="43.64524" lon="3.82728">
        <ele>157</ele>
        <time>2017-09-07T11:12:16Z</time>
      </trkpt>
      <trkpt lat="43.64516" lon="3.8273">
        <ele>157</ele>
        <time>2017-09-07T11:12:17Z</time>
      </trkpt>
      <trkpt lat="43.64507" lon="3.82729">
        <ele>156.7</ele>
        <time>2017-09-07T11:12:18Z</time>
      </trkpt>
      <trkpt lat="43.645" lon="3.82728">
        <ele>156.5</ele>
        <time>2017-09-07T11:12:19Z</time>
      </trkpt>
      <trkpt lat="43.64491" lon="3.82725">
        <ele>156.6</ele>
        <time>2017-09-07T11:12:20Z</time>
      </trkpt>
      <trkpt lat="43.64481" lon="3.82725">
        <ele>156.4</ele>
        <time>2017-09-07T11:12:21Z</time>
      </trkpt>
      <trkpt lat="43.64473" lon="3.8273">
        <ele>155.9</ele>
        <time>2017-09-07T11:12:22Z</time>
      </trkpt>
      <trkpt lat="43.6446" lon="3.82729">
        <ele>156.1</ele>
        <time>2017-09-07T11:12:24Z</time>
      </trkpt>
      <trkpt lat="43.64445" lon="3.8273">
        <ele>156</ele>
        <time>2017-09-07T11:12:26Z</time>
      </trkpt>
      <trkpt lat="43.64437" lon="3.8273">
        <ele>155.7</ele>
        <time>2017-09-07T11:12:27Z</time>
      </trkpt>
      <trkpt lat="43.6443" lon="3.8273">
        <ele>155.5</ele>
        <time>2017-09-07T11:12:28Z</time>
      </trkpt>
      <trkpt lat="43.64417" lon="3.82728">
        <ele>154.9</ele>
        <time>2017-09-07T11:12:30Z</time>
      </trkpt>
      <trkpt lat="43.64406" lon="3.82729">
        <ele>154.7</ele>
        <time>2017-09-07T11:12:32Z</time>
      </trkpt>
      <trkpt lat="43.64395" lon="3.82727">
        <ele>154.9</ele>
        <time>2017-09-07T11:12:34Z</time>
      </trkpt>
      <trkpt lat="43.64383" lon="3.82729">
        <ele>155.1</ele>
        <time>2017-09-07T11:12:36Z</time>
      </trkpt>
      <trkpt lat="43.64376" lon="3.8273">
        <ele>154.9</ele>
        <time>2017-09-07T11:12:37Z</time>
      </trkpt>
      <trkpt lat="43.64368" lon="3.82724">
        <ele>154.2</ele>
        <time>2017-09-07T11:12:38Z</time>
      </trkpt>
      <trkpt lat="43.64359" lon="3.82718">
        <ele>153.5</ele>
        <time>2017-09-07T11:12:39Z</time>
      </trkpt>
      <trkpt lat="43.64351" lon="3.82712">
        <ele>153.4</ele>
        <time>2017-09-07T11:12:40Z</time>
      </trkpt>
      <trkpt lat="43.64343" lon="3.8271">
        <ele>153</ele>
        <time>2017-09-07T11:12:43Z</time>
      </trkpt>
      <trkpt lat="43.64332" lon="3.8271">
        <ele>151.2</ele>
        <time>2017-09-07T11:12:46Z</time>
      </trkpt>
      <trkpt lat="43.64323" lon="3.82705">
        <ele>149.1</ele>
        <time>2017-09-07T11:12:48Z</time>
      </trkpt>
      <trkpt lat="43.64313" lon="3.82698">
        <ele>147.3</ele>
        <time>2017-09-07T11:12:50Z</time>
      </trkpt>
      <trkpt lat="43.643" lon="3.82686">
        <ele>146.2</ele>
        <time>2017-09-07T11:12:52Z</time>
      </trkpt>
      <trkpt lat="43.64294" lon="3.82682">
        <ele>146</ele>
        <time>2017-09-07T11:12:53Z</time>
      </trkpt>
      <trkpt lat="43.64287" lon="3.82677">
        <ele>145.7</ele>
        <time>2017-09-07T11:12:54Z</time>
      </trkpt>
      <trkpt lat="43.64278" lon="3.82676">
        <ele>145.2</ele>
        <time>2017-09-07T11:12:55Z</time>
      </trkpt>
      <trkpt lat="43.6427" lon="3.82676">
        <ele>144.7</ele>
        <time>2017-09-07T11:12:56Z</time>
      </trkpt>
      <trkpt lat="43.64261" lon="3.82674">
        <ele>144.3</ele>
        <time>2017-09-07T11:12:57Z</time>
      </trkpt>
      <trkpt lat="43.64251" lon="3.82671">
        <ele>143.9</ele>
        <time>2017-09-07T11:12:58Z</time>
      </trkpt>
      <trkpt lat="43.64241" lon="3.82668">
        <ele>143.4</ele>
        <time>2017-09-07T11:12:59Z</time>
      </trkpt>
      <trkpt lat="43.64232" lon="3.82664">
        <ele>143</ele>
        <time>2017-09-07T11:13:00Z</time>
      </trkpt>
      <trkpt lat="43.64223" lon="3.82661">
        <ele>142.5</ele>
        <time>2017-09-07T11:13:01Z</time>
      </trkpt>
      <trkpt lat="43.64215" lon="3.82659">
        <ele>142</ele>
        <time>2017-09-07T11:13:02Z</time>
      </trkpt>
      <trkpt lat="43.64208" lon="3.82658">
        <ele>141.6</ele>
        <time>2017-09-07T11:13:03Z</time>
      </trkpt>
      <trkpt lat="43.64198" lon="3.82655">
        <ele>140.7</ele>
        <time>2017-09-07T11:13:05Z</time>
      </trkpt>
      <trkpt lat="43.6419" lon="3.82649">
        <ele>140.6</ele>
        <time>2017-09-07T11:13:08Z</time>
      </trkpt>
      <trkpt lat="43.64181" lon="3.82651">
        <ele>140.6</ele>
        <time>2017-09-07T11:13:14Z</time>
      </trkpt>
      <trkpt lat="43.64171" lon="3.8265">
        <ele>140.6</ele>
        <time>2017-09-07T11:13:17Z</time>
      </trkpt>
      <trkpt lat="43.64164" lon="3.82654">
        <ele>140.2</ele>
        <time>2017-09-07T11:13:19Z</time>
      </trkpt>
      <trkpt lat="43.64157" lon="3.82666">
        <ele>139.9</ele>
        <time>2017-09-07T11:13:22Z</time>
      </trkpt>
      <trkpt lat="43.64148" lon="3.82676">
        <ele>139.4</ele>
        <time>2017-09-07T11:13:23Z</time>
      </trkpt>
      <trkpt lat="43.64138" lon="3.82689">
        <ele>138.9</ele>
        <time>2017-09-07T11:13:25Z</time>
      </trkpt>
      <trkpt lat="43.64127" lon="3.827">
        <ele>138.6</ele>
        <time>2017-09-07T11:13:27Z</time>
      </trkpt>
      <trkpt lat="43.64121" lon="3.82706">
        <ele>138.5</ele>
        <time>2017-09-07T11:13:28Z</time>
      </trkpt>
      <trkpt lat="43.64115" lon="3.82713">
        <ele>138.4</ele>
        <time>2017-09-07T11:13:29Z</time>
      </trkpt>
      <trkpt lat="43.64104" lon="3.82725">
        <ele>138.4</ele>
        <time>2017-09-07T11:13:31Z</time>
      </trkpt>
      <trkpt lat="43.64098" lon="3.82731">
        <ele>138.3</ele>
        <time>2017-09-07T11:13:32Z</time>
      </trkpt>
      <trkpt lat="43.64092" lon="3.82736">
        <ele>138.3</ele>
        <time>2017-09-07T11:13:33Z</time>
      </trkpt>
      <trkpt lat="43.64086" lon="3.82742">
        <ele>138.2</ele>
        <time>2017-09-07T11:13:34Z</time>
      </trkpt>
      <trkpt lat="43.64079" lon="3.82748">
        <ele>137.9</ele>
        <time>2017-09-07T11:13:35Z</time>
      </trkpt>
      <trkpt lat="43.64071" lon="3.82754">
        <ele>137.6</ele>
        <time>2017-09-07T11:13:36Z</time>
      </trkpt>
      <trkpt lat="43.64065" lon="3.82759">
        <ele>137.4</ele>
        <time>2017-09-07T11:13:37Z</time>
      </trkpt>
      <trkpt lat="43.64059" lon="3.82765">
        <ele>137.3</ele>
        <time>2017-09-07T11:13:38Z</time>
      </trkpt>
      <trkpt lat="43.64053" lon="3.8277">
        <ele>137.1</ele>
        <time>2017-09-07T11:13:39Z</time>
      </trkpt>
      <trkpt lat="43.64046" lon="3.82775">
        <ele>136.9</ele>
        <time>2017-09-07T11:13:40Z</time>
      </trkpt>
      <trkpt lat="43.64039" lon="3.82779">
        <ele>136.7</ele>
        <time>2017-09-07T11:13:41Z</time>
      </trkpt>
      <trkpt lat="43.64026" lon="3.82785">
        <ele>135.9</ele>
        <time>2017-09-07T11:13:43Z</time>
      </trkpt>
      <trkpt lat="43.64018" lon="3.82791">
        <ele>135.4</ele>
        <time>2017-09-07T11:13:44Z</time>
      </trkpt>
      <trkpt lat="43.64011" lon="3.82793">
        <ele>135</ele>
        <time>2017-09-07T11:13:45Z</time>
      </trkpt>
      <trkpt lat="43.63997" lon="3.82799">
        <ele>134.4</ele>
        <time>2017-09-07T11:13:47Z</time>
      </trkpt>
      <trkpt lat="43.63989" lon="3.82799">
        <ele>134.2</ele>
        <time>2017-09-07T11:13:48Z</time>
      </trkpt>
      <trkpt lat="43.63976" lon="3.82801">
        <ele>133.9</ele>
        <time>2017-09-07T11:13:50Z</time>
      </trkpt>
      <trkpt lat="43.63964" lon="3.82807">
        <ele>132.8</ele>
        <time>2017-09-07T11:13:52Z</time>
      </trkpt>
      <trkpt lat="43.63952" lon="3.82816">
        <ele>131.5</ele>
        <time>2017-09-07T11:13:54Z</time>
      </trkpt>
      <trkpt lat="43.63942" lon="3.82822">
        <ele>130</ele>
        <time>2017-09-07T11:13:56Z</time>
      </trkpt>
      <trkpt lat="43.63934" lon="3.82826">
        <ele>129.3</ele>
        <time>2017-09-07T11:13:58Z</time>
      </trkpt>
      <trkpt lat="43.63928" lon="3.82832">
        <ele>128.9</ele>
        <time>2017-09-07T11:14:00Z</time>
      </trkpt>
      <trkpt lat="43.63929" lon="3.82845">
        <ele>128</ele>
        <time>2017-09-07T11:14:03Z</time>
      </trkpt>
      <trkpt lat="43.63928" lon="3.82855">
        <ele>127.8</ele>
        <time>2017-09-07T11:14:05Z</time>
      </trkpt>
      <trkpt lat="43.63921" lon="3.82862">
        <ele>127.5</ele>
        <time>2017-09-07T11:14:07Z</time>
      </trkpt>
      <trkpt lat="43.63919" lon="3.82873">
        <ele>126.8</ele>
        <time>2017-09-07T11:14:09Z</time>
      </trkpt>
      <trkpt lat="43.63914" lon="3.82884">
        <ele>126.3</ele>
        <time>2017-09-07T11:14:11Z</time>
      </trkpt>
      <trkpt lat="43.63909" lon="3.82895">
        <ele>126</ele>
        <time>2017-09-07T11:14:13Z</time>
      </trkpt>
      <trkpt lat="43.63904" lon="3.82906">
        <ele>125.4</ele>
        <time>2017-09-07T11:14:15Z</time>
      </trkpt>
      <trkpt lat="43.63897" lon="3.82917">
        <ele>124.6</ele>
        <time>2017-09-07T11:14:17Z</time>
      </trkpt>
      <trkpt lat="43.63887" lon="3.8293">
        <ele>123.9</ele>
        <time>2017-09-07T11:14:19Z</time>
      </trkpt>
      <trkpt lat="43.63879" lon="3.8294">
        <ele>123.6</ele>
        <time>2017-09-07T11:14:21Z</time>
      </trkpt>
      <trkpt lat="43.63872" lon="3.82949">
        <ele>123.2</ele>
        <time>2017-09-07T11:14:23Z</time>
      </trkpt>
      <trkpt lat="43.63864" lon="3.8296">
        <ele>122.4</ele>
        <time>2017-09-07T11:14:25Z</time>
      </trkpt>
      <trkpt lat="43.63851" lon="3.82968">
        <ele>121.4</ele>
        <time>2017-09-07T11:14:27Z</time>
      </trkpt>
      <trkpt lat="43.63839" lon="3.82981">
        <ele>121.1</ele>
        <time>2017-09-07T11:14:29Z</time>
      </trkpt>
      <trkpt lat="43.63833" lon="3.82987">
        <ele>121.1</ele>
        <time>2017-09-07T11:14:30Z</time>
      </trkpt>
      <trkpt lat="43.63824" lon="3.82997">
        <ele>121.5</ele>
        <time>2017-09-07T11:14:32Z</time>
      </trkpt>
      <trkpt lat="43.63815" lon="3.83008">
        <ele>121.4</ele>
        <time>2017-09-07T11:14:34Z</time>
      </trkpt>
      <trkpt lat="43.63805" lon="3.83019">
        <ele>120.8</ele>
        <time>2017-09-07T11:14:36Z</time>
      </trkpt>
      <trkpt lat="43.63794" lon="3.8303">
        <ele>120.5</ele>
        <time>2017-09-07T11:14:38Z</time>
      </trkpt>
      <trkpt lat="43.63788" lon="3.83036">
        <ele>120.2</ele>
        <time>2017-09-07T11:14:39Z</time>
      </trkpt>
      <trkpt lat="43.63776" lon="3.83045">
        <ele>119.7</ele>
        <time>2017-09-07T11:14:41Z</time>
      </trkpt>
      <trkpt lat="43.63767" lon="3.83054">
        <ele>119.7</ele>
        <time>2017-09-07T11:14:43Z</time>
      </trkpt>
      <trkpt lat="43.63757" lon="3.83062">
        <ele>119.2</ele>
        <time>2017-09-07T11:14:45Z</time>
      </trkpt>
      <trkpt lat="43.63747" lon="3.83071">
        <ele>118.1</ele>
        <time>2017-09-07T11:14:47Z</time>
      </trkpt>
      <trkpt lat="43.63738" lon="3.8308">
        <ele>117.4</ele>
        <time>2017-09-07T11:14:49Z</time>
      </trkpt>
      <trkpt lat="43.63729" lon="3.83078">
        <ele>117.5</ele>
        <time>2017-09-07T11:14:54Z</time>
      </trkpt>
      <trkpt lat="43.6372" lon="3.83076">
        <ele>117.8</ele>
        <time>2017-09-07T11:14:56Z</time>
      </trkpt>
      <trkpt lat="43.63707" lon="3.83073">
        <ele>117.6</ele>
        <time>2017-09-07T11:14:58Z</time>
      </trkpt>
      <trkpt lat="43.63697" lon="3.83069">
        <ele>117.8</ele>
        <time>2017-09-07T11:15:00Z</time>
      </trkpt>
      <trkpt lat="43.63689" lon="3.83058">
        <ele>117.2</ele>
        <time>2017-09-07T11:15:02Z</time>
      </trkpt>
      <trkpt lat="43.63683" lon="3.83046">
        <ele>117</ele>
        <time>2017-09-07T11:15:04Z</time>
      </trkpt>
      <trkpt lat="43.6368" lon="3.8303">
        <ele>116.7</ele>
        <time>2017-09-07T11:15:06Z</time>
      </trkpt>
      <trkpt lat="43.63679" lon="3.83014">
        <ele>117.3</ele>
        <time>2017-09-07T11:15:08Z</time>
      </trkpt>
      <trkpt lat="43.63679" lon="3.83003">
        <ele>117.7</ele>
        <time>2017-09-07T11:15:10Z</time>
      </trkpt>
      <trkpt lat="43.63676" lon="3.82992">
        <ele>117.8</ele>
        <time>2017-09-07T11:15:12Z</time>
      </trkpt>
      <trkpt lat="43.63671" lon="3.82982">
        <ele>117.7</ele>
        <time>2017-09-07T11:15:14Z</time>
      </trkpt>
      <trkpt lat="43.63669" lon="3.82973">
        <ele>117.6</ele>
        <time>2017-09-07T11:15:16Z</time>
      </trkpt>
      <trkpt lat="43.63666" lon="3.82962">
        <ele>117.7</ele>
        <time>2017-09-07T11:15:18Z</time>
      </trkpt>
      <trkpt lat="43.63665" lon="3.82948">
        <ele>118</ele>
        <time>2017-09-07T11:15:20Z</time>
      </trkpt>
      <trkpt lat="43.63663" lon="3.82938">
        <ele>118.3</ele>
        <time>2017-09-07T11:15:22Z</time>
      </trkpt>
      <trkpt lat="43.6366" lon="3.82928">
        <ele>118.6</ele>
        <time>2017-09-07T11:15:24Z</time>
      </trkpt>
      <trkpt lat="43.63658" lon="3.82917">
        <ele>118.5</ele>
        <time>2017-09-07T11:15:26Z</time>
      </trkpt>
      <trkpt lat="43.63658" lon="3.82902">
        <ele>118.3</ele>
        <time>2017-09-07T11:15:28Z</time>
      </trkpt>
      <trkpt lat="43.63656" lon="3.8289">
        <ele>118.4</ele>
        <time>2017-09-07T11:15:30Z</time>
      </trkpt>
      <trkpt lat="43.63654" lon="3.82878">
        <ele>118.6</ele>
        <time>2017-09-07T11:15:32Z</time>
      </trkpt>
      <trkpt lat="43.63653" lon="3.82868">
        <ele>118.3</ele>
        <time>2017-09-07T11:15:34Z</time>
      </trkpt>
      <trkpt lat="43.63649" lon="3.82856">
        <ele>118.5</ele>
        <time>2017-09-07T11:15:36Z</time>
      </trkpt>
      <trkpt lat="43.63647" lon="3.82844">
        <ele>119</ele>
        <time>2017-09-07T11:15:39Z</time>
      </trkpt>
      <trkpt lat="43.63644" lon="3.82832">
        <ele>120</ele>
        <time>2017-09-07T11:15:41Z</time>
      </trkpt>
      <trkpt lat="43.63642" lon="3.8282">
        <ele>120.2</ele>
        <time>2017-09-07T11:15:43Z</time>
      </trkpt>
      <trkpt lat="43.6364" lon="3.8281">
        <ele>120.4</ele>
        <time>2017-09-07T11:15:45Z</time>
      </trkpt>
      <trkpt lat="43.63642" lon="3.82796">
        <ele>121.4</ele>
        <time>2017-09-07T11:15:52Z</time>
      </trkpt>
      <trkpt lat="43.6364" lon="3.82784">
        <ele>121.9</ele>
        <time>2017-09-07T11:15:55Z</time>
      </trkpt>
      <trkpt lat="43.63635" lon="3.82775">
        <ele>122.3</ele>
        <time>2017-09-07T11:15:58Z</time>
      </trkpt>
      <trkpt lat="43.63634" lon="3.82765">
        <ele>122.9</ele>
        <time>2017-09-07T11:16:02Z</time>
      </trkpt>
      <trkpt lat="43.63633" lon="3.82755">
        <ele>123.5</ele>
        <time>2017-09-07T11:16:06Z</time>
      </trkpt>
      <trkpt lat="43.63633" lon="3.82744">
        <ele>124</ele>
        <time>2017-09-07T11:16:09Z</time>
      </trkpt>
      <trkpt lat="43.63635" lon="3.82734">
        <ele>124.5</ele>
        <time>2017-09-07T11:16:11Z</time>
      </trkpt>
      <trkpt lat="43.63635" lon="3.82724">
        <ele>125.1</ele>
        <time>2017-09-07T11:16:14Z</time>
      </trkpt>
      <trkpt lat="43.63635" lon="3.82711">
        <ele>125.7</ele>
        <time>2017-09-07T11:16:17Z</time>
      </trkpt>
      <trkpt lat="43.63635" lon="3.82698">
        <ele>126.4</ele>
        <time>2017-09-07T11:16:20Z</time>
      </trkpt>
      <trkpt lat="43.63635" lon="3.82686">
        <ele>127.8</ele>
        <time>2017-09-07T11:16:26Z</time>
      </trkpt>
      <trkpt lat="43.63634" lon="3.82674">
        <ele>128.8</ele>
        <time>2017-09-07T11:16:31Z</time>
      </trkpt>
      <trkpt lat="43.63631" lon="3.82664">
        <ele>129.2</ele>
        <time>2017-09-07T11:16:34Z</time>
      </trkpt>
      <trkpt lat="43.63628" lon="3.82653">
        <ele>129.6</ele>
        <time>2017-09-07T11:16:37Z</time>
      </trkpt>
      <trkpt lat="43.63627" lon="3.82641">
        <ele>130.1</ele>
        <time>2017-09-07T11:16:41Z</time>
      </trkpt>
      <trkpt lat="43.63622" lon="3.8263">
        <ele>130.5</ele>
        <time>2017-09-07T11:16:45Z</time>
      </trkpt>
      <trkpt lat="43.63622" lon="3.8262">
        <ele>130.9</ele>
        <time>2017-09-07T11:16:48Z</time>
      </trkpt>
      <trkpt lat="43.63622" lon="3.82609">
        <ele>131.4</ele>
        <time>2017-09-07T11:16:51Z</time>
      </trkpt>
      <trkpt lat="43.63618" lon="3.82598">
        <ele>132.1</ele>
        <time>2017-09-07T11:16:55Z</time>
      </trkpt>
      <trkpt lat="43.63616" lon="3.82588">
        <ele>133</ele>
        <time>2017-09-07T11:17:00Z</time>
      </trkpt>
      <trkpt lat="43.63615" lon="3.82575">
        <ele>134.1</ele>
        <time>2017-09-07T11:17:05Z</time>
      </trkpt>
      <trkpt lat="43.63615" lon="3.82564">
        <ele>134.8</ele>
        <time>2017-09-07T11:17:09Z</time>
      </trkpt>
      <trkpt lat="43.63614" lon="3.82552">
        <ele>135.5</ele>
        <time>2017-09-07T11:17:11Z</time>
      </trkpt>
      <trkpt lat="43.63616" lon="3.8254">
        <ele>136.5</ele>
        <time>2017-09-07T11:17:15Z</time>
      </trkpt>
      <trkpt lat="43.63617" lon="3.82529">
        <ele>137.1</ele>
        <time>2017-09-07T11:17:18Z</time>
      </trkpt>
      <trkpt lat="43.63617" lon="3.82516">
        <ele>137.7</ele>
        <time>2017-09-07T11:17:22Z</time>
      </trkpt>
      <trkpt lat="43.63616" lon="3.82505">
        <ele>138.4</ele>
        <time>2017-09-07T11:17:25Z</time>
      </trkpt>
      <trkpt lat="43.63608" lon="3.82503">
        <ele>139</ele>
        <time>2017-09-07T11:17:29Z</time>
      </trkpt>
      <trkpt lat="43.63599" lon="3.82501">
        <ele>141.4</ele>
        <time>2017-09-07T11:17:32Z</time>
      </trkpt>
      <trkpt lat="43.63591" lon="3.82499">
        <ele>142.8</ele>
        <time>2017-09-07T11:17:34Z</time>
      </trkpt>
      <trkpt lat="43.63583" lon="3.82497">
        <ele>143.6</ele>
        <time>2017-09-07T11:17:36Z</time>
      </trkpt>
      <trkpt lat="43.63573" lon="3.82498">
        <ele>143.8</ele>
        <time>2017-09-07T11:17:38Z</time>
      </trkpt>
      <trkpt lat="43.63566" lon="3.82502">
        <ele>143.7</ele>
        <time>2017-09-07T11:17:40Z</time>
      </trkpt>
      <trkpt lat="43.63561" lon="3.82512">
        <ele>143.8</ele>
        <time>2017-09-07T11:17:43Z</time>
      </trkpt>
      <trkpt lat="43.63557" lon="3.82524">
        <ele>144.1</ele>
        <time>2017-09-07T11:17:45Z</time>
      </trkpt>
      <trkpt lat="43.63552" lon="3.82532">
        <ele>143.9</ele>
        <time>2017-09-07T11:17:46Z</time>
      </trkpt>
      <trkpt lat="43.63547" lon="3.82541">
        <ele>143.9</ele>
        <time>2017-09-07T11:17:48Z</time>
      </trkpt>
      <trkpt lat="43.63539" lon="3.82544">
        <ele>144</ele>
        <time>2017-09-07T11:17:55Z</time>
      </trkpt>
      <trkpt lat="43.63532" lon="3.82544">
        <ele>144</ele>
        <time>2017-09-07T11:17:57Z</time>
      </trkpt>
      <trkpt lat="43.63521" lon="3.82545">
        <ele>143.5</ele>
        <time>2017-09-07T11:18:00Z</time>
      </trkpt>
      <trkpt lat="43.63511" lon="3.82546">
        <ele>143.1</ele>
        <time>2017-09-07T11:18:02Z</time>
      </trkpt>
      <trkpt lat="43.63498" lon="3.82546">
        <ele>142.6</ele>
        <time>2017-09-07T11:18:04Z</time>
      </trkpt>
      <trkpt lat="43.6349" lon="3.82547">
        <ele>142.4</ele>
        <time>2017-09-07T11:18:05Z</time>
      </trkpt>
      <trkpt lat="43.63483" lon="3.82548">
        <ele>142.4</ele>
        <time>2017-09-07T11:18:06Z</time>
      </trkpt>
      <trkpt lat="43.63475" lon="3.82548">
        <ele>142.2</ele>
        <time>2017-09-07T11:18:07Z</time>
      </trkpt>
      <trkpt lat="43.63466" lon="3.82548">
        <ele>141.7</ele>
        <time>2017-09-07T11:18:09Z</time>
      </trkpt>
      <trkpt lat="43.63459" lon="3.82549">
        <ele>141.4</ele>
        <time>2017-09-07T11:18:09Z</time>
      </trkpt>
      <trkpt lat="43.63452" lon="3.8255">
        <ele>141.1</ele>
        <time>2017-09-07T11:18:10Z</time>
      </trkpt>
      <trkpt lat="43.63445" lon="3.8255">
        <ele>140.7</ele>
        <time>2017-09-07T11:18:11Z</time>
      </trkpt>
      <trkpt lat="43.6343" lon="3.82552">
        <ele>139.7</ele>
        <time>2017-09-07T11:18:13Z</time>
      </trkpt>
      <trkpt lat="43.63422" lon="3.82552">
        <ele>139.2</ele>
        <time>2017-09-07T11:18:15Z</time>
      </trkpt>
      <trkpt lat="43.63414" lon="3.82552">
        <ele>138.6</ele>
        <time>2017-09-07T11:18:15Z</time>
      </trkpt>
      <trkpt lat="43.63405" lon="3.82555">
        <ele>138.2</ele>
        <time>2017-09-07T11:18:16Z</time>
      </trkpt>
      <trkpt lat="43.63396" lon="3.82558">
        <ele>137.8</ele>
        <time>2017-09-07T11:18:17Z</time>
      </trkpt>
      <trkpt lat="43.63388" lon="3.8256">
        <ele>137.5</ele>
        <time>2017-09-07T11:18:18Z</time>
      </trkpt>
      <trkpt lat="43.63379" lon="3.82562">
        <ele>137.2</ele>
        <time>2017-09-07T11:18:19Z</time>
      </trkpt>
      <trkpt lat="43.63371" lon="3.82565">
        <ele>137.1</ele>
        <time>2017-09-07T11:18:20Z</time>
      </trkpt>
      <trkpt lat="43.63362" lon="3.8257">
        <ele>136.9</ele>
        <time>2017-09-07T11:18:21Z</time>
      </trkpt>
      <trkpt lat="43.63356" lon="3.82575">
        <ele>136.6</ele>
        <time>2017-09-07T11:18:22Z</time>
      </trkpt>
      <trkpt lat="43.63348" lon="3.82579">
        <ele>136.6</ele>
        <time>2017-09-07T11:18:24Z</time>
      </trkpt>
      <trkpt lat="43.63344" lon="3.82587">
        <ele>136.4</ele>
        <time>2017-09-07T11:18:30Z</time>
      </trkpt>
      <trkpt lat="43.63349" lon="3.82598">
        <ele>136.5</ele>
        <time>2017-09-07T11:18:34Z</time>
      </trkpt>
      <trkpt lat="43.63353" lon="3.82612">
        <ele>136.6</ele>
        <time>2017-09-07T11:18:37Z</time>
      </trkpt>
      <trkpt lat="43.63355" lon="3.82625">
        <ele>136.7</ele>
        <time>2017-09-07T11:18:40Z</time>
      </trkpt>
      <trkpt lat="43.63357" lon="3.82637">
        <ele>136.7</ele>
        <time>2017-09-07T11:18:42Z</time>
      </trkpt>
      <trkpt lat="43.6336" lon="3.82649">
        <ele>136.7</ele>
        <time>2017-09-07T11:18:45Z</time>
      </trkpt>
      <trkpt lat="43.63365" lon="3.82661">
        <ele>136.7</ele>
        <time>2017-09-07T11:18:48Z</time>
      </trkpt>
      <trkpt lat="43.63367" lon="3.82673">
        <ele>136.6</ele>
        <time>2017-09-07T11:18:51Z</time>
      </trkpt>
      <trkpt lat="43.6337" lon="3.82685">
        <ele>136.3</ele>
        <time>2017-09-07T11:18:54Z</time>
      </trkpt>
      <trkpt lat="43.63373" lon="3.82695">
        <ele>136.1</ele>
        <time>2017-09-07T11:18:57Z</time>
      </trkpt>
      <trkpt lat="43.63376" lon="3.82705">
        <ele>135.8</ele>
        <time>2017-09-07T11:19:00Z</time>
      </trkpt>
      <trkpt lat="43.63378" lon="3.82715">
        <ele>135.6</ele>
        <time>2017-09-07T11:19:02Z</time>
      </trkpt>
      <trkpt lat="43.63383" lon="3.82729">
        <ele>135.5</ele>
        <time>2017-09-07T11:19:05Z</time>
      </trkpt>
      <trkpt lat="43.63386" lon="3.82739">
        <ele>135.4</ele>
        <time>2017-09-07T11:19:07Z</time>
      </trkpt>
      <trkpt lat="43.63388" lon="3.82752">
        <ele>135.3</ele>
        <time>2017-09-07T11:19:10Z</time>
      </trkpt>
      <trkpt lat="43.63391" lon="3.82763">
        <ele>133.9</ele>
        <time>2017-09-07T11:19:12Z</time>
      </trkpt>
      <trkpt lat="43.63398" lon="3.82774">
        <ele>132.3</ele>
        <time>2017-09-07T11:19:14Z</time>
      </trkpt>
      <trkpt lat="43.63402" lon="3.82785">
        <ele>131.6</ele>
        <time>2017-09-07T11:19:16Z</time>
      </trkpt>
      <trkpt lat="43.63406" lon="3.82798">
        <ele>130.8</ele>
        <time>2017-09-07T11:19:18Z</time>
      </trkpt>
      <trkpt lat="43.63412" lon="3.8281">
        <ele>130.1</ele>
        <time>2017-09-07T11:19:20Z</time>
      </trkpt>
      <trkpt lat="43.63417" lon="3.8282">
        <ele>130</ele>
        <time>2017-09-07T11:19:25Z</time>
      </trkpt>
      <trkpt lat="43.63424" lon="3.82821">
        <ele>130.4</ele>
        <time>2017-09-07T11:19:31Z</time>
      </trkpt>
      <trkpt lat="43.63431" lon="3.82813">
        <ele>130.9</ele>
        <time>2017-09-07T11:19:34Z</time>
      </trkpt>
      <trkpt lat="43.63438" lon="3.82802">
        <ele>132.9</ele>
        <time>2017-09-07T11:19:37Z</time>
      </trkpt>
      <trkpt lat="43.63444" lon="3.82794">
        <ele>133.2</ele>
        <time>2017-09-07T11:19:39Z</time>
      </trkpt>
      <trkpt lat="43.6345" lon="3.82788">
        <ele>134.4</ele>
        <time>2017-09-07T11:19:41Z</time>
      </trkpt>
      <trkpt lat="43.63457" lon="3.82779">
        <ele>135.8</ele>
        <time>2017-09-07T11:19:43Z</time>
      </trkpt>
      <trkpt lat="43.63464" lon="3.82771">
        <ele>136.6</ele>
        <time>2017-09-07T11:19:45Z</time>
      </trkpt>
      <trkpt lat="43.63473" lon="3.82763">
        <ele>136.3</ele>
        <time>2017-09-07T11:19:47Z</time>
      </trkpt>
      <trkpt lat="43.63482" lon="3.82757">
        <ele>136</ele>
        <time>2017-09-07T11:19:49Z</time>
      </trkpt>
      <trkpt lat="43.6349" lon="3.82749">
        <ele>135.6</ele>
        <time>2017-09-07T11:19:51Z</time>
      </trkpt>
      <trkpt lat="43.63497" lon="3.82739">
        <ele>135.3</ele>
        <time>2017-09-07T11:19:53Z</time>
      </trkpt>
      <trkpt lat="43.63508" lon="3.82733">
        <ele>136.1</ele>
        <time>2017-09-07T11:19:55Z</time>
      </trkpt>
      <trkpt lat="43.63518" lon="3.8273">
        <ele>136.4</ele>
        <time>2017-09-07T11:19:57Z</time>
      </trkpt>
      <trkpt lat="43.63527" lon="3.82727">
        <ele>136</ele>
        <time>2017-09-07T11:19:59Z</time>
      </trkpt>
      <trkpt lat="43.63534" lon="3.82722">
        <ele>135.3</ele>
        <time>2017-09-07T11:20:01Z</time>
      </trkpt>
      <trkpt lat="43.63542" lon="3.82716">
        <ele>135.3</ele>
        <time>2017-09-07T11:20:03Z</time>
      </trkpt>
      <trkpt lat="43.63549" lon="3.82724">
        <ele>135.4</ele>
        <time>2017-09-07T11:20:07Z</time>
      </trkpt>
      <trkpt lat="43.63554" lon="3.82738">
        <ele>135.2</ele>
        <time>2017-09-07T11:20:09Z</time>
      </trkpt>
      <trkpt lat="43.63559" lon="3.82753">
        <ele>135.2</ele>
        <time>2017-09-07T11:20:11Z</time>
      </trkpt>
      <trkpt lat="43.63565" lon="3.82771">
        <ele>135.1</ele>
        <time>2017-09-07T11:20:13Z</time>
      </trkpt>
      <trkpt lat="43.6357" lon="3.82781">
        <ele>135.1</ele>
        <time>2017-09-07T11:20:15Z</time>
      </trkpt>
      <trkpt lat="43.63577" lon="3.82791">
        <ele>135</ele>
        <time>2017-09-07T11:20:18Z</time>
      </trkpt>
      <trkpt lat="43.63588" lon="3.82787">
        <ele>135.1</ele>
        <time>2017-09-07T11:20:21Z</time>
      </trkpt>
      <trkpt lat="43.63597" lon="3.82784">
        <ele>134.9</ele>
        <time>2017-09-07T11:20:23Z</time>
      </trkpt>
      <trkpt lat="43.63609" lon="3.82779">
        <ele>135.1</ele>
        <time>2017-09-07T11:20:25Z</time>
      </trkpt>
      <trkpt lat="43.63621" lon="3.82776">
        <ele>135.4</ele>
        <time>2017-09-07T11:20:27Z</time>
      </trkpt>
      <trkpt lat="43.63632" lon="3.82774">
        <ele>134.8</ele>
        <time>2017-09-07T11:20:29Z</time>
      </trkpt>
      <trkpt lat="43.63643" lon="3.82772">
        <ele>134.2</ele>
        <time>2017-09-07T11:20:31Z</time>
      </trkpt>
      <trkpt lat="43.63654" lon="3.82771">
        <ele>133.7</ele>
        <time>2017-09-07T11:20:33Z</time>
      </trkpt>
      <trkpt lat="43.63665" lon="3.82771">
        <ele>133.7</ele>
        <time>2017-09-07T11:20:35Z</time>
      </trkpt>
      <trkpt lat="43.63677" lon="3.82767">
        <ele>133.5</ele>
        <time>2017-09-07T11:20:37Z</time>
      </trkpt>
      <trkpt lat="43.63688" lon="3.82764">
        <ele>132.5</ele>
        <time>2017-09-07T11:20:39Z</time>
      </trkpt>
      <trkpt lat="43.63699" lon="3.8276">
        <ele>132.7</ele>
        <time>2017-09-07T11:20:41Z</time>
      </trkpt>
      <trkpt lat="43.63709" lon="3.82759">
        <ele>132.9</ele>
        <time>2017-09-07T11:20:43Z</time>
      </trkpt>
      <trkpt lat="43.63719" lon="3.82756">
        <ele>133</ele>
        <time>2017-09-07T11:20:45Z</time>
      </trkpt>
      <trkpt lat="43.63728" lon="3.82753">
        <ele>132.6</ele>
        <time>2017-09-07T11:20:47Z</time>
      </trkpt>
      <trkpt lat="43.63737" lon="3.82756">
        <ele>132.2</ele>
        <time>2017-09-07T11:20:49Z</time>
      </trkpt>
      <trkpt lat="43.63742" lon="3.82766">
        <ele>132.7</ele>
        <time>2017-09-07T11:20:51Z</time>
      </trkpt>
      <trkpt lat="43.63751" lon="3.82783">
        <ele>132.8</ele>
        <time>2017-09-07T11:20:53Z</time>
      </trkpt>
      <trkpt lat="43.63754" lon="3.82792">
        <ele>132.9</ele>
        <time>2017-09-07T11:20:54Z</time>
      </trkpt>
      <trkpt lat="43.63763" lon="3.82808">
        <ele>132.8</ele>
        <time>2017-09-07T11:20:56Z</time>
      </trkpt>
      <trkpt lat="43.6377" lon="3.82823">
        <ele>132.6</ele>
        <time>2017-09-07T11:20:58Z</time>
      </trkpt>
      <trkpt lat="43.63777" lon="3.82837">
        <ele>132</ele>
        <time>2017-09-07T11:21:00Z</time>
      </trkpt>
      <trkpt lat="43.63776" lon="3.82853">
        <ele>131.9</ele>
        <time>2017-09-07T11:21:05Z</time>
      </trkpt>
      <trkpt lat="43.63774" lon="3.82857">
        <ele>131.5</ele>
        <time>2017-09-07T11:21:12Z</time>
      </trkpt>
    </trkseg>
  </trk>
</gpx>